<?xml version="1.0" encoding="UTF-8" standalone="no" ?>
<gpx xmlns="http://www.topografix.com/GPX/1/1" xmlns:xsi="http://www.w3.org/2001/XMLSchema-instance" xsi:schemaLocation="http://www.topografix.com/GPX/1/1 http://www.topografix.com/GPX/1/1/gpx.xsd" version="1.1" creator="VisuGPX - https://www.visugpx.com">
  <metadata>
    <name>Tête du Jarset (de Montalbert)</name>
    <desc><![CDATA[Pas eu le temps de monter au Jovet, dommage...]]></desc>
  </metadata>
  <trk>
    <name><![CDATA[Tête du Jarset]]></name>
    <trkseg>
      <trkpt lat="45.53396" lon="6.6394">
        <ele>1378.1872558594</ele>
        <time>2012-08-12T14:09:29Z</time>
      </trkpt>
      <trkpt lat="45.53396" lon="6.6394">
        <ele>1378.1872558594</ele>
        <time>2012-08-12T14:09:30Z</time>
      </trkpt>
      <trkpt lat="45.53396" lon="6.6394">
        <ele>1378.1872558594</ele>
        <time>2012-08-12T14:09:31Z</time>
      </trkpt>
      <trkpt lat="45.53402" lon="6.63933">
        <ele>1377.2260742188</ele>
        <time>2012-08-12T14:09:47Z</time>
      </trkpt>
      <trkpt lat="45.53418" lon="6.63922">
        <ele>1376.2646484375</ele>
        <time>2012-08-12T14:09:53Z</time>
      </trkpt>
      <trkpt lat="45.53413" lon="6.63908">
        <ele>1376.2646484375</ele>
        <time>2012-08-12T14:09:58Z</time>
      </trkpt>
      <trkpt lat="45.53408" lon="6.63891">
        <ele>1374.8227539062</ele>
        <time>2012-08-12T14:10:02Z</time>
      </trkpt>
      <trkpt lat="45.53363" lon="6.63857">
        <ele>1373.861328125</ele>
        <time>2012-08-12T14:10:06Z</time>
      </trkpt>
      <trkpt lat="45.53413" lon="6.63837">
        <ele>1371.4577636719</ele>
        <time>2012-08-12T14:10:11Z</time>
      </trkpt>
      <trkpt lat="45.53414" lon="6.63807">
        <ele>1368.5739746094</ele>
        <time>2012-08-12T14:10:17Z</time>
      </trkpt>
      <trkpt lat="45.53424" lon="6.63867">
        <ele>1368.5739746094</ele>
        <time>2012-08-12T14:10:18Z</time>
      </trkpt>
      <trkpt lat="45.53418" lon="6.63782">
        <ele>1366.1706542969</ele>
        <time>2012-08-12T14:10:22Z</time>
      </trkpt>
      <trkpt lat="45.53422" lon="6.63749">
        <ele>1363.2868652344</ele>
        <time>2012-08-12T14:10:31Z</time>
      </trkpt>
      <trkpt lat="45.5343" lon="6.63734">
        <ele>1359.9221191406</ele>
        <time>2012-08-12T14:10:38Z</time>
      </trkpt>
      <trkpt lat="45.53435" lon="6.6372">
        <ele>1356.5576171875</ele>
        <time>2012-08-12T14:10:42Z</time>
      </trkpt>
      <trkpt lat="45.53437" lon="6.63717">
        <ele>1356.5576171875</ele>
        <time>2012-08-12T14:10:43Z</time>
      </trkpt>
      <trkpt lat="45.5344" lon="6.63711">
        <ele>1355.1154785156</ele>
        <time>2012-08-12T14:10:45Z</time>
      </trkpt>
      <trkpt lat="45.53458" lon="6.63684">
        <ele>1351.7509765625</ele>
        <time>2012-08-12T14:10:54Z</time>
      </trkpt>
      <trkpt lat="45.5346" lon="6.63683">
        <ele>1351.7509765625</ele>
        <time>2012-08-12T14:10:55Z</time>
      </trkpt>
      <trkpt lat="45.53464" lon="6.63678">
        <ele>1351.2702636719</ele>
        <time>2012-08-12T14:10:57Z</time>
      </trkpt>
      <trkpt lat="45.53464" lon="6.63661">
        <ele>1353.1928710938</ele>
        <time>2012-08-12T14:11:02Z</time>
      </trkpt>
      <trkpt lat="45.53448" lon="6.6363">
        <ele>1353.1928710938</ele>
        <time>2012-08-12T14:11:13Z</time>
      </trkpt>
      <trkpt lat="45.5344" lon="6.6362">
        <ele>1354.154296875</ele>
        <time>2012-08-12T14:11:17Z</time>
      </trkpt>
      <trkpt lat="45.5344" lon="6.63602">
        <ele>1354.634765625</ele>
        <time>2012-08-12T14:11:23Z</time>
      </trkpt>
      <trkpt lat="45.53449" lon="6.63584">
        <ele>1352.7121582031</ele>
        <time>2012-08-12T14:11:29Z</time>
      </trkpt>
      <trkpt lat="45.5345" lon="6.63573">
        <ele>1352.2314453125</ele>
        <time>2012-08-12T14:11:33Z</time>
      </trkpt>
      <trkpt lat="45.53445" lon="6.6356">
        <ele>1351.7509765625</ele>
        <time>2012-08-12T14:11:43Z</time>
      </trkpt>
      <trkpt lat="45.53448" lon="6.6354">
        <ele>1351.2702636719</ele>
        <time>2012-08-12T14:11:49Z</time>
      </trkpt>
      <trkpt lat="45.53453" lon="6.63506">
        <ele>1349.34765625</ele>
        <time>2012-08-12T14:11:58Z</time>
      </trkpt>
      <trkpt lat="45.53449" lon="6.63491">
        <ele>1349.34765625</ele>
        <time>2012-08-12T14:12:08Z</time>
      </trkpt>
      <trkpt lat="45.53435" lon="6.63488">
        <ele>1349.8283691406</ele>
        <time>2012-08-12T14:12:10Z</time>
      </trkpt>
      <trkpt lat="45.53403" lon="6.63449">
        <ele>1350.7895507812</ele>
        <time>2012-08-12T14:12:23Z</time>
      </trkpt>
      <trkpt lat="45.53392" lon="6.63426">
        <ele>1351.7509765625</ele>
        <time>2012-08-12T14:12:31Z</time>
      </trkpt>
      <trkpt lat="45.53384" lon="6.63413">
        <ele>1354.154296875</ele>
        <time>2012-08-12T14:12:37Z</time>
      </trkpt>
      <trkpt lat="45.53382" lon="6.63408">
        <ele>1355.5961914062</ele>
        <time>2012-08-12T14:12:39Z</time>
      </trkpt>
      <trkpt lat="45.53368" lon="6.63382">
        <ele>1358.4802246094</ele>
        <time>2012-08-12T14:12:49Z</time>
      </trkpt>
      <trkpt lat="45.53367" lon="6.6338">
        <ele>1359.4416503906</ele>
        <time>2012-08-12T14:13:04Z</time>
      </trkpt>
      <trkpt lat="45.53351" lon="6.63389">
        <ele>1359.9221191406</ele>
        <time>2012-08-12T14:13:07Z</time>
      </trkpt>
      <trkpt lat="45.53351" lon="6.63389">
        <ele>1360.8835449219</ele>
        <time>2012-08-12T14:13:10Z</time>
      </trkpt>
      <trkpt lat="45.53351" lon="6.63406">
        <ele>1363.7673339844</ele>
        <time>2012-08-12T14:13:22Z</time>
      </trkpt>
      <trkpt lat="45.53349" lon="6.634">
        <ele>1365.6901855469</ele>
        <time>2012-08-12T14:13:28Z</time>
      </trkpt>
      <trkpt lat="45.53348" lon="6.63392">
        <ele>1368.5739746094</ele>
        <time>2012-08-12T14:13:35Z</time>
      </trkpt>
      <trkpt lat="45.53348" lon="6.63391">
        <ele>1369.0546875</ele>
        <time>2012-08-12T14:13:39Z</time>
      </trkpt>
      <trkpt lat="45.53348" lon="6.63396">
        <ele>1370.0158691406</ele>
        <time>2012-08-12T14:13:43Z</time>
      </trkpt>
      <trkpt lat="45.53321" lon="6.63402">
        <ele>1370.9772949219</ele>
        <time>2012-08-12T14:13:48Z</time>
      </trkpt>
      <trkpt lat="45.5332" lon="6.63398">
        <ele>1372.9001464844</ele>
        <time>2012-08-12T14:13:51Z</time>
      </trkpt>
      <trkpt lat="45.53319" lon="6.63393">
        <ele>1373.380859375</ele>
        <time>2012-08-12T14:13:54Z</time>
      </trkpt>
      <trkpt lat="45.53319" lon="6.63393">
        <ele>1374.8227539062</ele>
        <time>2012-08-12T14:13:58Z</time>
      </trkpt>
      <trkpt lat="45.53319" lon="6.63393">
        <ele>1378.1872558594</ele>
        <time>2012-08-12T14:14:11Z</time>
      </trkpt>
      <trkpt lat="45.53319" lon="6.63393">
        <ele>1381.0712890625</ele>
        <time>2012-08-12T14:14:21Z</time>
      </trkpt>
      <trkpt lat="45.53319" lon="6.63393">
        <ele>1382.9936523438</ele>
        <time>2012-08-12T14:14:27Z</time>
      </trkpt>
      <trkpt lat="45.53319" lon="6.63393">
        <ele>1383.4743652344</ele>
        <time>2012-08-12T14:14:34Z</time>
      </trkpt>
      <trkpt lat="45.53286" lon="6.63367">
        <ele>1382.5131835938</ele>
        <time>2012-08-12T14:14:36Z</time>
      </trkpt>
      <trkpt lat="45.53283" lon="6.63353">
        <ele>1382.5131835938</ele>
        <time>2012-08-12T14:14:41Z</time>
      </trkpt>
      <trkpt lat="45.53277" lon="6.6333">
        <ele>1380.1098632812</ele>
        <time>2012-08-12T14:14:48Z</time>
      </trkpt>
      <trkpt lat="45.53267" lon="6.63292">
        <ele>1377.7065429688</ele>
        <time>2012-08-12T14:14:59Z</time>
      </trkpt>
      <trkpt lat="45.53265" lon="6.63284">
        <ele>1377.7065429688</ele>
        <time>2012-08-12T14:15:01Z</time>
      </trkpt>
      <trkpt lat="45.53258" lon="6.63251">
        <ele>1374.8227539062</ele>
        <time>2012-08-12T14:15:10Z</time>
      </trkpt>
      <trkpt lat="45.53254" lon="6.63225">
        <ele>1373.861328125</ele>
        <time>2012-08-12T14:15:17Z</time>
      </trkpt>
      <trkpt lat="45.53247" lon="6.63177">
        <ele>1374.3420410156</ele>
        <time>2012-08-12T14:15:29Z</time>
      </trkpt>
      <trkpt lat="45.53233" lon="6.63164">
        <ele>1375.7839355469</ele>
        <time>2012-08-12T14:15:33Z</time>
      </trkpt>
      <trkpt lat="45.53231" lon="6.63157">
        <ele>1377.2260742188</ele>
        <time>2012-08-12T14:15:36Z</time>
      </trkpt>
      <trkpt lat="45.53228" lon="6.6315">
        <ele>1378.66796875</ele>
        <time>2012-08-12T14:15:39Z</time>
      </trkpt>
      <trkpt lat="45.53208" lon="6.63115">
        <ele>1382.0324707031</ele>
        <time>2012-08-12T14:15:52Z</time>
      </trkpt>
      <trkpt lat="45.53204" lon="6.63107">
        <ele>1382.9936523438</ele>
        <time>2012-08-12T14:15:55Z</time>
      </trkpt>
      <trkpt lat="45.53189" lon="6.63073">
        <ele>1385.8776855469</ele>
        <time>2012-08-12T14:16:06Z</time>
      </trkpt>
      <trkpt lat="45.53169" lon="6.63041">
        <ele>1387.3195800781</ele>
        <time>2012-08-12T14:16:16Z</time>
      </trkpt>
      <trkpt lat="45.53164" lon="6.63027">
        <ele>1389.7231445312</ele>
        <time>2012-08-12T14:16:24Z</time>
      </trkpt>
      <trkpt lat="45.53164" lon="6.63003">
        <ele>1392.6071777344</ele>
        <time>2012-08-12T14:16:37Z</time>
      </trkpt>
      <trkpt lat="45.53154" lon="6.62972">
        <ele>1395.4909667969</ele>
        <time>2012-08-12T14:16:46Z</time>
      </trkpt>
      <trkpt lat="45.5315" lon="6.62966">
        <ele>1397.8942871094</ele>
        <time>2012-08-12T14:16:59Z</time>
      </trkpt>
      <trkpt lat="45.5315" lon="6.62966">
        <ele>1400.7780761719</ele>
        <time>2012-08-12T14:17:16Z</time>
      </trkpt>
      <trkpt lat="45.53105" lon="6.62891">
        <ele>1404.6235351562</ele>
        <time>2012-08-12T14:17:36Z</time>
      </trkpt>
      <trkpt lat="45.53093" lon="6.62867">
        <ele>1407.0268554688</ele>
        <time>2012-08-12T14:17:46Z</time>
      </trkpt>
      <trkpt lat="45.53093" lon="6.62867">
        <ele>1407.0268554688</ele>
        <time>2012-08-12T14:17:48Z</time>
      </trkpt>
      <trkpt lat="45.53093" lon="6.62867">
        <ele>1407.98828125</ele>
        <time>2012-08-12T14:17:50Z</time>
      </trkpt>
      <trkpt lat="45.53064" lon="6.62833">
        <ele>1409.4301757812</ele>
        <time>2012-08-12T14:18:03Z</time>
      </trkpt>
      <trkpt lat="45.53048" lon="6.62817">
        <ele>1410.3913574219</ele>
        <time>2012-08-12T14:18:16Z</time>
      </trkpt>
      <trkpt lat="45.53038" lon="6.62806">
        <ele>1410.3913574219</ele>
        <time>2012-08-12T14:18:23Z</time>
      </trkpt>
      <trkpt lat="45.53018" lon="6.62782">
        <ele>1413.275390625</ele>
        <time>2012-08-12T14:18:36Z</time>
      </trkpt>
      <trkpt lat="45.53005" lon="6.62762">
        <ele>1414.7172851562</ele>
        <time>2012-08-12T14:18:49Z</time>
      </trkpt>
      <trkpt lat="45.52986" lon="6.62727">
        <ele>1416.1591796875</ele>
        <time>2012-08-12T14:19:01Z</time>
      </trkpt>
      <trkpt lat="45.52969" lon="6.62694">
        <ele>1417.1206054688</ele>
        <time>2012-08-12T14:19:08Z</time>
      </trkpt>
      <trkpt lat="45.52921" lon="6.62624">
        <ele>1417.6010742188</ele>
        <time>2012-08-12T14:19:23Z</time>
      </trkpt>
      <trkpt lat="45.52906" lon="6.62602">
        <ele>1418.0817871094</ele>
        <time>2012-08-12T14:19:29Z</time>
      </trkpt>
      <trkpt lat="45.52904" lon="6.62598">
        <ele>1419.5239257812</ele>
        <time>2012-08-12T14:19:31Z</time>
      </trkpt>
      <trkpt lat="45.52872" lon="6.62587">
        <ele>1419.5239257812</ele>
        <time>2012-08-12T14:19:41Z</time>
      </trkpt>
      <trkpt lat="45.52846" lon="6.62571">
        <ele>1420.4853515625</ele>
        <time>2012-08-12T14:19:51Z</time>
      </trkpt>
      <trkpt lat="45.52834" lon="6.62552">
        <ele>1420.9660644531</ele>
        <time>2012-08-12T14:20:02Z</time>
      </trkpt>
      <trkpt lat="45.52819" lon="6.6253">
        <ele>1421.4465332031</ele>
        <time>2012-08-12T14:20:09Z</time>
      </trkpt>
      <trkpt lat="45.52808" lon="6.62515">
        <ele>1421.4465332031</ele>
        <time>2012-08-12T14:20:14Z</time>
      </trkpt>
      <trkpt lat="45.52795" lon="6.62503">
        <ele>1421.9272460938</ele>
        <time>2012-08-12T14:20:19Z</time>
      </trkpt>
      <trkpt lat="45.52748" lon="6.62492">
        <ele>1423.8498535156</ele>
        <time>2012-08-12T14:20:33Z</time>
      </trkpt>
      <trkpt lat="45.52729" lon="6.62494">
        <ele>1424.8112792969</ele>
        <time>2012-08-12T14:20:43Z</time>
      </trkpt>
      <trkpt lat="45.52724" lon="6.62494">
        <ele>1424.3305664062</ele>
        <time>2012-08-12T14:20:46Z</time>
      </trkpt>
      <trkpt lat="45.5271" lon="6.62495">
        <ele>1424.8112792969</ele>
        <time>2012-08-12T14:20:53Z</time>
      </trkpt>
      <trkpt lat="45.52683" lon="6.62484">
        <ele>1425.2917480469</ele>
        <time>2012-08-12T14:21:04Z</time>
      </trkpt>
      <trkpt lat="45.52641" lon="6.62443">
        <ele>1427.2145996094</ele>
        <time>2012-08-12T14:21:18Z</time>
      </trkpt>
      <trkpt lat="45.52631" lon="6.62424">
        <ele>1429.6176757812</ele>
        <time>2012-08-12T14:21:27Z</time>
      </trkpt>
      <trkpt lat="45.52604" lon="6.6241">
        <ele>1432.0209960938</ele>
        <time>2012-08-12T14:21:35Z</time>
      </trkpt>
      <trkpt lat="45.52587" lon="6.62417">
        <ele>1434.4243164062</ele>
        <time>2012-08-12T14:21:45Z</time>
      </trkpt>
      <trkpt lat="45.5258" lon="6.62424">
        <ele>1434.9050292969</ele>
        <time>2012-08-12T14:21:49Z</time>
      </trkpt>
      <trkpt lat="45.52565" lon="6.62438">
        <ele>1436.8276367188</ele>
        <time>2012-08-12T14:21:58Z</time>
      </trkpt>
      <trkpt lat="45.52561" lon="6.62441">
        <ele>1438.2697753906</ele>
        <time>2012-08-12T14:22:01Z</time>
      </trkpt>
      <trkpt lat="45.52527" lon="6.6244">
        <ele>1441.6342773438</ele>
        <time>2012-08-12T14:22:14Z</time>
      </trkpt>
      <trkpt lat="45.52522" lon="6.62435">
        <ele>1442.595703125</ele>
        <time>2012-08-12T14:22:17Z</time>
      </trkpt>
      <trkpt lat="45.52507" lon="6.6242">
        <ele>1444.5180664062</ele>
        <time>2012-08-12T14:22:25Z</time>
      </trkpt>
      <trkpt lat="45.52491" lon="6.62409">
        <ele>1446.9213867188</ele>
        <time>2012-08-12T14:22:33Z</time>
      </trkpt>
      <trkpt lat="45.52484" lon="6.62405">
        <ele>1447.8828125</ele>
        <time>2012-08-12T14:22:37Z</time>
      </trkpt>
      <trkpt lat="45.52481" lon="6.62405">
        <ele>1448.36328125</ele>
        <time>2012-08-12T14:22:42Z</time>
      </trkpt>
      <trkpt lat="45.52476" lon="6.62411">
        <ele>1449.8054199219</ele>
        <time>2012-08-12T14:22:49Z</time>
      </trkpt>
      <trkpt lat="45.52472" lon="6.62415">
        <ele>1451.2473144531</ele>
        <time>2012-08-12T14:22:53Z</time>
      </trkpt>
      <trkpt lat="45.52459" lon="6.62433">
        <ele>1453.1701660156</ele>
        <time>2012-08-12T14:23:07Z</time>
      </trkpt>
      <trkpt lat="45.52436" lon="6.62452">
        <ele>1455.0927734375</ele>
        <time>2012-08-12T14:23:17Z</time>
      </trkpt>
      <trkpt lat="45.52427" lon="6.62469">
        <ele>1457.0153808594</ele>
        <time>2012-08-12T14:23:25Z</time>
      </trkpt>
      <trkpt lat="45.52415" lon="6.6247">
        <ele>1458.9379882812</ele>
        <time>2012-08-12T14:23:31Z</time>
      </trkpt>
      <trkpt lat="45.52403" lon="6.62476">
        <ele>1461.8220214844</ele>
        <time>2012-08-12T14:23:41Z</time>
      </trkpt>
      <trkpt lat="45.524" lon="6.62486">
        <ele>1465.1865234375</ele>
        <time>2012-08-12T14:23:52Z</time>
      </trkpt>
      <trkpt lat="45.52399" lon="6.62487">
        <ele>1465.1865234375</ele>
        <time>2012-08-12T14:23:53Z</time>
      </trkpt>
      <trkpt lat="45.52398" lon="6.62487">
        <ele>1465.1865234375</ele>
        <time>2012-08-12T14:23:54Z</time>
      </trkpt>
      <trkpt lat="45.52389" lon="6.62495">
        <ele>1469.0319824219</ele>
        <time>2012-08-12T14:24:03Z</time>
      </trkpt>
      <trkpt lat="45.52388" lon="6.62496">
        <ele>1469.0319824219</ele>
        <time>2012-08-12T14:24:04Z</time>
      </trkpt>
      <trkpt lat="45.52386" lon="6.62499">
        <ele>1470.4738769531</ele>
        <time>2012-08-12T14:24:08Z</time>
      </trkpt>
      <trkpt lat="45.52379" lon="6.62503">
        <ele>1471.4350585938</ele>
        <time>2012-08-12T14:24:13Z</time>
      </trkpt>
      <trkpt lat="45.52374" lon="6.62512">
        <ele>1473.8383789062</ele>
        <time>2012-08-12T14:24:21Z</time>
      </trkpt>
      <trkpt lat="45.52375" lon="6.62513">
        <ele>1474.7998046875</ele>
        <time>2012-08-12T14:24:22Z</time>
      </trkpt>
      <trkpt lat="45.52379" lon="6.6253">
        <ele>1476.2416992188</ele>
        <time>2012-08-12T14:24:30Z</time>
      </trkpt>
      <trkpt lat="45.52377" lon="6.62537">
        <ele>1478.1643066406</ele>
        <time>2012-08-12T14:24:36Z</time>
      </trkpt>
      <trkpt lat="45.52368" lon="6.62561">
        <ele>1481.5288085938</ele>
        <time>2012-08-12T14:24:52Z</time>
      </trkpt>
      <trkpt lat="45.52358" lon="6.62575">
        <ele>1484.4130859375</ele>
        <time>2012-08-12T14:25:04Z</time>
      </trkpt>
      <trkpt lat="45.52343" lon="6.62591">
        <ele>1486.3356933594</ele>
        <time>2012-08-12T14:25:16Z</time>
      </trkpt>
      <trkpt lat="45.52341" lon="6.62593">
        <ele>1486.3356933594</ele>
        <time>2012-08-12T14:25:17Z</time>
      </trkpt>
      <trkpt lat="45.52334" lon="6.6261">
        <ele>1489.2194824219</ele>
        <time>2012-08-12T14:25:32Z</time>
      </trkpt>
      <trkpt lat="45.52329" lon="6.62628">
        <ele>1491.1420898438</ele>
        <time>2012-08-12T14:25:47Z</time>
      </trkpt>
      <trkpt lat="45.52321" lon="6.62641">
        <ele>1494.0261230469</ele>
        <time>2012-08-12T14:25:57Z</time>
      </trkpt>
      <trkpt lat="45.52309" lon="6.62646">
        <ele>1497.390625</ele>
        <time>2012-08-12T14:26:10Z</time>
      </trkpt>
      <trkpt lat="45.52304" lon="6.62651">
        <ele>1498.8325195312</ele>
        <time>2012-08-12T14:26:15Z</time>
      </trkpt>
      <trkpt lat="45.52301" lon="6.62655">
        <ele>1498.8325195312</ele>
        <time>2012-08-12T14:26:17Z</time>
      </trkpt>
      <trkpt lat="45.52295" lon="6.62664">
        <ele>1502.6779785156</ele>
        <time>2012-08-12T14:26:26Z</time>
      </trkpt>
      <trkpt lat="45.52282" lon="6.62675">
        <ele>1506.5231933594</ele>
        <time>2012-08-12T14:26:38Z</time>
      </trkpt>
      <trkpt lat="45.52272" lon="6.62684">
        <ele>1509.4072265625</ele>
        <time>2012-08-12T14:26:48Z</time>
      </trkpt>
      <trkpt lat="45.52268" lon="6.62694">
        <ele>1512.291015625</ele>
        <time>2012-08-12T14:26:55Z</time>
      </trkpt>
      <trkpt lat="45.52266" lon="6.62698">
        <ele>1512.7717285156</ele>
        <time>2012-08-12T14:26:58Z</time>
      </trkpt>
      <trkpt lat="45.52264" lon="6.627">
        <ele>1513.2524414062</ele>
        <time>2012-08-12T14:27:00Z</time>
      </trkpt>
      <trkpt lat="45.52254" lon="6.62713">
        <ele>1516.6171875</ele>
        <time>2012-08-12T14:27:13Z</time>
      </trkpt>
      <trkpt lat="45.52253" lon="6.62716">
        <ele>1517.5783691406</ele>
        <time>2012-08-12T14:27:15Z</time>
      </trkpt>
      <trkpt lat="45.52245" lon="6.62727">
        <ele>1520.9431152344</ele>
        <time>2012-08-12T14:27:27Z</time>
      </trkpt>
      <trkpt lat="45.52239" lon="6.62734">
        <ele>1524.3076171875</ele>
        <time>2012-08-12T14:27:36Z</time>
      </trkpt>
      <trkpt lat="45.52234" lon="6.62742">
        <ele>1527.1916503906</ele>
        <time>2012-08-12T14:27:45Z</time>
      </trkpt>
      <trkpt lat="45.52232" lon="6.62745">
        <ele>1528.1528320312</ele>
        <time>2012-08-12T14:27:47Z</time>
      </trkpt>
      <trkpt lat="45.52228" lon="6.62752">
        <ele>1530.5561523438</ele>
        <time>2012-08-12T14:27:54Z</time>
      </trkpt>
      <trkpt lat="45.52225" lon="6.62757">
        <ele>1531.5173339844</ele>
        <time>2012-08-12T14:27:58Z</time>
      </trkpt>
      <trkpt lat="45.5222" lon="6.62772">
        <ele>1535.3627929688</ele>
        <time>2012-08-12T14:28:09Z</time>
      </trkpt>
      <trkpt lat="45.52219" lon="6.6278">
        <ele>1536.8046875</ele>
        <time>2012-08-12T14:28:15Z</time>
      </trkpt>
      <trkpt lat="45.52218" lon="6.62787">
        <ele>1538.2468261719</ele>
        <time>2012-08-12T14:28:20Z</time>
      </trkpt>
      <trkpt lat="45.52219" lon="6.62793">
        <ele>1539.6887207031</ele>
        <time>2012-08-12T14:28:24Z</time>
      </trkpt>
      <trkpt lat="45.52222" lon="6.62803">
        <ele>1542.0920410156</ele>
        <time>2012-08-12T14:28:31Z</time>
      </trkpt>
      <trkpt lat="45.52225" lon="6.62817">
        <ele>1545.4565429688</ele>
        <time>2012-08-12T14:28:41Z</time>
      </trkpt>
      <trkpt lat="45.52228" lon="6.62829">
        <ele>1546.8984375</ele>
        <time>2012-08-12T14:28:56Z</time>
      </trkpt>
      <trkpt lat="45.52233" lon="6.62841">
        <ele>1550.2634277344</ele>
        <time>2012-08-12T14:29:09Z</time>
      </trkpt>
      <trkpt lat="45.52236" lon="6.62856">
        <ele>1553.1472167969</ele>
        <time>2012-08-12T14:29:21Z</time>
      </trkpt>
      <trkpt lat="45.52236" lon="6.62857">
        <ele>1553.1472167969</ele>
        <time>2012-08-12T14:29:22Z</time>
      </trkpt>
      <trkpt lat="45.52246" lon="6.62872">
        <ele>1556.51171875</ele>
        <time>2012-08-12T14:29:32Z</time>
      </trkpt>
      <trkpt lat="45.52254" lon="6.62886">
        <ele>1559.3957519531</ele>
        <time>2012-08-12T14:29:43Z</time>
      </trkpt>
      <trkpt lat="45.52257" lon="6.62898">
        <ele>1562.2795410156</ele>
        <time>2012-08-12T14:29:59Z</time>
      </trkpt>
      <trkpt lat="45.52262" lon="6.62913">
        <ele>1564.6831054688</ele>
        <time>2012-08-12T14:30:10Z</time>
      </trkpt>
      <trkpt lat="45.52264" lon="6.62922">
        <ele>1566.125</ele>
        <time>2012-08-12T14:30:15Z</time>
      </trkpt>
      <trkpt lat="45.52266" lon="6.6293">
        <ele>1566.6057128906</ele>
        <time>2012-08-12T14:30:19Z</time>
      </trkpt>
      <trkpt lat="45.52271" lon="6.62942">
        <ele>1568.5283203125</ele>
        <time>2012-08-12T14:30:26Z</time>
      </trkpt>
      <trkpt lat="45.52274" lon="6.62948">
        <ele>1570.4509277344</ele>
        <time>2012-08-12T14:30:30Z</time>
      </trkpt>
      <trkpt lat="45.52276" lon="6.62954">
        <ele>1570.931640625</ele>
        <time>2012-08-12T14:30:34Z</time>
      </trkpt>
      <trkpt lat="45.52278" lon="6.6296">
        <ele>1572.8542480469</ele>
        <time>2012-08-12T14:30:39Z</time>
      </trkpt>
      <trkpt lat="45.52279" lon="6.62969">
        <ele>1574.7768554688</ele>
        <time>2012-08-12T14:30:45Z</time>
      </trkpt>
      <trkpt lat="45.52272" lon="6.62975">
        <ele>1576.21875</ele>
        <time>2012-08-12T14:30:52Z</time>
      </trkpt>
      <trkpt lat="45.52244" lon="6.62984">
        <ele>1579.5832519531</ele>
        <time>2012-08-12T14:31:04Z</time>
      </trkpt>
      <trkpt lat="45.52235" lon="6.62987">
        <ele>1580.0642089844</ele>
        <time>2012-08-12T14:31:08Z</time>
      </trkpt>
      <trkpt lat="45.52209" lon="6.62996">
        <ele>1582.4675292969</ele>
        <time>2012-08-12T14:31:19Z</time>
      </trkpt>
      <trkpt lat="45.5219" lon="6.62998">
        <ele>1585.3513183594</ele>
        <time>2012-08-12T14:31:27Z</time>
      </trkpt>
      <trkpt lat="45.52172" lon="6.62997">
        <ele>1586.7932128906</ele>
        <time>2012-08-12T14:31:34Z</time>
      </trkpt>
      <trkpt lat="45.52151" lon="6.63005">
        <ele>1587.7546386719</ele>
        <time>2012-08-12T14:31:43Z</time>
      </trkpt>
      <trkpt lat="45.52143" lon="6.63009">
        <ele>1588.7160644531</ele>
        <time>2012-08-12T14:31:46Z</time>
      </trkpt>
      <trkpt lat="45.52135" lon="6.63017">
        <ele>1590.1579589844</ele>
        <time>2012-08-12T14:31:50Z</time>
      </trkpt>
      <trkpt lat="45.52122" lon="6.63044">
        <ele>1591.5998535156</ele>
        <time>2012-08-12T14:32:05Z</time>
      </trkpt>
      <trkpt lat="45.52116" lon="6.63052">
        <ele>1592.0805664062</ele>
        <time>2012-08-12T14:32:23Z</time>
      </trkpt>
      <trkpt lat="45.52115" lon="6.63053">
        <ele>1592.0805664062</ele>
        <time>2012-08-12T14:32:28Z</time>
      </trkpt>
      <trkpt lat="45.52092" lon="6.6307">
        <ele>1594.9643554688</ele>
        <time>2012-08-12T14:32:41Z</time>
      </trkpt>
      <trkpt lat="45.52083" lon="6.63082">
        <ele>1595.92578125</ele>
        <time>2012-08-12T14:32:46Z</time>
      </trkpt>
      <trkpt lat="45.52074" lon="6.63098">
        <ele>1597.3679199219</ele>
        <time>2012-08-12T14:32:52Z</time>
      </trkpt>
      <trkpt lat="45.52073" lon="6.63105">
        <ele>1597.3679199219</ele>
        <time>2012-08-12T14:32:54Z</time>
      </trkpt>
      <trkpt lat="45.5207" lon="6.63116">
        <ele>1598.3291015625</ele>
        <time>2012-08-12T14:32:57Z</time>
      </trkpt>
      <trkpt lat="45.52058" lon="6.63136">
        <ele>1599.7712402344</ele>
        <time>2012-08-12T14:33:04Z</time>
      </trkpt>
      <trkpt lat="45.52036" lon="6.63162">
        <ele>1599.7712402344</ele>
        <time>2012-08-12T14:33:15Z</time>
      </trkpt>
      <trkpt lat="45.5202" lon="6.632">
        <ele>1598.3291015625</ele>
        <time>2012-08-12T14:33:25Z</time>
      </trkpt>
      <trkpt lat="45.52005" lon="6.6325">
        <ele>1597.8486328125</ele>
        <time>2012-08-12T14:33:37Z</time>
      </trkpt>
      <trkpt lat="45.51978" lon="6.63296">
        <ele>1595.92578125</ele>
        <time>2012-08-12T14:33:50Z</time>
      </trkpt>
      <trkpt lat="45.51963" lon="6.63311">
        <ele>1594.4836425781</ele>
        <time>2012-08-12T14:33:56Z</time>
      </trkpt>
      <trkpt lat="45.51954" lon="6.63322">
        <ele>1594.4836425781</ele>
        <time>2012-08-12T14:34:00Z</time>
      </trkpt>
      <trkpt lat="45.51929" lon="6.63353">
        <ele>1592.5612792969</ele>
        <time>2012-08-12T14:34:10Z</time>
      </trkpt>
      <trkpt lat="45.51927" lon="6.6336">
        <ele>1592.0805664062</ele>
        <time>2012-08-12T14:34:12Z</time>
      </trkpt>
      <trkpt lat="45.51916" lon="6.63373">
        <ele>1592.0805664062</ele>
        <time>2012-08-12T14:34:18Z</time>
      </trkpt>
      <trkpt lat="45.51899" lon="6.63373">
        <ele>1592.0805664062</ele>
        <time>2012-08-12T14:34:27Z</time>
      </trkpt>
      <trkpt lat="45.51881" lon="6.6336">
        <ele>1590.6384277344</ele>
        <time>2012-08-12T14:34:33Z</time>
      </trkpt>
      <trkpt lat="45.51842" lon="6.63327">
        <ele>1590.6384277344</ele>
        <time>2012-08-12T14:34:46Z</time>
      </trkpt>
      <trkpt lat="45.51831" lon="6.63307">
        <ele>1590.6384277344</ele>
        <time>2012-08-12T14:34:53Z</time>
      </trkpt>
      <trkpt lat="45.51821" lon="6.63289">
        <ele>1590.6384277344</ele>
        <time>2012-08-12T14:34:58Z</time>
      </trkpt>
      <trkpt lat="45.51802" lon="6.63286">
        <ele>1592.5612792969</ele>
        <time>2012-08-12T14:35:09Z</time>
      </trkpt>
      <trkpt lat="45.518" lon="6.63289">
        <ele>1592.5612792969</ele>
        <time>2012-08-12T14:35:11Z</time>
      </trkpt>
      <trkpt lat="45.51801" lon="6.6332">
        <ele>1593.0417480469</ele>
        <time>2012-08-12T14:35:24Z</time>
      </trkpt>
      <trkpt lat="45.51806" lon="6.63326">
        <ele>1594.4836425781</ele>
        <time>2012-08-12T14:36:07Z</time>
      </trkpt>
      <trkpt lat="45.51807" lon="6.63325">
        <ele>1595.4450683594</ele>
        <time>2012-08-12T14:36:09Z</time>
      </trkpt>
      <trkpt lat="45.51809" lon="6.63314">
        <ele>1598.8098144531</ele>
        <time>2012-08-12T14:36:20Z</time>
      </trkpt>
      <trkpt lat="45.51811" lon="6.63321">
        <ele>1600.251953125</ele>
        <time>2012-08-12T14:36:26Z</time>
      </trkpt>
      <trkpt lat="45.51812" lon="6.63325">
        <ele>1601.2131347656</ele>
        <time>2012-08-12T14:36:28Z</time>
      </trkpt>
      <trkpt lat="45.51822" lon="6.63346">
        <ele>1604.5776367188</ele>
        <time>2012-08-12T14:36:40Z</time>
      </trkpt>
      <trkpt lat="45.51823" lon="6.63349">
        <ele>1605.0583496094</ele>
        <time>2012-08-12T14:36:42Z</time>
      </trkpt>
      <trkpt lat="45.5182" lon="6.63355">
        <ele>1606.5002441406</ele>
        <time>2012-08-12T14:36:48Z</time>
      </trkpt>
      <trkpt lat="45.51821" lon="6.63362">
        <ele>1607.4616699219</ele>
        <time>2012-08-12T14:36:51Z</time>
      </trkpt>
      <trkpt lat="45.51825" lon="6.63386">
        <ele>1611.3068847656</ele>
        <time>2012-08-12T14:37:06Z</time>
      </trkpt>
      <trkpt lat="45.51825" lon="6.6342">
        <ele>1614.1909179688</ele>
        <time>2012-08-12T14:37:20Z</time>
      </trkpt>
      <trkpt lat="45.51825" lon="6.63428">
        <ele>1615.15234375</ele>
        <time>2012-08-12T14:37:24Z</time>
      </trkpt>
      <trkpt lat="45.51824" lon="6.63442">
        <ele>1616.1135253906</ele>
        <time>2012-08-12T14:37:30Z</time>
      </trkpt>
      <trkpt lat="45.51825" lon="6.63456">
        <ele>1617.0749511719</ele>
        <time>2012-08-12T14:37:35Z</time>
      </trkpt>
      <trkpt lat="45.51827" lon="6.63462">
        <ele>1618.5168457031</ele>
        <time>2012-08-12T14:37:39Z</time>
      </trkpt>
      <trkpt lat="45.51832" lon="6.63489">
        <ele>1622.3620605469</ele>
        <time>2012-08-12T14:37:50Z</time>
      </trkpt>
      <trkpt lat="45.51833" lon="6.63496">
        <ele>1622.8427734375</ele>
        <time>2012-08-12T14:37:53Z</time>
      </trkpt>
      <trkpt lat="45.51836" lon="6.63507">
        <ele>1624.7653808594</ele>
        <time>2012-08-12T14:37:57Z</time>
      </trkpt>
      <trkpt lat="45.51831" lon="6.63512">
        <ele>1624.7653808594</ele>
        <time>2012-08-12T14:38:00Z</time>
      </trkpt>
      <trkpt lat="45.51829" lon="6.63521">
        <ele>1626.6879882812</ele>
        <time>2012-08-12T14:38:03Z</time>
      </trkpt>
      <trkpt lat="45.51829" lon="6.63526">
        <ele>1627.1687011719</ele>
        <time>2012-08-12T14:38:05Z</time>
      </trkpt>
      <trkpt lat="45.51827" lon="6.63546">
        <ele>1629.0913085938</ele>
        <time>2012-08-12T14:38:16Z</time>
      </trkpt>
      <trkpt lat="45.51815" lon="6.6357">
        <ele>1632.4560546875</ele>
        <time>2012-08-12T14:38:32Z</time>
      </trkpt>
      <trkpt lat="45.51816" lon="6.63573">
        <ele>1632.4560546875</ele>
        <time>2012-08-12T14:38:33Z</time>
      </trkpt>
      <trkpt lat="45.51816" lon="6.6359">
        <ele>1633.8979492188</ele>
        <time>2012-08-12T14:38:41Z</time>
      </trkpt>
      <trkpt lat="45.51795" lon="6.63618">
        <ele>1635.8205566406</ele>
        <time>2012-08-12T14:38:54Z</time>
      </trkpt>
      <trkpt lat="45.51776" lon="6.63633">
        <ele>1638.7045898438</ele>
        <time>2012-08-12T14:39:04Z</time>
      </trkpt>
      <trkpt lat="45.51764" lon="6.63638">
        <ele>1640.146484375</ele>
        <time>2012-08-12T14:39:13Z</time>
      </trkpt>
      <trkpt lat="45.51761" lon="6.63649">
        <ele>1641.5883789062</ele>
        <time>2012-08-12T14:39:18Z</time>
      </trkpt>
      <trkpt lat="45.51763" lon="6.6367">
        <ele>1643.5109863281</ele>
        <time>2012-08-12T14:39:28Z</time>
      </trkpt>
      <trkpt lat="45.51766" lon="6.63678">
        <ele>1644.953125</ele>
        <time>2012-08-12T14:39:32Z</time>
      </trkpt>
      <trkpt lat="45.51769" lon="6.63682">
        <ele>1645.9145507812</ele>
        <time>2012-08-12T14:39:36Z</time>
      </trkpt>
      <trkpt lat="45.51775" lon="6.6369">
        <ele>1647.3564453125</ele>
        <time>2012-08-12T14:39:40Z</time>
      </trkpt>
      <trkpt lat="45.51788" lon="6.63724">
        <ele>1651.2016601562</ele>
        <time>2012-08-12T14:39:50Z</time>
      </trkpt>
      <trkpt lat="45.51791" lon="6.63733">
        <ele>1652.1628417969</ele>
        <time>2012-08-12T14:39:54Z</time>
      </trkpt>
      <trkpt lat="45.51803" lon="6.6375">
        <ele>1654.5661621094</ele>
        <time>2012-08-12T14:40:06Z</time>
      </trkpt>
      <trkpt lat="45.51804" lon="6.63758">
        <ele>1655.5275878906</ele>
        <time>2012-08-12T14:40:11Z</time>
      </trkpt>
      <trkpt lat="45.51807" lon="6.63772">
        <ele>1656.9694824219</ele>
        <time>2012-08-12T14:40:21Z</time>
      </trkpt>
      <trkpt lat="45.51799" lon="6.63807">
        <ele>1660.3342285156</ele>
        <time>2012-08-12T14:40:37Z</time>
      </trkpt>
      <trkpt lat="45.51797" lon="6.63813">
        <ele>1660.8149414062</ele>
        <time>2012-08-12T14:40:40Z</time>
      </trkpt>
      <trkpt lat="45.5179" lon="6.63829">
        <ele>1662.2568359375</ele>
        <time>2012-08-12T14:40:49Z</time>
      </trkpt>
      <trkpt lat="45.51789" lon="6.63834">
        <ele>1661.7763671875</ele>
        <time>2012-08-12T14:40:52Z</time>
      </trkpt>
      <trkpt lat="45.51787" lon="6.6385">
        <ele>1663.6987304688</ele>
        <time>2012-08-12T14:40:59Z</time>
      </trkpt>
      <trkpt lat="45.51781" lon="6.63857">
        <ele>1663.6987304688</ele>
        <time>2012-08-12T14:41:04Z</time>
      </trkpt>
      <trkpt lat="45.51779" lon="6.63862">
        <ele>1665.1408691406</ele>
        <time>2012-08-12T14:41:08Z</time>
      </trkpt>
      <trkpt lat="45.51777" lon="6.63864">
        <ele>1666.1020507812</ele>
        <time>2012-08-12T14:41:09Z</time>
      </trkpt>
      <trkpt lat="45.51776" lon="6.63871">
        <ele>1666.1020507812</ele>
        <time>2012-08-12T14:41:12Z</time>
      </trkpt>
      <trkpt lat="45.51775" lon="6.63882">
        <ele>1668.5053710938</ele>
        <time>2012-08-12T14:41:17Z</time>
      </trkpt>
      <trkpt lat="45.51771" lon="6.63893">
        <ele>1670.4279785156</ele>
        <time>2012-08-12T14:41:27Z</time>
      </trkpt>
      <trkpt lat="45.51765" lon="6.63907">
        <ele>1673.3120117188</ele>
        <time>2012-08-12T14:41:39Z</time>
      </trkpt>
      <trkpt lat="45.51765" lon="6.63916">
        <ele>1674.2731933594</ele>
        <time>2012-08-12T14:41:45Z</time>
      </trkpt>
      <trkpt lat="45.51767" lon="6.63938">
        <ele>1676.6767578125</ele>
        <time>2012-08-12T14:41:58Z</time>
      </trkpt>
      <trkpt lat="45.51764" lon="6.63939">
        <ele>1677.6379394531</ele>
        <time>2012-08-12T14:42:00Z</time>
      </trkpt>
      <trkpt lat="45.5176" lon="6.63945">
        <ele>1677.6379394531</ele>
        <time>2012-08-12T14:42:02Z</time>
      </trkpt>
      <trkpt lat="45.51758" lon="6.63974">
        <ele>1679.560546875</ele>
        <time>2012-08-12T14:42:12Z</time>
      </trkpt>
      <trkpt lat="45.51761" lon="6.63983">
        <ele>1681.4831542969</ele>
        <time>2012-08-12T14:42:17Z</time>
      </trkpt>
      <trkpt lat="45.51759" lon="6.63996">
        <ele>1684.8479003906</ele>
        <time>2012-08-12T14:42:25Z</time>
      </trkpt>
      <trkpt lat="45.51759" lon="6.63996">
        <ele>1685.3283691406</ele>
        <time>2012-08-12T14:42:26Z</time>
      </trkpt>
      <trkpt lat="45.51759" lon="6.63994">
        <ele>1688.2124023438</ele>
        <time>2012-08-12T14:42:35Z</time>
      </trkpt>
      <trkpt lat="45.51764" lon="6.6399">
        <ele>1691.5769042969</ele>
        <time>2012-08-12T14:42:44Z</time>
      </trkpt>
      <trkpt lat="45.51773" lon="6.63991">
        <ele>1694.9416503906</ele>
        <time>2012-08-12T14:42:55Z</time>
      </trkpt>
      <trkpt lat="45.51782" lon="6.64014">
        <ele>1697.8256835938</ele>
        <time>2012-08-12T14:43:09Z</time>
      </trkpt>
      <trkpt lat="45.51775" lon="6.64023">
        <ele>1699.7482910156</ele>
        <time>2012-08-12T14:43:16Z</time>
      </trkpt>
      <trkpt lat="45.51776" lon="6.64039">
        <ele>1703.5935058594</ele>
        <time>2012-08-12T14:43:28Z</time>
      </trkpt>
      <trkpt lat="45.5179" lon="6.64028">
        <ele>1706.9580078125</ele>
        <time>2012-08-12T14:43:47Z</time>
      </trkpt>
      <trkpt lat="45.51791" lon="6.64029">
        <ele>1706.9580078125</ele>
        <time>2012-08-12T14:43:48Z</time>
      </trkpt>
      <trkpt lat="45.51793" lon="6.64031">
        <ele>1707.4387207031</ele>
        <time>2012-08-12T14:43:49Z</time>
      </trkpt>
      <trkpt lat="45.51795" lon="6.6404">
        <ele>1710.3227539062</ele>
        <time>2012-08-12T14:44:01Z</time>
      </trkpt>
      <trkpt lat="45.51801" lon="6.64031">
        <ele>1712.7260742188</ele>
        <time>2012-08-12T14:44:11Z</time>
      </trkpt>
      <trkpt lat="45.51802" lon="6.64036">
        <ele>1713.2067871094</ele>
        <time>2012-08-12T14:44:18Z</time>
      </trkpt>
      <trkpt lat="45.51803" lon="6.64067">
        <ele>1713.6872558594</ele>
        <time>2012-08-12T14:44:29Z</time>
      </trkpt>
      <trkpt lat="45.51805" lon="6.64072">
        <ele>1714.6486816406</ele>
        <time>2012-08-12T14:44:31Z</time>
      </trkpt>
      <trkpt lat="45.51805" lon="6.64085">
        <ele>1716.0905761719</ele>
        <time>2012-08-12T14:44:36Z</time>
      </trkpt>
      <trkpt lat="45.51805" lon="6.64092">
        <ele>1716.0905761719</ele>
        <time>2012-08-12T14:44:38Z</time>
      </trkpt>
      <trkpt lat="45.51804" lon="6.64117">
        <ele>1718.974609375</ele>
        <time>2012-08-12T14:44:50Z</time>
      </trkpt>
      <trkpt lat="45.51803" lon="6.64111">
        <ele>1722.3391113281</ele>
        <time>2012-08-12T14:45:03Z</time>
      </trkpt>
      <trkpt lat="45.51805" lon="6.64119">
        <ele>1724.7426757812</ele>
        <time>2012-08-12T14:45:12Z</time>
      </trkpt>
      <trkpt lat="45.51812" lon="6.64115">
        <ele>1727.6264648438</ele>
        <time>2012-08-12T14:45:21Z</time>
      </trkpt>
      <trkpt lat="45.51819" lon="6.64107">
        <ele>1728.587890625</ele>
        <time>2012-08-12T14:45:28Z</time>
      </trkpt>
      <trkpt lat="45.51823" lon="6.64103">
        <ele>1729.5490722656</ele>
        <time>2012-08-12T14:45:32Z</time>
      </trkpt>
      <trkpt lat="45.51822" lon="6.64115">
        <ele>1732.9135742188</ele>
        <time>2012-08-12T14:45:42Z</time>
      </trkpt>
      <trkpt lat="45.51828" lon="6.64112">
        <ele>1733.3942871094</ele>
        <time>2012-08-12T14:45:51Z</time>
      </trkpt>
      <trkpt lat="45.51832" lon="6.64107">
        <ele>1733.875</ele>
        <time>2012-08-12T14:45:54Z</time>
      </trkpt>
      <trkpt lat="45.51837" lon="6.64081">
        <ele>1735.7976074219</ele>
        <time>2012-08-12T14:46:07Z</time>
      </trkpt>
      <trkpt lat="45.51838" lon="6.64077">
        <ele>1735.7976074219</ele>
        <time>2012-08-12T14:46:09Z</time>
      </trkpt>
      <trkpt lat="45.51847" lon="6.64056">
        <ele>1737.7202148438</ele>
        <time>2012-08-12T14:46:21Z</time>
      </trkpt>
      <trkpt lat="45.51857" lon="6.64046">
        <ele>1739.162109375</ele>
        <time>2012-08-12T14:46:30Z</time>
      </trkpt>
      <trkpt lat="45.51881" lon="6.6404">
        <ele>1741.5656738281</ele>
        <time>2012-08-12T14:46:46Z</time>
      </trkpt>
      <trkpt lat="45.51897" lon="6.64012">
        <ele>1744.9301757812</ele>
        <time>2012-08-12T14:47:03Z</time>
      </trkpt>
      <trkpt lat="45.51904" lon="6.63995">
        <ele>1746.3723144531</ele>
        <time>2012-08-12T14:47:11Z</time>
      </trkpt>
      <trkpt lat="45.5191" lon="6.63983">
        <ele>1747.8142089844</ele>
        <time>2012-08-12T14:47:16Z</time>
      </trkpt>
      <trkpt lat="45.51915" lon="6.63979">
        <ele>1747.8142089844</ele>
        <time>2012-08-12T14:47:18Z</time>
      </trkpt>
      <trkpt lat="45.51932" lon="6.63946">
        <ele>1750.6979980469</ele>
        <time>2012-08-12T14:47:30Z</time>
      </trkpt>
      <trkpt lat="45.51945" lon="6.63933">
        <ele>1752.6206054688</ele>
        <time>2012-08-12T14:47:36Z</time>
      </trkpt>
      <trkpt lat="45.51952" lon="6.63925">
        <ele>1753.58203125</ele>
        <time>2012-08-12T14:47:40Z</time>
      </trkpt>
      <trkpt lat="45.51965" lon="6.6391">
        <ele>1755.0239257812</ele>
        <time>2012-08-12T14:47:46Z</time>
      </trkpt>
      <trkpt lat="45.5197" lon="6.63907">
        <ele>1755.5046386719</ele>
        <time>2012-08-12T14:47:48Z</time>
      </trkpt>
      <trkpt lat="45.51973" lon="6.63903">
        <ele>1755.9851074219</ele>
        <time>2012-08-12T14:47:50Z</time>
      </trkpt>
      <trkpt lat="45.51996" lon="6.63881">
        <ele>1758.388671875</ele>
        <time>2012-08-12T14:48:02Z</time>
      </trkpt>
      <trkpt lat="45.52012" lon="6.63865">
        <ele>1760.3112792969</ele>
        <time>2012-08-12T14:48:16Z</time>
      </trkpt>
      <trkpt lat="45.52027" lon="6.63847">
        <ele>1761.7534179688</ele>
        <time>2012-08-12T14:48:25Z</time>
      </trkpt>
      <trkpt lat="45.52039" lon="6.6383">
        <ele>1763.67578125</ele>
        <time>2012-08-12T14:48:33Z</time>
      </trkpt>
      <trkpt lat="45.52052" lon="6.63816">
        <ele>1765.1179199219</ele>
        <time>2012-08-12T14:48:40Z</time>
      </trkpt>
      <trkpt lat="45.5206" lon="6.63807">
        <ele>1765.5986328125</ele>
        <time>2012-08-12T14:48:44Z</time>
      </trkpt>
      <trkpt lat="45.52074" lon="6.63792">
        <ele>1767.5209960938</ele>
        <time>2012-08-12T14:48:52Z</time>
      </trkpt>
      <trkpt lat="45.52076" lon="6.63791">
        <ele>1768.482421875</ele>
        <time>2012-08-12T14:48:54Z</time>
      </trkpt>
      <trkpt lat="45.52077" lon="6.63793">
        <ele>1768.9631347656</ele>
        <time>2012-08-12T14:48:56Z</time>
      </trkpt>
      <trkpt lat="45.52076" lon="6.63797">
        <ele>1769.4438476562</ele>
        <time>2012-08-12T14:48:58Z</time>
      </trkpt>
      <trkpt lat="45.52075" lon="6.63803">
        <ele>1769.9243164062</ele>
        <time>2012-08-12T14:49:00Z</time>
      </trkpt>
      <trkpt lat="45.52066" lon="6.63847">
        <ele>1772.80859375</ele>
        <time>2012-08-12T14:49:15Z</time>
      </trkpt>
      <trkpt lat="45.52064" lon="6.63878">
        <ele>1774.7312011719</ele>
        <time>2012-08-12T14:49:24Z</time>
      </trkpt>
      <trkpt lat="45.52064" lon="6.63887">
        <ele>1775.2116699219</ele>
        <time>2012-08-12T14:49:27Z</time>
      </trkpt>
      <trkpt lat="45.52077" lon="6.6392">
        <ele>1778.095703125</ele>
        <time>2012-08-12T14:49:39Z</time>
      </trkpt>
      <trkpt lat="45.52096" lon="6.63937">
        <ele>1780.4990234375</ele>
        <time>2012-08-12T14:49:52Z</time>
      </trkpt>
      <trkpt lat="45.52119" lon="6.63959">
        <ele>1781.9409179688</ele>
        <time>2012-08-12T14:50:06Z</time>
      </trkpt>
      <trkpt lat="45.52136" lon="6.63991">
        <ele>1783.8635253906</ele>
        <time>2012-08-12T14:50:17Z</time>
      </trkpt>
      <trkpt lat="45.52143" lon="6.64038">
        <ele>1786.2668457031</ele>
        <time>2012-08-12T14:50:31Z</time>
      </trkpt>
      <trkpt lat="45.52142" lon="6.64092">
        <ele>1789.1508789062</ele>
        <time>2012-08-12T14:50:46Z</time>
      </trkpt>
      <trkpt lat="45.52146" lon="6.6413">
        <ele>1790.1123046875</ele>
        <time>2012-08-12T14:50:56Z</time>
      </trkpt>
      <trkpt lat="45.52149" lon="6.64168">
        <ele>1792.515625</ele>
        <time>2012-08-12T14:51:06Z</time>
      </trkpt>
      <trkpt lat="45.52147" lon="6.6418">
        <ele>1792.99609375</ele>
        <time>2012-08-12T14:51:09Z</time>
      </trkpt>
      <trkpt lat="45.52153" lon="6.64197">
        <ele>1793.9575195312</ele>
        <time>2012-08-12T14:51:14Z</time>
      </trkpt>
      <trkpt lat="45.5218" lon="6.64209">
        <ele>1797.3220214844</ele>
        <time>2012-08-12T14:51:25Z</time>
      </trkpt>
      <trkpt lat="45.52181" lon="6.64211">
        <ele>1797.802734375</ele>
        <time>2012-08-12T14:51:27Z</time>
      </trkpt>
      <trkpt lat="45.52185" lon="6.64215">
        <ele>1798.283203125</ele>
        <time>2012-08-12T14:51:31Z</time>
      </trkpt>
      <trkpt lat="45.5219" lon="6.64242">
        <ele>1801.1672363281</ele>
        <time>2012-08-12T14:51:50Z</time>
      </trkpt>
      <trkpt lat="45.52187" lon="6.64243">
        <ele>1801.1672363281</ele>
        <time>2012-08-12T14:51:53Z</time>
      </trkpt>
      <trkpt lat="45.52162" lon="6.6425">
        <ele>1803.08984375</ele>
        <time>2012-08-12T14:52:10Z</time>
      </trkpt>
      <trkpt lat="45.52148" lon="6.64254">
        <ele>1805.9738769531</ele>
        <time>2012-08-12T14:52:20Z</time>
      </trkpt>
      <trkpt lat="45.52145" lon="6.64254">
        <ele>1806.9353027344</ele>
        <time>2012-08-12T14:52:22Z</time>
      </trkpt>
      <trkpt lat="45.52135" lon="6.64254">
        <ele>1808.3771972656</ele>
        <time>2012-08-12T14:52:29Z</time>
      </trkpt>
      <trkpt lat="45.52133" lon="6.64254">
        <ele>1808.3771972656</ele>
        <time>2012-08-12T14:52:31Z</time>
      </trkpt>
      <trkpt lat="45.52119" lon="6.64253">
        <ele>1811.2612304688</ele>
        <time>2012-08-12T14:52:41Z</time>
      </trkpt>
      <trkpt lat="45.52101" lon="6.64254">
        <ele>1814.6257324219</ele>
        <time>2012-08-12T14:52:55Z</time>
      </trkpt>
      <trkpt lat="45.52096" lon="6.64255">
        <ele>1816.0676269531</ele>
        <time>2012-08-12T14:52:59Z</time>
      </trkpt>
      <trkpt lat="45.52082" lon="6.64255">
        <ele>1819.4323730469</ele>
        <time>2012-08-12T14:53:12Z</time>
      </trkpt>
      <trkpt lat="45.52068" lon="6.64254">
        <ele>1822.31640625</ele>
        <time>2012-08-12T14:53:23Z</time>
      </trkpt>
      <trkpt lat="45.52061" lon="6.64255">
        <ele>1824.7197265625</ele>
        <time>2012-08-12T14:53:29Z</time>
      </trkpt>
      <trkpt lat="45.52051" lon="6.6426">
        <ele>1828.0842285156</ele>
        <time>2012-08-12T14:53:41Z</time>
      </trkpt>
      <trkpt lat="45.52049" lon="6.64264">
        <ele>1828.5649414062</ele>
        <time>2012-08-12T14:53:44Z</time>
      </trkpt>
      <trkpt lat="45.52042" lon="6.64273">
        <ele>1830.9682617188</ele>
        <time>2012-08-12T14:53:52Z</time>
      </trkpt>
      <trkpt lat="45.52036" lon="6.64283">
        <ele>1834.8134765625</ele>
        <time>2012-08-12T14:54:02Z</time>
      </trkpt>
      <trkpt lat="45.52026" lon="6.64295">
        <ele>1838.1782226562</ele>
        <time>2012-08-12T14:54:14Z</time>
      </trkpt>
      <trkpt lat="45.52013" lon="6.64303">
        <ele>1841.0620117188</ele>
        <time>2012-08-12T14:54:26Z</time>
      </trkpt>
      <trkpt lat="45.52003" lon="6.64313">
        <ele>1842.9846191406</ele>
        <time>2012-08-12T14:54:34Z</time>
      </trkpt>
      <trkpt lat="45.51997" lon="6.64322">
        <ele>1845.8686523438</ele>
        <time>2012-08-12T14:54:41Z</time>
      </trkpt>
      <trkpt lat="45.51991" lon="6.64339">
        <ele>1849.2331542969</ele>
        <time>2012-08-12T14:54:53Z</time>
      </trkpt>
      <trkpt lat="45.51985" lon="6.64344">
        <ele>1851.1557617188</ele>
        <time>2012-08-12T14:54:57Z</time>
      </trkpt>
      <trkpt lat="45.51984" lon="6.64356">
        <ele>1852.5979003906</ele>
        <time>2012-08-12T14:55:04Z</time>
      </trkpt>
      <trkpt lat="45.51985" lon="6.64379">
        <ele>1856.4431152344</ele>
        <time>2012-08-12T14:55:16Z</time>
      </trkpt>
      <trkpt lat="45.51985" lon="6.6439">
        <ele>1858.3657226562</ele>
        <time>2012-08-12T14:55:22Z</time>
      </trkpt>
      <trkpt lat="45.51979" lon="6.64415">
        <ele>1861.2497558594</ele>
        <time>2012-08-12T14:55:34Z</time>
      </trkpt>
      <trkpt lat="45.51982" lon="6.64436">
        <ele>1865.0949707031</ele>
        <time>2012-08-12T14:55:49Z</time>
      </trkpt>
      <trkpt lat="45.51988" lon="6.6444">
        <ele>1867.498046875</ele>
        <time>2012-08-12T14:55:55Z</time>
      </trkpt>
      <trkpt lat="45.51985" lon="6.64453">
        <ele>1870.8630371094</ele>
        <time>2012-08-12T14:56:07Z</time>
      </trkpt>
      <trkpt lat="45.51982" lon="6.64466">
        <ele>1874.7082519531</ele>
        <time>2012-08-12T14:56:17Z</time>
      </trkpt>
      <trkpt lat="45.51983" lon="6.64468">
        <ele>1874.7082519531</ele>
        <time>2012-08-12T14:56:18Z</time>
      </trkpt>
      <trkpt lat="45.51978" lon="6.64477">
        <ele>1876.630859375</ele>
        <time>2012-08-12T14:56:25Z</time>
      </trkpt>
      <trkpt lat="45.51967" lon="6.64492">
        <ele>1880.4760742188</ele>
        <time>2012-08-12T14:56:37Z</time>
      </trkpt>
      <trkpt lat="45.51957" lon="6.6451">
        <ele>1884.3215332031</ele>
        <time>2012-08-12T14:56:49Z</time>
      </trkpt>
      <trkpt lat="45.51946" lon="6.64529">
        <ele>1886.724609375</ele>
        <time>2012-08-12T14:57:04Z</time>
      </trkpt>
      <trkpt lat="45.5193" lon="6.64535">
        <ele>1887.6860351562</ele>
        <time>2012-08-12T14:57:17Z</time>
      </trkpt>
      <trkpt lat="45.51914" lon="6.64538">
        <ele>1890.0893554688</ele>
        <time>2012-08-12T14:57:30Z</time>
      </trkpt>
      <trkpt lat="45.51901" lon="6.64546">
        <ele>1892.0119628906</ele>
        <time>2012-08-12T14:57:42Z</time>
      </trkpt>
      <trkpt lat="45.51891" lon="6.64546">
        <ele>1892.9731445312</ele>
        <time>2012-08-12T14:57:48Z</time>
      </trkpt>
      <trkpt lat="45.51884" lon="6.64549">
        <ele>1893.9345703125</ele>
        <time>2012-08-12T14:57:52Z</time>
      </trkpt>
      <trkpt lat="45.51871" lon="6.64568">
        <ele>1896.818359375</ele>
        <time>2012-08-12T14:58:05Z</time>
      </trkpt>
      <trkpt lat="45.51868" lon="6.64575">
        <ele>1897.7797851562</ele>
        <time>2012-08-12T14:58:09Z</time>
      </trkpt>
      <trkpt lat="45.51856" lon="6.64607">
        <ele>1901.14453125</ele>
        <time>2012-08-12T14:58:26Z</time>
      </trkpt>
      <trkpt lat="45.51852" lon="6.64621">
        <ele>1903.0671386719</ele>
        <time>2012-08-12T14:58:34Z</time>
      </trkpt>
      <trkpt lat="45.51852" lon="6.64624">
        <ele>1903.5478515625</ele>
        <time>2012-08-12T14:58:35Z</time>
      </trkpt>
      <trkpt lat="45.51846" lon="6.64659">
        <ele>1906.431640625</ele>
        <time>2012-08-12T14:58:52Z</time>
      </trkpt>
      <trkpt lat="45.51846" lon="6.64692">
        <ele>1909.7961425781</ele>
        <time>2012-08-12T14:59:08Z</time>
      </trkpt>
      <trkpt lat="45.51835" lon="6.64736">
        <ele>1913.1608886719</ele>
        <time>2012-08-12T14:59:29Z</time>
      </trkpt>
      <trkpt lat="45.51818" lon="6.64757">
        <ele>1915.0834960938</ele>
        <time>2012-08-12T14:59:45Z</time>
      </trkpt>
      <trkpt lat="45.51803" lon="6.64768">
        <ele>1918.4482421875</ele>
        <time>2012-08-12T14:59:57Z</time>
      </trkpt>
      <trkpt lat="45.51799" lon="6.6477">
        <ele>1918.4482421875</ele>
        <time>2012-08-12T15:00:01Z</time>
      </trkpt>
      <trkpt lat="45.51791" lon="6.64772">
        <ele>1919.4096679688</ele>
        <time>2012-08-12T15:00:11Z</time>
      </trkpt>
      <trkpt lat="45.51788" lon="6.64782">
        <ele>1920.3708496094</ele>
        <time>2012-08-12T15:00:17Z</time>
      </trkpt>
      <trkpt lat="45.51784" lon="6.64784">
        <ele>1920.8515625</ele>
        <time>2012-08-12T15:00:20Z</time>
      </trkpt>
      <trkpt lat="45.51779" lon="6.64794">
        <ele>1923.2548828125</ele>
        <time>2012-08-12T15:00:27Z</time>
      </trkpt>
      <trkpt lat="45.51778" lon="6.64796">
        <ele>1923.7353515625</ele>
        <time>2012-08-12T15:00:29Z</time>
      </trkpt>
      <trkpt lat="45.51769" lon="6.6481">
        <ele>1927.1000976562</ele>
        <time>2012-08-12T15:00:40Z</time>
      </trkpt>
      <trkpt lat="45.51762" lon="6.64824">
        <ele>1929.5031738281</ele>
        <time>2012-08-12T15:00:49Z</time>
      </trkpt>
      <trkpt lat="45.51754" lon="6.64835">
        <ele>1932.3874511719</ele>
        <time>2012-08-12T15:00:59Z</time>
      </trkpt>
      <trkpt lat="45.51742" lon="6.64854">
        <ele>1935.2712402344</ele>
        <time>2012-08-12T15:01:13Z</time>
      </trkpt>
      <trkpt lat="45.5173" lon="6.64864">
        <ele>1938.6359863281</ele>
        <time>2012-08-12T15:01:25Z</time>
      </trkpt>
      <trkpt lat="45.51729" lon="6.64866">
        <ele>1938.6359863281</ele>
        <time>2012-08-12T15:01:26Z</time>
      </trkpt>
      <trkpt lat="45.51715" lon="6.64872">
        <ele>1943.4423828125</ele>
        <time>2012-08-12T15:01:39Z</time>
      </trkpt>
      <trkpt lat="45.51703" lon="6.64884">
        <ele>1946.8068847656</ele>
        <time>2012-08-12T15:01:52Z</time>
      </trkpt>
      <trkpt lat="45.51691" lon="6.64899">
        <ele>1950.65234375</ele>
        <time>2012-08-12T15:02:06Z</time>
      </trkpt>
      <trkpt lat="45.51687" lon="6.64899">
        <ele>1951.6137695312</ele>
        <time>2012-08-12T15:02:10Z</time>
      </trkpt>
      <trkpt lat="45.51668" lon="6.64898">
        <ele>1954.9782714844</ele>
        <time>2012-08-12T15:02:25Z</time>
      </trkpt>
      <trkpt lat="45.51655" lon="6.64902">
        <ele>1956.4201660156</ele>
        <time>2012-08-12T15:02:37Z</time>
      </trkpt>
      <trkpt lat="45.5165" lon="6.64901">
        <ele>1956.4201660156</ele>
        <time>2012-08-12T15:02:42Z</time>
      </trkpt>
      <trkpt lat="45.51646" lon="6.649">
        <ele>1956.4201660156</ele>
        <time>2012-08-12T15:03:04Z</time>
      </trkpt>
      <trkpt lat="45.51646" lon="6.649">
        <ele>1956.4201660156</ele>
        <time>2012-08-12T15:03:19Z</time>
      </trkpt>
      <trkpt lat="45.51642" lon="6.649">
        <ele>1954.9782714844</ele>
        <time>2012-08-12T15:03:23Z</time>
      </trkpt>
      <trkpt lat="45.51635" lon="6.64903">
        <ele>1953.0556640625</ele>
        <time>2012-08-12T15:03:28Z</time>
      </trkpt>
      <trkpt lat="45.5163" lon="6.64906">
        <ele>1950.65234375</ele>
        <time>2012-08-12T15:03:32Z</time>
      </trkpt>
      <trkpt lat="45.51625" lon="6.6491">
        <ele>1949.2104492188</ele>
        <time>2012-08-12T15:03:36Z</time>
      </trkpt>
      <trkpt lat="45.51622" lon="6.64911">
        <ele>1948.2490234375</ele>
        <time>2012-08-12T15:03:38Z</time>
      </trkpt>
      <trkpt lat="45.51614" lon="6.64917">
        <ele>1944.8842773438</ele>
        <time>2012-08-12T15:03:43Z</time>
      </trkpt>
      <trkpt lat="45.51612" lon="6.6492">
        <ele>1944.4035644531</ele>
        <time>2012-08-12T15:03:45Z</time>
      </trkpt>
      <trkpt lat="45.51607" lon="6.64924">
        <ele>1942.9616699219</ele>
        <time>2012-08-12T15:03:47Z</time>
      </trkpt>
      <trkpt lat="45.51596" lon="6.64929">
        <ele>1941.0390625</ele>
        <time>2012-08-12T15:03:52Z</time>
      </trkpt>
      <trkpt lat="45.51586" lon="6.64936">
        <ele>1939.1164550781</ele>
        <time>2012-08-12T15:03:58Z</time>
      </trkpt>
      <trkpt lat="45.51578" lon="6.64942">
        <ele>1939.1164550781</ele>
        <time>2012-08-12T15:04:02Z</time>
      </trkpt>
      <trkpt lat="45.51548" lon="6.64945">
        <ele>1938.6359863281</ele>
        <time>2012-08-12T15:04:16Z</time>
      </trkpt>
      <trkpt lat="45.51534" lon="6.64948">
        <ele>1941.5197753906</ele>
        <time>2012-08-12T15:04:33Z</time>
      </trkpt>
      <trkpt lat="45.51525" lon="6.64947">
        <ele>1944.8842773438</ele>
        <time>2012-08-12T15:04:42Z</time>
      </trkpt>
      <trkpt lat="45.5152" lon="6.64946">
        <ele>1946.8068847656</ele>
        <time>2012-08-12T15:04:49Z</time>
      </trkpt>
      <trkpt lat="45.51509" lon="6.64941">
        <ele>1949.6911621094</ele>
        <time>2012-08-12T15:04:58Z</time>
      </trkpt>
      <trkpt lat="45.51497" lon="6.6493">
        <ele>1953.0556640625</ele>
        <time>2012-08-12T15:05:11Z</time>
      </trkpt>
      <trkpt lat="45.51495" lon="6.64928">
        <ele>1954.0170898438</ele>
        <time>2012-08-12T15:05:13Z</time>
      </trkpt>
      <trkpt lat="45.51489" lon="6.64922">
        <ele>1954.9782714844</ele>
        <time>2012-08-12T15:05:19Z</time>
      </trkpt>
      <trkpt lat="45.51488" lon="6.64921">
        <ele>1954.9782714844</ele>
        <time>2012-08-12T15:05:21Z</time>
      </trkpt>
      <trkpt lat="45.51476" lon="6.64927">
        <ele>1958.3427734375</ele>
        <time>2012-08-12T15:05:32Z</time>
      </trkpt>
      <trkpt lat="45.51463" lon="6.64936">
        <ele>1961.2268066406</ele>
        <time>2012-08-12T15:05:47Z</time>
      </trkpt>
      <trkpt lat="45.51451" lon="6.64937">
        <ele>1963.6298828125</ele>
        <time>2012-08-12T15:05:56Z</time>
      </trkpt>
      <trkpt lat="45.51446" lon="6.64936">
        <ele>1964.5915527344</ele>
        <time>2012-08-12T15:06:00Z</time>
      </trkpt>
      <trkpt lat="45.51422" lon="6.64933">
        <ele>1966.9948730469</ele>
        <time>2012-08-12T15:06:19Z</time>
      </trkpt>
      <trkpt lat="45.51398" lon="6.64941">
        <ele>1964.5915527344</ele>
        <time>2012-08-12T15:06:32Z</time>
      </trkpt>
      <trkpt lat="45.51376" lon="6.6493">
        <ele>1962.1879882812</ele>
        <time>2012-08-12T15:06:40Z</time>
      </trkpt>
      <trkpt lat="45.51366" lon="6.64929">
        <ele>1962.6687011719</ele>
        <time>2012-08-12T15:06:44Z</time>
      </trkpt>
      <trkpt lat="45.51359" lon="6.64924">
        <ele>1963.6298828125</ele>
        <time>2012-08-12T15:06:48Z</time>
      </trkpt>
      <trkpt lat="45.51343" lon="6.64923">
        <ele>1964.5915527344</ele>
        <time>2012-08-12T15:06:55Z</time>
      </trkpt>
      <trkpt lat="45.51338" lon="6.64923">
        <ele>1965.5529785156</ele>
        <time>2012-08-12T15:06:59Z</time>
      </trkpt>
      <trkpt lat="45.51324" lon="6.64927">
        <ele>1968.4367675781</ele>
        <time>2012-08-12T15:07:11Z</time>
      </trkpt>
      <trkpt lat="45.51302" lon="6.64941">
        <ele>1969.8786621094</ele>
        <time>2012-08-12T15:07:24Z</time>
      </trkpt>
      <trkpt lat="45.51297" lon="6.64955">
        <ele>1970.8400878906</ele>
        <time>2012-08-12T15:07:29Z</time>
      </trkpt>
      <trkpt lat="45.51287" lon="6.64967">
        <ele>1973.2434082031</ele>
        <time>2012-08-12T15:07:36Z</time>
      </trkpt>
      <trkpt lat="45.51265" lon="6.64975">
        <ele>1974.6853027344</ele>
        <time>2012-08-12T15:07:46Z</time>
      </trkpt>
      <trkpt lat="45.51244" lon="6.64973">
        <ele>1977.0886230469</ele>
        <time>2012-08-12T15:07:55Z</time>
      </trkpt>
      <trkpt lat="45.51228" lon="6.64973">
        <ele>1979.4916992188</ele>
        <time>2012-08-12T15:08:02Z</time>
      </trkpt>
      <trkpt lat="45.51201" lon="6.64967">
        <ele>1982.8564453125</ele>
        <time>2012-08-12T15:08:15Z</time>
      </trkpt>
      <trkpt lat="45.51186" lon="6.64961">
        <ele>1983.8178710938</ele>
        <time>2012-08-12T15:08:22Z</time>
      </trkpt>
      <trkpt lat="45.51165" lon="6.64947">
        <ele>1986.7016601562</ele>
        <time>2012-08-12T15:08:32Z</time>
      </trkpt>
      <trkpt lat="45.51148" lon="6.64928">
        <ele>1990.06640625</ele>
        <time>2012-08-12T15:08:44Z</time>
      </trkpt>
      <trkpt lat="45.51129" lon="6.64905">
        <ele>1992.4697265625</ele>
        <time>2012-08-12T15:09:02Z</time>
      </trkpt>
      <trkpt lat="45.51112" lon="6.64882">
        <ele>1995.353515625</ele>
        <time>2012-08-12T15:09:17Z</time>
      </trkpt>
      <trkpt lat="45.51097" lon="6.64857">
        <ele>1999.1989746094</ele>
        <time>2012-08-12T15:09:31Z</time>
      </trkpt>
      <trkpt lat="45.51082" lon="6.64835">
        <ele>2002.0827636719</ele>
        <time>2012-08-12T15:09:45Z</time>
      </trkpt>
      <trkpt lat="45.51067" lon="6.64824">
        <ele>2004.966796875</ele>
        <time>2012-08-12T15:09:59Z</time>
      </trkpt>
      <trkpt lat="45.5106" lon="6.64827">
        <ele>2005.9279785156</ele>
        <time>2012-08-12T15:10:05Z</time>
      </trkpt>
      <trkpt lat="45.51055" lon="6.64839">
        <ele>2007.8508300781</ele>
        <time>2012-08-12T15:10:12Z</time>
      </trkpt>
      <trkpt lat="45.51045" lon="6.64841">
        <ele>2009.7731933594</ele>
        <time>2012-08-12T15:10:21Z</time>
      </trkpt>
      <trkpt lat="45.51035" lon="6.64848">
        <ele>2014.580078125</ele>
        <time>2012-08-12T15:10:33Z</time>
      </trkpt>
      <trkpt lat="45.5103" lon="6.64848">
        <ele>2015.5415039062</ele>
        <time>2012-08-12T15:10:37Z</time>
      </trkpt>
      <trkpt lat="45.51023" lon="6.64849">
        <ele>2017.4638671875</ele>
        <time>2012-08-12T15:10:42Z</time>
      </trkpt>
      <trkpt lat="45.51013" lon="6.64852">
        <ele>2021.3090820312</ele>
        <time>2012-08-12T15:10:54Z</time>
      </trkpt>
      <trkpt lat="45.5101" lon="6.64853">
        <ele>2022.2705078125</ele>
        <time>2012-08-12T15:10:56Z</time>
      </trkpt>
      <trkpt lat="45.51008" lon="6.64853">
        <ele>2023.2319335938</ele>
        <time>2012-08-12T15:10:58Z</time>
      </trkpt>
      <trkpt lat="45.50999" lon="6.64855">
        <ele>2026.1157226562</ele>
        <time>2012-08-12T15:11:08Z</time>
      </trkpt>
      <trkpt lat="45.50995" lon="6.64855">
        <ele>2029.48046875</ele>
        <time>2012-08-12T15:11:17Z</time>
      </trkpt>
      <trkpt lat="45.50989" lon="6.6485">
        <ele>2031.4030761719</ele>
        <time>2012-08-12T15:11:23Z</time>
      </trkpt>
      <trkpt lat="45.50982" lon="6.6485">
        <ele>2034.7678222656</ele>
        <time>2012-08-12T15:11:31Z</time>
      </trkpt>
      <trkpt lat="45.50975" lon="6.64848">
        <ele>2038.1323242188</ele>
        <time>2012-08-12T15:11:40Z</time>
      </trkpt>
      <trkpt lat="45.50975" lon="6.6485">
        <ele>2038.6130371094</ele>
        <time>2012-08-12T15:11:42Z</time>
      </trkpt>
      <trkpt lat="45.50969" lon="6.64845">
        <ele>2041.9775390625</ele>
        <time>2012-08-12T15:11:52Z</time>
      </trkpt>
      <trkpt lat="45.50962" lon="6.64842">
        <ele>2044.8615722656</ele>
        <time>2012-08-12T15:12:01Z</time>
      </trkpt>
      <trkpt lat="45.50959" lon="6.6484">
        <ele>2046.3037109375</ele>
        <time>2012-08-12T15:12:05Z</time>
      </trkpt>
      <trkpt lat="45.50951" lon="6.64834">
        <ele>2049.6682128906</ele>
        <time>2012-08-12T15:12:15Z</time>
      </trkpt>
      <trkpt lat="45.50947" lon="6.6483">
        <ele>2051.1101074219</ele>
        <time>2012-08-12T15:12:19Z</time>
      </trkpt>
      <trkpt lat="45.50946" lon="6.64829">
        <ele>2051.1101074219</ele>
        <time>2012-08-12T15:12:20Z</time>
      </trkpt>
      <trkpt lat="45.50939" lon="6.6482">
        <ele>2053.994140625</ele>
        <time>2012-08-12T15:12:31Z</time>
      </trkpt>
      <trkpt lat="45.50937" lon="6.64815">
        <ele>2054.474609375</ele>
        <time>2012-08-12T15:12:34Z</time>
      </trkpt>
      <trkpt lat="45.50934" lon="6.64808">
        <ele>2055.4360351562</ele>
        <time>2012-08-12T15:12:39Z</time>
      </trkpt>
      <trkpt lat="45.50931" lon="6.64803">
        <ele>2056.8779296875</ele>
        <time>2012-08-12T15:12:42Z</time>
      </trkpt>
      <trkpt lat="45.50927" lon="6.64794">
        <ele>2058.8005371094</ele>
        <time>2012-08-12T15:12:48Z</time>
      </trkpt>
      <trkpt lat="45.50922" lon="6.64782">
        <ele>2060.2426757812</ele>
        <time>2012-08-12T15:12:56Z</time>
      </trkpt>
      <trkpt lat="45.50919" lon="6.64778">
        <ele>2061.2041015625</ele>
        <time>2012-08-12T15:13:00Z</time>
      </trkpt>
      <trkpt lat="45.50915" lon="6.64776">
        <ele>2063.1267089844</ele>
        <time>2012-08-12T15:13:03Z</time>
      </trkpt>
      <trkpt lat="45.50911" lon="6.6477">
        <ele>2065.5300292969</ele>
        <time>2012-08-12T15:13:09Z</time>
      </trkpt>
      <trkpt lat="45.50908" lon="6.64761">
        <ele>2068.4138183594</ele>
        <time>2012-08-12T15:13:18Z</time>
      </trkpt>
      <trkpt lat="45.50908" lon="6.64758">
        <ele>2069.3752441406</ele>
        <time>2012-08-12T15:13:21Z</time>
      </trkpt>
      <trkpt lat="45.50906" lon="6.64753">
        <ele>2071.2976074219</ele>
        <time>2012-08-12T15:13:26Z</time>
      </trkpt>
      <trkpt lat="45.50906" lon="6.64747">
        <ele>2074.181640625</ele>
        <time>2012-08-12T15:13:33Z</time>
      </trkpt>
      <trkpt lat="45.50903" lon="6.6474">
        <ele>2077.0659179688</ele>
        <time>2012-08-12T15:13:43Z</time>
      </trkpt>
      <trkpt lat="45.509" lon="6.64737">
        <ele>2078.5078125</ele>
        <time>2012-08-12T15:13:47Z</time>
      </trkpt>
      <trkpt lat="45.50898" lon="6.64736">
        <ele>2078.98828125</ele>
        <time>2012-08-12T15:13:49Z</time>
      </trkpt>
      <trkpt lat="45.50891" lon="6.64728">
        <ele>2079.4689941406</ele>
        <time>2012-08-12T15:13:56Z</time>
      </trkpt>
      <trkpt lat="45.50883" lon="6.64721">
        <ele>2081.8723144531</ele>
        <time>2012-08-12T15:14:02Z</time>
      </trkpt>
      <trkpt lat="45.50882" lon="6.64714">
        <ele>2082.3530273438</ele>
        <time>2012-08-12T15:14:07Z</time>
      </trkpt>
      <trkpt lat="45.50885" lon="6.64707">
        <ele>2083.794921875</ele>
        <time>2012-08-12T15:14:10Z</time>
      </trkpt>
      <trkpt lat="45.50885" lon="6.64705">
        <ele>2084.7563476562</ele>
        <time>2012-08-12T15:14:11Z</time>
      </trkpt>
      <trkpt lat="45.50881" lon="6.64698">
        <ele>2086.6787109375</ele>
        <time>2012-08-12T15:14:17Z</time>
      </trkpt>
      <trkpt lat="45.50872" lon="6.64689">
        <ele>2090.0434570312</ele>
        <time>2012-08-12T15:14:27Z</time>
      </trkpt>
      <trkpt lat="45.5086" lon="6.6468">
        <ele>2093.408203125</ele>
        <time>2012-08-12T15:14:39Z</time>
      </trkpt>
      <trkpt lat="45.50856" lon="6.64678">
        <ele>2094.3693847656</ele>
        <time>2012-08-12T15:14:44Z</time>
      </trkpt>
      <trkpt lat="45.50847" lon="6.64675">
        <ele>2097.7341308594</ele>
        <time>2012-08-12T15:14:55Z</time>
      </trkpt>
      <trkpt lat="45.50844" lon="6.64672">
        <ele>2098.6953125</ele>
        <time>2012-08-12T15:14:59Z</time>
      </trkpt>
      <trkpt lat="45.50846" lon="6.64668">
        <ele>2099.6567382812</ele>
        <time>2012-08-12T15:15:03Z</time>
      </trkpt>
      <trkpt lat="45.50854" lon="6.64657">
        <ele>2103.501953125</ele>
        <time>2012-08-12T15:15:14Z</time>
      </trkpt>
      <trkpt lat="45.50865" lon="6.64648">
        <ele>2106.8664550781</ele>
        <time>2012-08-12T15:15:27Z</time>
      </trkpt>
      <trkpt lat="45.50867" lon="6.64646">
        <ele>2107.8278808594</ele>
        <time>2012-08-12T15:15:29Z</time>
      </trkpt>
      <trkpt lat="45.50869" lon="6.64638">
        <ele>2109.7504882812</ele>
        <time>2012-08-12T15:15:38Z</time>
      </trkpt>
      <trkpt lat="45.50867" lon="6.64635">
        <ele>2111.1926269531</ele>
        <time>2012-08-12T15:15:41Z</time>
      </trkpt>
      <trkpt lat="45.50858" lon="6.64628">
        <ele>2114.5571289062</ele>
        <time>2012-08-12T15:15:51Z</time>
      </trkpt>
      <trkpt lat="45.50852" lon="6.64626">
        <ele>2115.5185546875</ele>
        <time>2012-08-12T15:15:57Z</time>
      </trkpt>
      <trkpt lat="45.50845" lon="6.64624">
        <ele>2118.40234375</ele>
        <time>2012-08-12T15:16:04Z</time>
      </trkpt>
      <trkpt lat="45.50843" lon="6.64624">
        <ele>2119.3637695312</ele>
        <time>2012-08-12T15:16:06Z</time>
      </trkpt>
      <trkpt lat="45.50841" lon="6.64625">
        <ele>2118.8830566406</ele>
        <time>2012-08-12T15:16:08Z</time>
      </trkpt>
      <trkpt lat="45.50837" lon="6.64625">
        <ele>2120.3249511719</ele>
        <time>2012-08-12T15:16:11Z</time>
      </trkpt>
      <trkpt lat="45.50825" lon="6.64617">
        <ele>2124.1704101562</ele>
        <time>2012-08-12T15:16:23Z</time>
      </trkpt>
      <trkpt lat="45.50814" lon="6.64614">
        <ele>2127.5349121094</ele>
        <time>2012-08-12T15:16:34Z</time>
      </trkpt>
      <trkpt lat="45.50812" lon="6.64614">
        <ele>2128.015625</ele>
        <time>2012-08-12T15:16:36Z</time>
      </trkpt>
      <trkpt lat="45.5081" lon="6.64613">
        <ele>2128.9768066406</ele>
        <time>2012-08-12T15:16:38Z</time>
      </trkpt>
      <trkpt lat="45.50796" lon="6.64607">
        <ele>2132.8220214844</ele>
        <time>2012-08-12T15:16:51Z</time>
      </trkpt>
      <trkpt lat="45.50791" lon="6.64603">
        <ele>2133.302734375</ele>
        <time>2012-08-12T15:16:56Z</time>
      </trkpt>
      <trkpt lat="45.50789" lon="6.64602">
        <ele>2134.2641601562</ele>
        <time>2012-08-12T15:16:58Z</time>
      </trkpt>
      <trkpt lat="45.50783" lon="6.646">
        <ele>2135.2253417969</ele>
        <time>2012-08-12T15:17:03Z</time>
      </trkpt>
      <trkpt lat="45.50779" lon="6.646">
        <ele>2136.1867675781</ele>
        <time>2012-08-12T15:17:06Z</time>
      </trkpt>
      <trkpt lat="45.50778" lon="6.646">
        <ele>2136.6672363281</ele>
        <time>2012-08-12T15:17:07Z</time>
      </trkpt>
      <trkpt lat="45.50774" lon="6.64596">
        <ele>2138.109375</ele>
        <time>2012-08-12T15:17:12Z</time>
      </trkpt>
      <trkpt lat="45.50771" lon="6.64594">
        <ele>2138.5900878906</ele>
        <time>2012-08-12T15:17:15Z</time>
      </trkpt>
      <trkpt lat="45.50767" lon="6.64593">
        <ele>2140.5126953125</ele>
        <time>2012-08-12T15:17:20Z</time>
      </trkpt>
      <trkpt lat="45.50745" lon="6.64598">
        <ele>2143.8774414062</ele>
        <time>2012-08-12T15:17:36Z</time>
      </trkpt>
      <trkpt lat="45.50744" lon="6.64598">
        <ele>2144.3579101562</ele>
        <time>2012-08-12T15:17:37Z</time>
      </trkpt>
      <trkpt lat="45.5074" lon="6.64599">
        <ele>2144.8386230469</ele>
        <time>2012-08-12T15:17:41Z</time>
      </trkpt>
      <trkpt lat="45.50739" lon="6.64597">
        <ele>2145.3193359375</ele>
        <time>2012-08-12T15:17:43Z</time>
      </trkpt>
      <trkpt lat="45.50745" lon="6.64591">
        <ele>2147.2419433594</ele>
        <time>2012-08-12T15:17:50Z</time>
      </trkpt>
      <trkpt lat="45.50761" lon="6.64574">
        <ele>2150.6064453125</ele>
        <time>2012-08-12T15:18:07Z</time>
      </trkpt>
      <trkpt lat="45.50762" lon="6.64572">
        <ele>2150.6064453125</ele>
        <time>2012-08-12T15:18:08Z</time>
      </trkpt>
      <trkpt lat="45.50763" lon="6.64571">
        <ele>2150.1259765625</ele>
        <time>2012-08-12T15:18:09Z</time>
      </trkpt>
      <trkpt lat="45.50786" lon="6.64557">
        <ele>2152.0483398438</ele>
        <time>2012-08-12T15:18:27Z</time>
      </trkpt>
      <trkpt lat="45.50799" lon="6.64551">
        <ele>2156.3745117188</ele>
        <time>2012-08-12T15:18:39Z</time>
      </trkpt>
      <trkpt lat="45.50804" lon="6.64544">
        <ele>2156.8552246094</ele>
        <time>2012-08-12T15:18:44Z</time>
      </trkpt>
      <trkpt lat="45.50806" lon="6.64537">
        <ele>2158.2971191406</ele>
        <time>2012-08-12T15:18:48Z</time>
      </trkpt>
      <trkpt lat="45.50807" lon="6.64535">
        <ele>2158.2971191406</ele>
        <time>2012-08-12T15:18:50Z</time>
      </trkpt>
      <trkpt lat="45.50808" lon="6.64529">
        <ele>2160.7004394531</ele>
        <time>2012-08-12T15:18:54Z</time>
      </trkpt>
      <trkpt lat="45.50809" lon="6.64523">
        <ele>2161.6618652344</ele>
        <time>2012-08-12T15:18:58Z</time>
      </trkpt>
      <trkpt lat="45.50809" lon="6.64516">
        <ele>2163.5842285156</ele>
        <time>2012-08-12T15:19:03Z</time>
      </trkpt>
      <trkpt lat="45.50808" lon="6.64511">
        <ele>2164.0649414062</ele>
        <time>2012-08-12T15:19:06Z</time>
      </trkpt>
      <trkpt lat="45.50809" lon="6.64508">
        <ele>2165.0263671875</ele>
        <time>2012-08-12T15:19:09Z</time>
      </trkpt>
      <trkpt lat="45.50805" lon="6.64496">
        <ele>2168.8715820312</ele>
        <time>2012-08-12T15:19:21Z</time>
      </trkpt>
      <trkpt lat="45.50803" lon="6.64492">
        <ele>2170.3134765625</ele>
        <time>2012-08-12T15:19:25Z</time>
      </trkpt>
      <trkpt lat="45.50801" lon="6.64487">
        <ele>2173.1977539062</ele>
        <time>2012-08-12T15:19:31Z</time>
      </trkpt>
      <trkpt lat="45.508" lon="6.64481">
        <ele>2174.1589355469</ele>
        <time>2012-08-12T15:19:36Z</time>
      </trkpt>
      <trkpt lat="45.50797" lon="6.64478">
        <ele>2175.6008300781</ele>
        <time>2012-08-12T15:19:39Z</time>
      </trkpt>
      <trkpt lat="45.50791" lon="6.64473">
        <ele>2178.9653320312</ele>
        <time>2012-08-12T15:19:49Z</time>
      </trkpt>
      <trkpt lat="45.50787" lon="6.64473">
        <ele>2180.4074707031</ele>
        <time>2012-08-12T15:19:53Z</time>
      </trkpt>
      <trkpt lat="45.50783" lon="6.64474">
        <ele>2182.810546875</ele>
        <time>2012-08-12T15:19:58Z</time>
      </trkpt>
      <trkpt lat="45.50774" lon="6.64474">
        <ele>2185.6945800781</ele>
        <time>2012-08-12T15:20:08Z</time>
      </trkpt>
      <trkpt lat="45.50767" lon="6.64472">
        <ele>2188.0981445312</ele>
        <time>2012-08-12T15:20:16Z</time>
      </trkpt>
      <trkpt lat="45.50764" lon="6.64471">
        <ele>2189.0593261719</ele>
        <time>2012-08-12T15:20:19Z</time>
      </trkpt>
      <trkpt lat="45.50757" lon="6.64465">
        <ele>2192.9045410156</ele>
        <time>2012-08-12T15:20:29Z</time>
      </trkpt>
      <trkpt lat="45.50755" lon="6.64461">
        <ele>2192.9045410156</ele>
        <time>2012-08-12T15:20:32Z</time>
      </trkpt>
      <trkpt lat="45.5075" lon="6.64457">
        <ele>2194.3464355469</ele>
        <time>2012-08-12T15:20:37Z</time>
      </trkpt>
      <trkpt lat="45.50738" lon="6.64454">
        <ele>2197.7111816406</ele>
        <time>2012-08-12T15:20:49Z</time>
      </trkpt>
      <trkpt lat="45.50736" lon="6.64453">
        <ele>2198.1916503906</ele>
        <time>2012-08-12T15:20:51Z</time>
      </trkpt>
      <trkpt lat="45.50726" lon="6.6445">
        <ele>2202.0368652344</ele>
        <time>2012-08-12T15:21:01Z</time>
      </trkpt>
      <trkpt lat="45.50719" lon="6.64446">
        <ele>2204.9211425781</ele>
        <time>2012-08-12T15:21:10Z</time>
      </trkpt>
      <trkpt lat="45.50709" lon="6.64448">
        <ele>2208.2856445312</ele>
        <time>2012-08-12T15:21:20Z</time>
      </trkpt>
      <trkpt lat="45.50699" lon="6.64447">
        <ele>2211.1696777344</ele>
        <time>2012-08-12T15:21:30Z</time>
      </trkpt>
      <trkpt lat="45.50698" lon="6.64444">
        <ele>2211.1696777344</ele>
        <time>2012-08-12T15:21:32Z</time>
      </trkpt>
      <trkpt lat="45.50697" lon="6.64438">
        <ele>2212.6115722656</ele>
        <time>2012-08-12T15:21:37Z</time>
      </trkpt>
      <trkpt lat="45.5069" lon="6.64424">
        <ele>2215.9760742188</ele>
        <time>2012-08-12T15:21:49Z</time>
      </trkpt>
      <trkpt lat="45.50689" lon="6.64424">
        <ele>2216.9375</ele>
        <time>2012-08-12T15:21:50Z</time>
      </trkpt>
      <trkpt lat="45.50688" lon="6.64422">
        <ele>2217.41796875</ele>
        <time>2012-08-12T15:21:52Z</time>
      </trkpt>
      <trkpt lat="45.50684" lon="6.64416">
        <ele>2219.3408203125</ele>
        <time>2012-08-12T15:21:58Z</time>
      </trkpt>
      <trkpt lat="45.5068" lon="6.6441">
        <ele>2222.2248535156</ele>
        <time>2012-08-12T15:22:05Z</time>
      </trkpt>
      <trkpt lat="45.50676" lon="6.64404">
        <ele>2226.0700683594</ele>
        <time>2012-08-12T15:22:15Z</time>
      </trkpt>
      <trkpt lat="45.5067" lon="6.64394">
        <ele>2229.4345703125</ele>
        <time>2012-08-12T15:22:26Z</time>
      </trkpt>
      <trkpt lat="45.5067" lon="6.64394">
        <ele>2229.9152832031</ele>
        <time>2012-08-12T15:22:28Z</time>
      </trkpt>
      <trkpt lat="45.50666" lon="6.6439">
        <ele>2233.2797851562</ele>
        <time>2012-08-12T15:22:36Z</time>
      </trkpt>
      <trkpt lat="45.50662" lon="6.64387">
        <ele>2235.2023925781</ele>
        <time>2012-08-12T15:22:42Z</time>
      </trkpt>
      <trkpt lat="45.50659" lon="6.6438">
        <ele>2238.0866699219</ele>
        <time>2012-08-12T15:22:49Z</time>
      </trkpt>
      <trkpt lat="45.50653" lon="6.64373">
        <ele>2240.4897460938</ele>
        <time>2012-08-12T15:22:58Z</time>
      </trkpt>
      <trkpt lat="45.50648" lon="6.64367">
        <ele>2243.3737792969</ele>
        <time>2012-08-12T15:23:05Z</time>
      </trkpt>
      <trkpt lat="45.50647" lon="6.64362">
        <ele>2244.8156738281</ele>
        <time>2012-08-12T15:23:11Z</time>
      </trkpt>
      <trkpt lat="45.50647" lon="6.64356">
        <ele>2245.7770996094</ele>
        <time>2012-08-12T15:23:15Z</time>
      </trkpt>
      <trkpt lat="45.50644" lon="6.64345">
        <ele>2249.1416015625</ele>
        <time>2012-08-12T15:23:25Z</time>
      </trkpt>
      <trkpt lat="45.50643" lon="6.64344">
        <ele>2249.1416015625</ele>
        <time>2012-08-12T15:23:26Z</time>
      </trkpt>
      <trkpt lat="45.50644" lon="6.64345">
        <ele>2250.1030273438</ele>
        <time>2012-08-12T15:23:39Z</time>
      </trkpt>
      <trkpt lat="45.50644" lon="6.64345">
        <ele>2251.0642089844</ele>
        <time>2012-08-12T15:24:03Z</time>
      </trkpt>
      <trkpt lat="45.50644" lon="6.64345">
        <ele>2247.6997070312</ele>
        <time>2012-08-12T15:24:06Z</time>
      </trkpt>
      <trkpt lat="45.50644" lon="6.64345">
        <ele>2247.6997070312</ele>
        <time>2012-08-12T15:24:07Z</time>
      </trkpt>
      <trkpt lat="45.50644" lon="6.64345">
        <ele>2251.0642089844</ele>
        <time>2012-08-12T15:24:08Z</time>
      </trkpt>
      <trkpt lat="45.50644" lon="6.64345">
        <ele>2251.0642089844</ele>
        <time>2012-08-12T15:24:09Z</time>
      </trkpt>
      <trkpt lat="45.50643" lon="6.64344">
        <ele>2251.544921875</ele>
        <time>2012-08-12T15:25:21Z</time>
      </trkpt>
      <trkpt lat="45.50644" lon="6.64343">
        <ele>2251.544921875</ele>
        <time>2012-08-12T15:25:34Z</time>
      </trkpt>
      <trkpt lat="45.50644" lon="6.64343">
        <ele>2252.9870605469</ele>
        <time>2012-08-12T15:26:36Z</time>
      </trkpt>
      <trkpt lat="45.5063" lon="6.64342">
        <ele>2251.544921875</ele>
        <time>2012-08-12T15:26:42Z</time>
      </trkpt>
      <trkpt lat="45.50622" lon="6.64341">
        <ele>2250.1030273438</ele>
        <time>2012-08-12T15:26:45Z</time>
      </trkpt>
      <trkpt lat="45.50616" lon="6.64342">
        <ele>2249.1416015625</ele>
        <time>2012-08-12T15:26:47Z</time>
      </trkpt>
      <trkpt lat="45.50609" lon="6.64341">
        <ele>2247.6997070312</ele>
        <time>2012-08-12T15:26:49Z</time>
      </trkpt>
      <trkpt lat="45.50598" lon="6.64342">
        <ele>2245.2963867188</ele>
        <time>2012-08-12T15:26:52Z</time>
      </trkpt>
      <trkpt lat="45.50568" lon="6.64342">
        <ele>2245.2963867188</ele>
        <time>2012-08-12T15:27:03Z</time>
      </trkpt>
      <trkpt lat="45.50539" lon="6.64332">
        <ele>2245.2963867188</ele>
        <time>2012-08-12T15:27:13Z</time>
      </trkpt>
      <trkpt lat="45.50536" lon="6.64331">
        <ele>2244.8156738281</ele>
        <time>2012-08-12T15:27:14Z</time>
      </trkpt>
      <trkpt lat="45.50504" lon="6.64323">
        <ele>2243.8544921875</ele>
        <time>2012-08-12T15:27:25Z</time>
      </trkpt>
      <trkpt lat="45.50473" lon="6.64323">
        <ele>2244.3349609375</ele>
        <time>2012-08-12T15:27:36Z</time>
      </trkpt>
      <trkpt lat="45.50462" lon="6.64323">
        <ele>2245.7770996094</ele>
        <time>2012-08-12T15:27:42Z</time>
      </trkpt>
      <trkpt lat="45.50462" lon="6.64323">
        <ele>2248.1801757812</ele>
        <time>2012-08-12T15:27:49Z</time>
      </trkpt>
      <trkpt lat="45.50462" lon="6.64323">
        <ele>2249.1416015625</ele>
        <time>2012-08-12T15:27:56Z</time>
      </trkpt>
      <trkpt lat="45.50437" lon="6.64319">
        <ele>2252.9870605469</ele>
        <time>2012-08-12T15:28:06Z</time>
      </trkpt>
      <trkpt lat="45.50436" lon="6.64318">
        <ele>2252.9870605469</ele>
        <time>2012-08-12T15:28:07Z</time>
      </trkpt>
      <trkpt lat="45.50413" lon="6.64317">
        <ele>2252.5063476562</ele>
        <time>2012-08-12T15:28:17Z</time>
      </trkpt>
      <trkpt lat="45.50399" lon="6.64316">
        <ele>2253.4677734375</ele>
        <time>2012-08-12T15:28:23Z</time>
      </trkpt>
      <trkpt lat="45.50394" lon="6.64315">
        <ele>2256.8322753906</ele>
        <time>2012-08-12T15:28:35Z</time>
      </trkpt>
      <trkpt lat="45.50379" lon="6.64311">
        <ele>2256.3515625</ele>
        <time>2012-08-12T15:28:39Z</time>
      </trkpt>
      <trkpt lat="45.50361" lon="6.64305">
        <ele>2259.7160644531</ele>
        <time>2012-08-12T15:28:56Z</time>
      </trkpt>
      <trkpt lat="45.50361" lon="6.64305">
        <ele>2261.158203125</ele>
        <time>2012-08-12T15:29:02Z</time>
      </trkpt>
      <trkpt lat="45.50341" lon="6.64301">
        <ele>2265.0034179688</ele>
        <time>2012-08-12T15:29:16Z</time>
      </trkpt>
      <trkpt lat="45.50341" lon="6.64301">
        <ele>2265.4841308594</ele>
        <time>2012-08-12T15:29:17Z</time>
      </trkpt>
      <trkpt lat="45.50341" lon="6.64301">
        <ele>2266.9260253906</ele>
        <time>2012-08-12T15:29:20Z</time>
      </trkpt>
      <trkpt lat="45.50341" lon="6.64301">
        <ele>2269.8100585938</ele>
        <time>2012-08-12T15:29:27Z</time>
      </trkpt>
      <trkpt lat="45.50341" lon="6.64301">
        <ele>2271.251953125</ele>
        <time>2012-08-12T15:29:33Z</time>
      </trkpt>
      <trkpt lat="45.50341" lon="6.64301">
        <ele>2273.6552734375</ele>
        <time>2012-08-12T15:29:41Z</time>
      </trkpt>
      <trkpt lat="45.50341" lon="6.64301">
        <ele>2277.0200195312</ele>
        <time>2012-08-12T15:29:51Z</time>
      </trkpt>
      <trkpt lat="45.50341" lon="6.64301">
        <ele>2280.3845214844</ele>
        <time>2012-08-12T15:30:00Z</time>
      </trkpt>
      <trkpt lat="45.50341" lon="6.64301">
        <ele>2284.2299804688</ele>
        <time>2012-08-12T15:30:10Z</time>
      </trkpt>
      <trkpt lat="45.50341" lon="6.64301">
        <ele>2287.5944824219</ele>
        <time>2012-08-12T15:30:19Z</time>
      </trkpt>
      <trkpt lat="45.50341" lon="6.64301">
        <ele>2290.958984375</ele>
        <time>2012-08-12T15:30:31Z</time>
      </trkpt>
      <trkpt lat="45.50341" lon="6.64301">
        <ele>2294.3234863281</ele>
        <time>2012-08-12T15:30:42Z</time>
      </trkpt>
      <trkpt lat="45.50341" lon="6.64301">
        <ele>2297.6882324219</ele>
        <time>2012-08-12T15:30:56Z</time>
      </trkpt>
      <trkpt lat="45.50341" lon="6.64301">
        <ele>2297.6882324219</ele>
        <time>2012-08-12T15:30:57Z</time>
      </trkpt>
      <trkpt lat="45.50341" lon="6.64301">
        <ele>2301.5336914062</ele>
        <time>2012-08-12T15:31:05Z</time>
      </trkpt>
      <trkpt lat="45.50252" lon="6.64291">
        <ele>2304.8981933594</ele>
        <time>2012-08-12T15:31:15Z</time>
      </trkpt>
      <trkpt lat="45.50252" lon="6.64291">
        <ele>2307.7822265625</ele>
        <time>2012-08-12T15:31:23Z</time>
      </trkpt>
      <trkpt lat="45.50252" lon="6.64291">
        <ele>2310.666015625</ele>
        <time>2012-08-12T15:31:33Z</time>
      </trkpt>
      <trkpt lat="45.50252" lon="6.64291">
        <ele>2314.0305175781</ele>
        <time>2012-08-12T15:31:40Z</time>
      </trkpt>
      <trkpt lat="45.50252" lon="6.64291">
        <ele>2314.0305175781</ele>
        <time>2012-08-12T15:31:41Z</time>
      </trkpt>
      <trkpt lat="45.50252" lon="6.64291">
        <ele>2317.8759765625</ele>
        <time>2012-08-12T15:31:54Z</time>
      </trkpt>
      <trkpt lat="45.50252" lon="6.64291">
        <ele>2320.7600097656</ele>
        <time>2012-08-12T15:32:05Z</time>
      </trkpt>
      <trkpt lat="45.50252" lon="6.64291">
        <ele>2321.7211914062</ele>
        <time>2012-08-12T15:32:07Z</time>
      </trkpt>
      <trkpt lat="45.50252" lon="6.64291">
        <ele>2324.6052246094</ele>
        <time>2012-08-12T15:32:14Z</time>
      </trkpt>
      <trkpt lat="45.50252" lon="6.64291">
        <ele>2327.9697265625</ele>
        <time>2012-08-12T15:32:24Z</time>
      </trkpt>
      <trkpt lat="45.50252" lon="6.64291">
        <ele>2329.4116210938</ele>
        <time>2012-08-12T15:32:30Z</time>
      </trkpt>
      <trkpt lat="45.50179" lon="6.64264">
        <ele>2331.8149414062</ele>
        <time>2012-08-12T15:32:45Z</time>
      </trkpt>
      <trkpt lat="45.50169" lon="6.64261">
        <ele>2333.2570800781</ele>
        <time>2012-08-12T15:32:53Z</time>
      </trkpt>
      <trkpt lat="45.50157" lon="6.64257">
        <ele>2334.69921875</ele>
        <time>2012-08-12T15:33:00Z</time>
      </trkpt>
      <trkpt lat="45.50153" lon="6.64256">
        <ele>2335.6604003906</ele>
        <time>2012-08-12T15:33:04Z</time>
      </trkpt>
      <trkpt lat="45.50153" lon="6.64256">
        <ele>2337.1022949219</ele>
        <time>2012-08-12T15:33:07Z</time>
      </trkpt>
      <trkpt lat="45.50153" lon="6.64256">
        <ele>2339.5056152344</ele>
        <time>2012-08-12T15:33:14Z</time>
      </trkpt>
      <trkpt lat="45.50153" lon="6.64256">
        <ele>2342.8701171875</ele>
        <time>2012-08-12T15:33:22Z</time>
      </trkpt>
      <trkpt lat="45.50127" lon="6.64227">
        <ele>2342.3896484375</ele>
        <time>2012-08-12T15:33:33Z</time>
      </trkpt>
      <trkpt lat="45.50125" lon="6.64227">
        <ele>2341.9089355469</ele>
        <time>2012-08-12T15:33:35Z</time>
      </trkpt>
      <trkpt lat="45.50123" lon="6.64227">
        <ele>2344.7927246094</ele>
        <time>2012-08-12T15:33:43Z</time>
      </trkpt>
      <trkpt lat="45.50114" lon="6.64226">
        <ele>2347.1960449219</ele>
        <time>2012-08-12T15:33:49Z</time>
      </trkpt>
      <trkpt lat="45.50114" lon="6.64226">
        <ele>2348.1574707031</ele>
        <time>2012-08-12T15:33:51Z</time>
      </trkpt>
      <trkpt lat="45.50104" lon="6.64225">
        <ele>2349.599609375</ele>
        <time>2012-08-12T15:33:55Z</time>
      </trkpt>
      <trkpt lat="45.50104" lon="6.64225">
        <ele>2351.0415039062</ele>
        <time>2012-08-12T15:33:58Z</time>
      </trkpt>
      <trkpt lat="45.50104" lon="6.64225">
        <ele>2354.4060058594</ele>
        <time>2012-08-12T15:34:08Z</time>
      </trkpt>
      <trkpt lat="45.50104" lon="6.64225">
        <ele>2354.4060058594</ele>
        <time>2012-08-12T15:34:09Z</time>
      </trkpt>
      <trkpt lat="45.50104" lon="6.64225">
        <ele>2356.3286132812</ele>
        <time>2012-08-12T15:34:29Z</time>
      </trkpt>
      <trkpt lat="45.50104" lon="6.64225">
        <ele>2355.8479003906</ele>
        <time>2012-08-12T15:34:59Z</time>
      </trkpt>
      <trkpt lat="45.50104" lon="6.64225">
        <ele>2356.3286132812</ele>
        <time>2012-08-12T15:35:33Z</time>
      </trkpt>
      <trkpt lat="45.50084" lon="6.64211">
        <ele>2353.9255371094</ele>
        <time>2012-08-12T15:35:40Z</time>
      </trkpt>
      <trkpt lat="45.50067" lon="6.64177">
        <ele>2351.0415039062</ele>
        <time>2012-08-12T15:35:50Z</time>
      </trkpt>
      <trkpt lat="45.50059" lon="6.64143">
        <ele>2350.0803222656</ele>
        <time>2012-08-12T15:35:58Z</time>
      </trkpt>
      <trkpt lat="45.50058" lon="6.64125">
        <ele>2352.4833984375</ele>
        <time>2012-08-12T15:36:03Z</time>
      </trkpt>
      <trkpt lat="45.50056" lon="6.64121">
        <ele>2353.4448242188</ele>
        <time>2012-08-12T15:36:05Z</time>
      </trkpt>
      <trkpt lat="45.5005" lon="6.64113">
        <ele>2353.9255371094</ele>
        <time>2012-08-12T15:36:09Z</time>
      </trkpt>
      <trkpt lat="45.50046" lon="6.64111">
        <ele>2356.8093261719</ele>
        <time>2012-08-12T15:36:17Z</time>
      </trkpt>
      <trkpt lat="45.50022" lon="6.64119">
        <ele>2355.3674316406</ele>
        <time>2012-08-12T15:36:30Z</time>
      </trkpt>
      <trkpt lat="45.49996" lon="6.64132">
        <ele>2353.4448242188</ele>
        <time>2012-08-12T15:36:40Z</time>
      </trkpt>
      <trkpt lat="45.49982" lon="6.64142">
        <ele>2350.5607910156</ele>
        <time>2012-08-12T15:36:46Z</time>
      </trkpt>
      <trkpt lat="45.4998" lon="6.64144">
        <ele>2350.5607910156</ele>
        <time>2012-08-12T15:36:47Z</time>
      </trkpt>
      <trkpt lat="45.49966" lon="6.64152">
        <ele>2346.7153320312</ele>
        <time>2012-08-12T15:36:53Z</time>
      </trkpt>
      <trkpt lat="45.49961" lon="6.64152">
        <ele>2346.7153320312</ele>
        <time>2012-08-12T15:36:54Z</time>
      </trkpt>
      <trkpt lat="45.49948" lon="6.64162">
        <ele>2343.3508300781</ele>
        <time>2012-08-12T15:37:00Z</time>
      </trkpt>
      <trkpt lat="45.49947" lon="6.64163">
        <ele>2343.3508300781</ele>
        <time>2012-08-12T15:37:01Z</time>
      </trkpt>
      <trkpt lat="45.49941" lon="6.64166">
        <ele>2341.9089355469</ele>
        <time>2012-08-12T15:37:05Z</time>
      </trkpt>
      <trkpt lat="45.49935" lon="6.64168">
        <ele>2340.466796875</ele>
        <time>2012-08-12T15:37:19Z</time>
      </trkpt>
      <trkpt lat="45.49933" lon="6.64169">
        <ele>2340.466796875</ele>
        <time>2012-08-12T15:37:21Z</time>
      </trkpt>
      <trkpt lat="45.49937" lon="6.64178">
        <ele>2339.0249023438</ele>
        <time>2012-08-12T15:37:25Z</time>
      </trkpt>
      <trkpt lat="45.49943" lon="6.64184">
        <ele>2337.1022949219</ele>
        <time>2012-08-12T15:37:29Z</time>
      </trkpt>
      <trkpt lat="45.49963" lon="6.64185">
        <ele>2336.1411132812</ele>
        <time>2012-08-12T15:37:40Z</time>
      </trkpt>
      <trkpt lat="45.49965" lon="6.64188">
        <ele>2333.2570800781</ele>
        <time>2012-08-12T15:37:45Z</time>
      </trkpt>
      <trkpt lat="45.49969" lon="6.64194">
        <ele>2330.8537597656</ele>
        <time>2012-08-12T15:37:48Z</time>
      </trkpt>
      <trkpt lat="45.49979" lon="6.64199">
        <ele>2328.4504394531</ele>
        <time>2012-08-12T15:37:52Z</time>
      </trkpt>
      <trkpt lat="45.49983" lon="6.64203">
        <ele>2327.0085449219</ele>
        <time>2012-08-12T15:37:54Z</time>
      </trkpt>
      <trkpt lat="45.49986" lon="6.64209">
        <ele>2325.56640625</ele>
        <time>2012-08-12T15:37:56Z</time>
      </trkpt>
      <trkpt lat="45.49991" lon="6.64214">
        <ele>2322.6826171875</ele>
        <time>2012-08-12T15:37:59Z</time>
      </trkpt>
      <trkpt lat="45.49991" lon="6.64218">
        <ele>2321.7211914062</ele>
        <time>2012-08-12T15:38:01Z</time>
      </trkpt>
      <trkpt lat="45.49997" lon="6.6423">
        <ele>2317.3952636719</ele>
        <time>2012-08-12T15:38:07Z</time>
      </trkpt>
      <trkpt lat="45.49997" lon="6.64231">
        <ele>2317.3952636719</ele>
        <time>2012-08-12T15:38:08Z</time>
      </trkpt>
      <trkpt lat="45.49999" lon="6.64234">
        <ele>2316.4340820312</ele>
        <time>2012-08-12T15:38:10Z</time>
      </trkpt>
      <trkpt lat="45.50002" lon="6.64243">
        <ele>2314.0305175781</ele>
        <time>2012-08-12T15:38:15Z</time>
      </trkpt>
      <trkpt lat="45.50007" lon="6.64256">
        <ele>2309.7045898438</ele>
        <time>2012-08-12T15:38:21Z</time>
      </trkpt>
      <trkpt lat="45.50007" lon="6.64259">
        <ele>2309.7045898438</ele>
        <time>2012-08-12T15:38:22Z</time>
      </trkpt>
      <trkpt lat="45.50009" lon="6.64265">
        <ele>2307.3015136719</ele>
        <time>2012-08-12T15:38:26Z</time>
      </trkpt>
      <trkpt lat="45.50013" lon="6.64288">
        <ele>2304.4174804688</ele>
        <time>2012-08-12T15:38:32Z</time>
      </trkpt>
      <trkpt lat="45.50013" lon="6.64292">
        <ele>2304.4174804688</ele>
        <time>2012-08-12T15:38:33Z</time>
      </trkpt>
      <trkpt lat="45.5001" lon="6.64298">
        <ele>2303.9370117188</ele>
        <time>2012-08-12T15:38:35Z</time>
      </trkpt>
      <trkpt lat="45.50009" lon="6.64307">
        <ele>2303.4562988281</ele>
        <time>2012-08-12T15:38:38Z</time>
      </trkpt>
      <trkpt lat="45.5001" lon="6.64314">
        <ele>2301.5336914062</ele>
        <time>2012-08-12T15:38:40Z</time>
      </trkpt>
      <trkpt lat="45.50012" lon="6.64324">
        <ele>2298.6494140625</ele>
        <time>2012-08-12T15:38:43Z</time>
      </trkpt>
      <trkpt lat="45.50012" lon="6.64328">
        <ele>2297.6882324219</ele>
        <time>2012-08-12T15:38:44Z</time>
      </trkpt>
      <trkpt lat="45.50018" lon="6.64365">
        <ele>2294.3234863281</ele>
        <time>2012-08-12T15:38:53Z</time>
      </trkpt>
      <trkpt lat="45.50019" lon="6.64388">
        <ele>2292.4011230469</ele>
        <time>2012-08-12T15:38:59Z</time>
      </trkpt>
      <trkpt lat="45.5002" lon="6.64392">
        <ele>2291.4396972656</ele>
        <time>2012-08-12T15:39:00Z</time>
      </trkpt>
      <trkpt lat="45.50017" lon="6.644">
        <ele>2290.4782714844</ele>
        <time>2012-08-12T15:39:03Z</time>
      </trkpt>
      <trkpt lat="45.50012" lon="6.64401">
        <ele>2288.0751953125</ele>
        <time>2012-08-12T15:39:06Z</time>
      </trkpt>
      <trkpt lat="45.50014" lon="6.644">
        <ele>2287.1137695312</ele>
        <time>2012-08-12T15:39:07Z</time>
      </trkpt>
      <trkpt lat="45.50012" lon="6.64388">
        <ele>2283.7490234375</ele>
        <time>2012-08-12T15:39:12Z</time>
      </trkpt>
      <trkpt lat="45.5001" lon="6.64386">
        <ele>2283.7490234375</ele>
        <time>2012-08-12T15:39:13Z</time>
      </trkpt>
      <trkpt lat="45.50003" lon="6.64374">
        <ele>2281.345703125</ele>
        <time>2012-08-12T15:39:17Z</time>
      </trkpt>
      <trkpt lat="45.50001" lon="6.64368">
        <ele>2279.9038085938</ele>
        <time>2012-08-12T15:39:19Z</time>
      </trkpt>
      <trkpt lat="45.49991" lon="6.64355">
        <ele>2277.9812011719</ele>
        <time>2012-08-12T15:39:25Z</time>
      </trkpt>
      <trkpt lat="45.49988" lon="6.64351">
        <ele>2276.5393066406</ele>
        <time>2012-08-12T15:39:27Z</time>
      </trkpt>
      <trkpt lat="45.49979" lon="6.64341">
        <ele>2274.1359863281</ele>
        <time>2012-08-12T15:39:32Z</time>
      </trkpt>
      <trkpt lat="45.49974" lon="6.6434">
        <ele>2272.6940917969</ele>
        <time>2012-08-12T15:39:34Z</time>
      </trkpt>
      <trkpt lat="45.49971" lon="6.64337">
        <ele>2271.251953125</ele>
        <time>2012-08-12T15:39:36Z</time>
      </trkpt>
      <trkpt lat="45.49968" lon="6.64336">
        <ele>2269.8100585938</ele>
        <time>2012-08-12T15:39:38Z</time>
      </trkpt>
      <trkpt lat="45.49963" lon="6.64336">
        <ele>2268.3681640625</ele>
        <time>2012-08-12T15:39:40Z</time>
      </trkpt>
      <trkpt lat="45.49958" lon="6.64336">
        <ele>2264.5227050781</ele>
        <time>2012-08-12T15:39:42Z</time>
      </trkpt>
      <trkpt lat="45.49956" lon="6.64337">
        <ele>2264.5227050781</ele>
        <time>2012-08-12T15:39:43Z</time>
      </trkpt>
      <trkpt lat="45.49953" lon="6.64338">
        <ele>2264.0419921875</ele>
        <time>2012-08-12T15:39:45Z</time>
      </trkpt>
      <trkpt lat="45.4995" lon="6.64341">
        <ele>2263.0808105469</ele>
        <time>2012-08-12T15:39:47Z</time>
      </trkpt>
      <trkpt lat="45.49945" lon="6.64344">
        <ele>2260.1967773438</ele>
        <time>2012-08-12T15:39:50Z</time>
      </trkpt>
      <trkpt lat="45.49936" lon="6.64343">
        <ele>2258.7548828125</ele>
        <time>2012-08-12T15:39:52Z</time>
      </trkpt>
      <trkpt lat="45.49932" lon="6.64342">
        <ele>2258.2741699219</ele>
        <time>2012-08-12T15:39:53Z</time>
      </trkpt>
      <trkpt lat="45.49924" lon="6.64343">
        <ele>2256.3515625</ele>
        <time>2012-08-12T15:39:56Z</time>
      </trkpt>
      <trkpt lat="45.49922" lon="6.6436">
        <ele>2253.9484863281</ele>
        <time>2012-08-12T15:40:01Z</time>
      </trkpt>
      <trkpt lat="45.49924" lon="6.64371">
        <ele>2250.5834960938</ele>
        <time>2012-08-12T15:40:06Z</time>
      </trkpt>
      <trkpt lat="45.49925" lon="6.64374">
        <ele>2249.6223144531</ele>
        <time>2012-08-12T15:40:07Z</time>
      </trkpt>
      <trkpt lat="45.49923" lon="6.64382">
        <ele>2247.2189941406</ele>
        <time>2012-08-12T15:40:13Z</time>
      </trkpt>
      <trkpt lat="45.49919" lon="6.64382">
        <ele>2246.2578125</ele>
        <time>2012-08-12T15:40:14Z</time>
      </trkpt>
      <trkpt lat="45.49914" lon="6.64386">
        <ele>2245.2963867188</ele>
        <time>2012-08-12T15:40:17Z</time>
      </trkpt>
      <trkpt lat="45.49908" lon="6.64386">
        <ele>2243.3737792969</ele>
        <time>2012-08-12T15:40:20Z</time>
      </trkpt>
      <trkpt lat="45.49899" lon="6.64393">
        <ele>2240.4897460938</ele>
        <time>2012-08-12T15:40:25Z</time>
      </trkpt>
      <trkpt lat="45.49898" lon="6.64398">
        <ele>2239.0478515625</ele>
        <time>2012-08-12T15:40:27Z</time>
      </trkpt>
      <trkpt lat="45.49898" lon="6.64401">
        <ele>2238.0866699219</ele>
        <time>2012-08-12T15:40:28Z</time>
      </trkpt>
      <trkpt lat="45.49901" lon="6.6441">
        <ele>2236.64453125</ele>
        <time>2012-08-12T15:40:31Z</time>
      </trkpt>
      <trkpt lat="45.49907" lon="6.64417">
        <ele>2235.2023925781</ele>
        <time>2012-08-12T15:40:34Z</time>
      </trkpt>
      <trkpt lat="45.49918" lon="6.64429">
        <ele>2234.2412109375</ele>
        <time>2012-08-12T15:40:39Z</time>
      </trkpt>
      <trkpt lat="45.49915" lon="6.64435">
        <ele>2232.3186035156</ele>
        <time>2012-08-12T15:40:43Z</time>
      </trkpt>
      <trkpt lat="45.49909" lon="6.64438">
        <ele>2228.9538574219</ele>
        <time>2012-08-12T15:40:47Z</time>
      </trkpt>
      <trkpt lat="45.4991" lon="6.64456">
        <ele>2226.55078125</ele>
        <time>2012-08-12T15:40:54Z</time>
      </trkpt>
      <trkpt lat="45.4991" lon="6.64466">
        <ele>2223.1862792969</ele>
        <time>2012-08-12T15:40:57Z</time>
      </trkpt>
      <trkpt lat="45.4991" lon="6.64472">
        <ele>2222.2248535156</ele>
        <time>2012-08-12T15:40:59Z</time>
      </trkpt>
      <trkpt lat="45.49912" lon="6.64484">
        <ele>2218.8601074219</ele>
        <time>2012-08-12T15:41:03Z</time>
      </trkpt>
      <trkpt lat="45.49912" lon="6.64487">
        <ele>2218.8601074219</ele>
        <time>2012-08-12T15:41:04Z</time>
      </trkpt>
      <trkpt lat="45.49916" lon="6.64505">
        <ele>2215.4956054688</ele>
        <time>2012-08-12T15:41:09Z</time>
      </trkpt>
      <trkpt lat="45.49917" lon="6.64512">
        <ele>2214.0534667969</ele>
        <time>2012-08-12T15:41:11Z</time>
      </trkpt>
      <trkpt lat="45.49916" lon="6.64525">
        <ele>2212.6115722656</ele>
        <time>2012-08-12T15:41:15Z</time>
      </trkpt>
      <trkpt lat="45.49916" lon="6.64535">
        <ele>2210.2082519531</ele>
        <time>2012-08-12T15:41:18Z</time>
      </trkpt>
      <trkpt lat="45.49918" lon="6.64547">
        <ele>2208.2856445312</ele>
        <time>2012-08-12T15:41:22Z</time>
      </trkpt>
      <trkpt lat="45.4992" lon="6.64557">
        <ele>2205.8823242188</ele>
        <time>2012-08-12T15:41:25Z</time>
      </trkpt>
      <trkpt lat="45.4992" lon="6.6456">
        <ele>2205.4018554688</ele>
        <time>2012-08-12T15:41:26Z</time>
      </trkpt>
      <trkpt lat="45.49919" lon="6.64568">
        <ele>2203.9597167969</ele>
        <time>2012-08-12T15:41:29Z</time>
      </trkpt>
      <trkpt lat="45.49922" lon="6.64577">
        <ele>2201.0756835938</ele>
        <time>2012-08-12T15:41:33Z</time>
      </trkpt>
      <trkpt lat="45.49923" lon="6.64582">
        <ele>2199.1530761719</ele>
        <time>2012-08-12T15:41:35Z</time>
      </trkpt>
      <trkpt lat="45.49928" lon="6.64593">
        <ele>2197.7111816406</ele>
        <time>2012-08-12T15:41:39Z</time>
      </trkpt>
      <trkpt lat="45.49926" lon="6.64598">
        <ele>2196.2692871094</ele>
        <time>2012-08-12T15:41:41Z</time>
      </trkpt>
      <trkpt lat="45.49919" lon="6.646">
        <ele>2193.3852539062</ele>
        <time>2012-08-12T15:41:46Z</time>
      </trkpt>
      <trkpt lat="45.49913" lon="6.64599">
        <ele>2190.0207519531</ele>
        <time>2012-08-12T15:41:52Z</time>
      </trkpt>
      <trkpt lat="45.49913" lon="6.64603">
        <ele>2188.5788574219</ele>
        <time>2012-08-12T15:41:54Z</time>
      </trkpt>
      <trkpt lat="45.49911" lon="6.64605">
        <ele>2188.5788574219</ele>
        <time>2012-08-12T15:41:55Z</time>
      </trkpt>
      <trkpt lat="45.4991" lon="6.64609">
        <ele>2186.6557617188</ele>
        <time>2012-08-12T15:41:57Z</time>
      </trkpt>
      <trkpt lat="45.49913" lon="6.64616">
        <ele>2185.2138671875</ele>
        <time>2012-08-12T15:42:00Z</time>
      </trkpt>
      <trkpt lat="45.49912" lon="6.64621">
        <ele>2184.2526855469</ele>
        <time>2012-08-12T15:42:02Z</time>
      </trkpt>
      <trkpt lat="45.49912" lon="6.64626">
        <ele>2182.810546875</ele>
        <time>2012-08-12T15:42:04Z</time>
      </trkpt>
      <trkpt lat="45.49917" lon="6.6464">
        <ele>2179.9267578125</ele>
        <time>2012-08-12T15:42:09Z</time>
      </trkpt>
      <trkpt lat="45.49921" lon="6.64652">
        <ele>2178.0041503906</ele>
        <time>2012-08-12T15:42:13Z</time>
      </trkpt>
      <trkpt lat="45.49921" lon="6.64655">
        <ele>2177.04296875</ele>
        <time>2012-08-12T15:42:14Z</time>
      </trkpt>
      <trkpt lat="45.49921" lon="6.64659">
        <ele>2176.0815429688</ele>
        <time>2012-08-12T15:42:16Z</time>
      </trkpt>
      <trkpt lat="45.49922" lon="6.64662">
        <ele>2175.1201171875</ele>
        <time>2012-08-12T15:42:17Z</time>
      </trkpt>
      <trkpt lat="45.4993" lon="6.64672">
        <ele>2171.2746582031</ele>
        <time>2012-08-12T15:42:23Z</time>
      </trkpt>
      <trkpt lat="45.49931" lon="6.64676">
        <ele>2170.3134765625</ele>
        <time>2012-08-12T15:42:25Z</time>
      </trkpt>
      <trkpt lat="45.49933" lon="6.64678">
        <ele>2169.3522949219</ele>
        <time>2012-08-12T15:42:26Z</time>
      </trkpt>
      <trkpt lat="45.49947" lon="6.64687">
        <ele>2167.91015625</ele>
        <time>2012-08-12T15:42:32Z</time>
      </trkpt>
      <trkpt lat="45.49973" lon="6.64689">
        <ele>2165.0263671875</ele>
        <time>2012-08-12T15:42:41Z</time>
      </trkpt>
      <trkpt lat="45.50003" lon="6.64673">
        <ele>2161.6618652344</ele>
        <time>2012-08-12T15:42:51Z</time>
      </trkpt>
      <trkpt lat="45.50006" lon="6.64673">
        <ele>2160.7004394531</ele>
        <time>2012-08-12T15:42:52Z</time>
      </trkpt>
      <trkpt lat="45.50026" lon="6.64677">
        <ele>2158.2971191406</ele>
        <time>2012-08-12T15:43:00Z</time>
      </trkpt>
      <trkpt lat="45.50036" lon="6.6468">
        <ele>2157.8166503906</ele>
        <time>2012-08-12T15:43:04Z</time>
      </trkpt>
      <trkpt lat="45.5004" lon="6.64692">
        <ele>2155.8935546875</ele>
        <time>2012-08-12T15:43:09Z</time>
      </trkpt>
      <trkpt lat="45.50033" lon="6.64692">
        <ele>2155.4130859375</ele>
        <time>2012-08-12T15:43:12Z</time>
      </trkpt>
      <trkpt lat="45.50002" lon="6.64696">
        <ele>2152.5290527344</ele>
        <time>2012-08-12T15:43:23Z</time>
      </trkpt>
      <trkpt lat="45.49991" lon="6.64712">
        <ele>2152.0483398438</ele>
        <time>2012-08-12T15:43:28Z</time>
      </trkpt>
      <trkpt lat="45.49959" lon="6.64721">
        <ele>2149.1645507812</ele>
        <time>2012-08-12T15:43:39Z</time>
      </trkpt>
      <trkpt lat="45.49937" lon="6.64725">
        <ele>2147.2419433594</ele>
        <time>2012-08-12T15:43:46Z</time>
      </trkpt>
      <trkpt lat="45.49919" lon="6.64739">
        <ele>2145.3193359375</ele>
        <time>2012-08-12T15:43:53Z</time>
      </trkpt>
      <trkpt lat="45.49913" lon="6.64743">
        <ele>2144.3579101562</ele>
        <time>2012-08-12T15:43:55Z</time>
      </trkpt>
      <trkpt lat="45.49923" lon="6.64765">
        <ele>2142.916015625</ele>
        <time>2012-08-12T15:44:00Z</time>
      </trkpt>
      <trkpt lat="45.49932" lon="6.64765">
        <ele>2141.9548339844</ele>
        <time>2012-08-12T15:44:03Z</time>
      </trkpt>
      <trkpt lat="45.49938" lon="6.64765">
        <ele>2140.9934082031</ele>
        <time>2012-08-12T15:44:06Z</time>
      </trkpt>
      <trkpt lat="45.49964" lon="6.64772">
        <ele>2139.0705566406</ele>
        <time>2012-08-12T15:44:14Z</time>
      </trkpt>
      <trkpt lat="45.49966" lon="6.64773">
        <ele>2138.109375</ele>
        <time>2012-08-12T15:44:15Z</time>
      </trkpt>
      <trkpt lat="45.49992" lon="6.64792">
        <ele>2135.7060546875</ele>
        <time>2012-08-12T15:44:24Z</time>
      </trkpt>
      <trkpt lat="45.50012" lon="6.64802">
        <ele>2132.8220214844</ele>
        <time>2012-08-12T15:44:31Z</time>
      </trkpt>
      <trkpt lat="45.50033" lon="6.64808">
        <ele>2130.8996582031</ele>
        <time>2012-08-12T15:44:37Z</time>
      </trkpt>
      <trkpt lat="45.5006" lon="6.64803">
        <ele>2128.015625</ele>
        <time>2012-08-12T15:44:44Z</time>
      </trkpt>
      <trkpt lat="45.50088" lon="6.64788">
        <ele>2124.6511230469</ele>
        <time>2012-08-12T15:44:52Z</time>
      </trkpt>
      <trkpt lat="45.50112" lon="6.64762">
        <ele>2121.7668457031</ele>
        <time>2012-08-12T15:45:01Z</time>
      </trkpt>
      <trkpt lat="45.50136" lon="6.64739">
        <ele>2118.40234375</ele>
        <time>2012-08-12T15:45:10Z</time>
      </trkpt>
      <trkpt lat="45.50163" lon="6.6473">
        <ele>2116.4797363281</ele>
        <time>2012-08-12T15:45:18Z</time>
      </trkpt>
      <trkpt lat="45.5017" lon="6.64736">
        <ele>2114.5571289062</ele>
        <time>2012-08-12T15:45:21Z</time>
      </trkpt>
      <trkpt lat="45.50193" lon="6.64742">
        <ele>2111.1926269531</ele>
        <time>2012-08-12T15:45:29Z</time>
      </trkpt>
      <trkpt lat="45.50196" lon="6.64742">
        <ele>2111.1926269531</ele>
        <time>2012-08-12T15:45:30Z</time>
      </trkpt>
      <trkpt lat="45.50224" lon="6.64735">
        <ele>2108.30859375</ele>
        <time>2012-08-12T15:45:38Z</time>
      </trkpt>
      <trkpt lat="45.50229" lon="6.64733">
        <ele>2108.30859375</ele>
        <time>2012-08-12T15:45:39Z</time>
      </trkpt>
      <trkpt lat="45.50257" lon="6.64745">
        <ele>2105.4245605469</ele>
        <time>2012-08-12T15:45:47Z</time>
      </trkpt>
      <trkpt lat="45.50283" lon="6.64762">
        <ele>2102.5405273438</ele>
        <time>2012-08-12T15:45:56Z</time>
      </trkpt>
      <trkpt lat="45.50306" lon="6.64767">
        <ele>2100.6179199219</ele>
        <time>2012-08-12T15:46:03Z</time>
      </trkpt>
      <trkpt lat="45.50327" lon="6.64766">
        <ele>2098.6953125</ele>
        <time>2012-08-12T15:46:08Z</time>
      </trkpt>
      <trkpt lat="45.50331" lon="6.64767">
        <ele>2098.2145996094</ele>
        <time>2012-08-12T15:46:10Z</time>
      </trkpt>
      <trkpt lat="45.50336" lon="6.64772">
        <ele>2097.2534179688</ele>
        <time>2012-08-12T15:46:12Z</time>
      </trkpt>
      <trkpt lat="45.50361" lon="6.64785">
        <ele>2095.3308105469</ele>
        <time>2012-08-12T15:46:19Z</time>
      </trkpt>
      <trkpt lat="45.5039" lon="6.64787">
        <ele>2092.4470214844</ele>
        <time>2012-08-12T15:46:28Z</time>
      </trkpt>
      <trkpt lat="45.50408" lon="6.64787">
        <ele>2090.0434570312</ele>
        <time>2012-08-12T15:46:34Z</time>
      </trkpt>
      <trkpt lat="45.50417" lon="6.64785">
        <ele>2089.08203125</ele>
        <time>2012-08-12T15:46:37Z</time>
      </trkpt>
      <trkpt lat="45.50454" lon="6.64778">
        <ele>2085.7175292969</ele>
        <time>2012-08-12T15:46:47Z</time>
      </trkpt>
      <trkpt lat="45.50459" lon="6.64778">
        <ele>2085.2368164062</ele>
        <time>2012-08-12T15:46:48Z</time>
      </trkpt>
      <trkpt lat="45.50475" lon="6.64783">
        <ele>2084.2756347656</ele>
        <time>2012-08-12T15:46:53Z</time>
      </trkpt>
      <trkpt lat="45.5049" lon="6.64812">
        <ele>2082.3530273438</ele>
        <time>2012-08-12T15:47:00Z</time>
      </trkpt>
      <trkpt lat="45.50496" lon="6.64823">
        <ele>2080.9111328125</ele>
        <time>2012-08-12T15:47:04Z</time>
      </trkpt>
      <trkpt lat="45.505" lon="6.64829">
        <ele>2079.9497070312</ele>
        <time>2012-08-12T15:47:06Z</time>
      </trkpt>
      <trkpt lat="45.50511" lon="6.64847">
        <ele>2078.5078125</ele>
        <time>2012-08-12T15:47:10Z</time>
      </trkpt>
      <trkpt lat="45.50522" lon="6.64869">
        <ele>2076.1044921875</ele>
        <time>2012-08-12T15:47:16Z</time>
      </trkpt>
      <trkpt lat="45.50546" lon="6.649">
        <ele>2073.2204589844</ele>
        <time>2012-08-12T15:47:26Z</time>
      </trkpt>
      <trkpt lat="45.50566" lon="6.64913">
        <ele>2070.8171386719</ele>
        <time>2012-08-12T15:47:33Z</time>
      </trkpt>
      <trkpt lat="45.50592" lon="6.64917">
        <ele>2068.4138183594</ele>
        <time>2012-08-12T15:47:39Z</time>
      </trkpt>
      <trkpt lat="45.50613" lon="6.64917">
        <ele>2066.4912109375</ele>
        <time>2012-08-12T15:47:45Z</time>
      </trkpt>
      <trkpt lat="45.50623" lon="6.64916">
        <ele>2064.5686035156</ele>
        <time>2012-08-12T15:47:49Z</time>
      </trkpt>
      <trkpt lat="45.50648" lon="6.64903">
        <ele>2061.6848144531</ele>
        <time>2012-08-12T15:47:57Z</time>
      </trkpt>
      <trkpt lat="45.50663" lon="6.64898">
        <ele>2060.2426757812</ele>
        <time>2012-08-12T15:48:01Z</time>
      </trkpt>
      <trkpt lat="45.50682" lon="6.64901">
        <ele>2058.3198242188</ele>
        <time>2012-08-12T15:48:07Z</time>
      </trkpt>
      <trkpt lat="45.50711" lon="6.64912">
        <ele>2054.9553222656</ele>
        <time>2012-08-12T15:48:16Z</time>
      </trkpt>
      <trkpt lat="45.50736" lon="6.64922">
        <ele>2052.5520019531</ele>
        <time>2012-08-12T15:48:24Z</time>
      </trkpt>
      <trkpt lat="45.50761" lon="6.64899">
        <ele>2048.7067871094</ele>
        <time>2012-08-12T15:48:34Z</time>
      </trkpt>
      <trkpt lat="45.50794" lon="6.64869">
        <ele>2045.3422851562</ele>
        <time>2012-08-12T15:48:46Z</time>
      </trkpt>
      <trkpt lat="45.50797" lon="6.64867">
        <ele>2045.3422851562</ele>
        <time>2012-08-12T15:48:47Z</time>
      </trkpt>
      <trkpt lat="45.50831" lon="6.64863">
        <ele>2043.4194335938</ele>
        <time>2012-08-12T15:48:57Z</time>
      </trkpt>
      <trkpt lat="45.50846" lon="6.64865">
        <ele>2042.4582519531</ele>
        <time>2012-08-12T15:49:01Z</time>
      </trkpt>
      <trkpt lat="45.50862" lon="6.64873">
        <ele>2041.0161132812</ele>
        <time>2012-08-12T15:49:06Z</time>
      </trkpt>
      <trkpt lat="45.50867" lon="6.64877">
        <ele>2040.0549316406</ele>
        <time>2012-08-12T15:49:08Z</time>
      </trkpt>
      <trkpt lat="45.50875" lon="6.64888">
        <ele>2039.0935058594</ele>
        <time>2012-08-12T15:49:11Z</time>
      </trkpt>
      <trkpt lat="45.50883" lon="6.64904">
        <ele>2038.6130371094</ele>
        <time>2012-08-12T15:49:15Z</time>
      </trkpt>
      <trkpt lat="45.50917" lon="6.64927">
        <ele>2036.2097167969</ele>
        <time>2012-08-12T15:49:26Z</time>
      </trkpt>
      <trkpt lat="45.50952" lon="6.64926">
        <ele>2033.8063964844</ele>
        <time>2012-08-12T15:49:37Z</time>
      </trkpt>
      <trkpt lat="45.50986" lon="6.64919">
        <ele>2030.9226074219</ele>
        <time>2012-08-12T15:49:48Z</time>
      </trkpt>
      <trkpt lat="45.51" lon="6.64915">
        <ele>2029.48046875</ele>
        <time>2012-08-12T15:49:52Z</time>
      </trkpt>
      <trkpt lat="45.51032" lon="6.64899">
        <ele>2027.0771484375</ele>
        <time>2012-08-12T15:50:03Z</time>
      </trkpt>
      <trkpt lat="45.51059" lon="6.64876">
        <ele>2024.673828125</ele>
        <time>2012-08-12T15:50:13Z</time>
      </trkpt>
      <trkpt lat="45.51067" lon="6.64839">
        <ele>2022.2705078125</ele>
        <time>2012-08-12T15:50:21Z</time>
      </trkpt>
      <trkpt lat="45.51089" lon="6.64841">
        <ele>2020.3479003906</ele>
        <time>2012-08-12T15:50:27Z</time>
      </trkpt>
      <trkpt lat="45.51108" lon="6.64872">
        <ele>2017.4638671875</ele>
        <time>2012-08-12T15:50:36Z</time>
      </trkpt>
      <trkpt lat="45.51124" lon="6.64896">
        <ele>2014.580078125</ele>
        <time>2012-08-12T15:50:43Z</time>
      </trkpt>
      <trkpt lat="45.51141" lon="6.64923">
        <ele>2010.7346191406</ele>
        <time>2012-08-12T15:50:51Z</time>
      </trkpt>
      <trkpt lat="45.51155" lon="6.64943">
        <ele>2009.2927246094</ele>
        <time>2012-08-12T15:50:57Z</time>
      </trkpt>
      <trkpt lat="45.51182" lon="6.64965">
        <ele>2006.4086914062</ele>
        <time>2012-08-12T15:51:08Z</time>
      </trkpt>
      <trkpt lat="45.51206" lon="6.64976">
        <ele>2003.0441894531</ele>
        <time>2012-08-12T15:51:16Z</time>
      </trkpt>
      <trkpt lat="45.51222" lon="6.64978">
        <ele>2001.1215820312</ele>
        <time>2012-08-12T15:51:21Z</time>
      </trkpt>
      <trkpt lat="45.51229" lon="6.64978">
        <ele>2001.1215820312</ele>
        <time>2012-08-12T15:51:23Z</time>
      </trkpt>
      <trkpt lat="45.51243" lon="6.64978">
        <ele>1998.2375488281</ele>
        <time>2012-08-12T15:51:27Z</time>
      </trkpt>
      <trkpt lat="45.51266" lon="6.64976">
        <ele>1995.8342285156</ele>
        <time>2012-08-12T15:51:34Z</time>
      </trkpt>
      <trkpt lat="45.5129" lon="6.64967">
        <ele>1993.4309082031</ele>
        <time>2012-08-12T15:51:42Z</time>
      </trkpt>
      <trkpt lat="45.51305" lon="6.64936">
        <ele>1991.0275878906</ele>
        <time>2012-08-12T15:51:50Z</time>
      </trkpt>
      <trkpt lat="45.51321" lon="6.64934">
        <ele>1988.6245117188</ele>
        <time>2012-08-12T15:51:56Z</time>
      </trkpt>
      <trkpt lat="45.5134" lon="6.6495">
        <ele>1986.2211914062</ele>
        <time>2012-08-12T15:52:04Z</time>
      </trkpt>
      <trkpt lat="45.5136" lon="6.64966">
        <ele>1983.3371582031</ele>
        <time>2012-08-12T15:52:12Z</time>
      </trkpt>
      <trkpt lat="45.51372" lon="6.65005">
        <ele>1981.4145507812</ele>
        <time>2012-08-12T15:52:21Z</time>
      </trkpt>
      <trkpt lat="45.51375" lon="6.65041">
        <ele>1978.5305175781</ele>
        <time>2012-08-12T15:52:30Z</time>
      </trkpt>
      <trkpt lat="45.51375" lon="6.65043">
        <ele>1978.5305175781</ele>
        <time>2012-08-12T15:52:31Z</time>
      </trkpt>
      <trkpt lat="45.51376" lon="6.65052">
        <ele>1977.5690917969</ele>
        <time>2012-08-12T15:52:38Z</time>
      </trkpt>
      <trkpt lat="45.51397" lon="6.65078">
        <ele>1974.2045898438</ele>
        <time>2012-08-12T15:52:49Z</time>
      </trkpt>
      <trkpt lat="45.51419" lon="6.65098">
        <ele>1972.2819824219</ele>
        <time>2012-08-12T15:52:57Z</time>
      </trkpt>
      <trkpt lat="45.51443" lon="6.65111">
        <ele>1971.3205566406</ele>
        <time>2012-08-12T15:53:06Z</time>
      </trkpt>
      <trkpt lat="45.51466" lon="6.65109">
        <ele>1969.3981933594</ele>
        <time>2012-08-12T15:53:13Z</time>
      </trkpt>
      <trkpt lat="45.51471" lon="6.65105">
        <ele>1968.9174804688</ele>
        <time>2012-08-12T15:53:15Z</time>
      </trkpt>
      <trkpt lat="45.515" lon="6.65085">
        <ele>1965.5529785156</ele>
        <time>2012-08-12T15:53:25Z</time>
      </trkpt>
      <trkpt lat="45.51521" lon="6.65099">
        <ele>1962.1879882812</ele>
        <time>2012-08-12T15:53:33Z</time>
      </trkpt>
      <trkpt lat="45.51544" lon="6.65116">
        <ele>1962.1879882812</ele>
        <time>2012-08-12T15:53:41Z</time>
      </trkpt>
      <trkpt lat="45.51571" lon="6.65138">
        <ele>1961.2268066406</ele>
        <time>2012-08-12T15:53:52Z</time>
      </trkpt>
      <trkpt lat="45.51596" lon="6.65161">
        <ele>1963.1494140625</ele>
        <time>2012-08-12T15:54:02Z</time>
      </trkpt>
      <trkpt lat="45.5163" lon="6.65175">
        <ele>1964.5915527344</ele>
        <time>2012-08-12T15:54:13Z</time>
      </trkpt>
      <trkpt lat="45.51656" lon="6.65171">
        <ele>1966.9948730469</ele>
        <time>2012-08-12T15:54:23Z</time>
      </trkpt>
      <trkpt lat="45.51666" lon="6.65171">
        <ele>1967.9560546875</ele>
        <time>2012-08-12T15:54:27Z</time>
      </trkpt>
      <trkpt lat="45.51697" lon="6.65189">
        <ele>1970.8400878906</ele>
        <time>2012-08-12T15:54:39Z</time>
      </trkpt>
      <trkpt lat="45.51711" lon="6.65195">
        <ele>1971.8012695312</ele>
        <time>2012-08-12T15:54:44Z</time>
      </trkpt>
      <trkpt lat="45.51728" lon="6.65198">
        <ele>1972.2819824219</ele>
        <time>2012-08-12T15:54:50Z</time>
      </trkpt>
      <trkpt lat="45.51734" lon="6.65197">
        <ele>1973.7238769531</ele>
        <time>2012-08-12T15:54:54Z</time>
      </trkpt>
      <trkpt lat="45.51736" lon="6.65197">
        <ele>1973.7238769531</ele>
        <time>2012-08-12T15:54:57Z</time>
      </trkpt>
      <trkpt lat="45.51736" lon="6.65197">
        <ele>1974.2045898438</ele>
        <time>2012-08-12T15:55:24Z</time>
      </trkpt>
      <trkpt lat="45.51736" lon="6.65197">
        <ele>1974.6853027344</ele>
        <time>2012-08-12T15:56:42Z</time>
      </trkpt>
      <trkpt lat="45.51736" lon="6.65197">
        <ele>1974.2045898438</ele>
        <time>2012-08-12T15:57:06Z</time>
      </trkpt>
      <trkpt lat="45.51722" lon="6.65199">
        <ele>1971.3205566406</ele>
        <time>2012-08-12T15:57:16Z</time>
      </trkpt>
      <trkpt lat="45.51767" lon="6.65227">
        <ele>1967.4753417969</ele>
        <time>2012-08-12T15:57:22Z</time>
      </trkpt>
      <trkpt lat="45.51773" lon="6.6523">
        <ele>1966.0334472656</ele>
        <time>2012-08-12T15:57:25Z</time>
      </trkpt>
      <trkpt lat="45.51779" lon="6.65233">
        <ele>1964.5915527344</ele>
        <time>2012-08-12T15:57:28Z</time>
      </trkpt>
      <trkpt lat="45.51792" lon="6.65233">
        <ele>1961.7075195312</ele>
        <time>2012-08-12T15:57:35Z</time>
      </trkpt>
      <trkpt lat="45.51795" lon="6.65237">
        <ele>1960.2653808594</ele>
        <time>2012-08-12T15:57:37Z</time>
      </trkpt>
      <trkpt lat="45.51802" lon="6.65245">
        <ele>1957.3815917969</ele>
        <time>2012-08-12T15:57:41Z</time>
      </trkpt>
      <trkpt lat="45.51804" lon="6.65247">
        <ele>1957.3815917969</ele>
        <time>2012-08-12T15:57:42Z</time>
      </trkpt>
      <trkpt lat="45.51811" lon="6.65258">
        <ele>1954.0170898438</ele>
        <time>2012-08-12T15:57:47Z</time>
      </trkpt>
      <trkpt lat="45.51814" lon="6.65262">
        <ele>1953.0556640625</ele>
        <time>2012-08-12T15:57:49Z</time>
      </trkpt>
      <trkpt lat="45.51821" lon="6.65267">
        <ele>1951.6137695312</ele>
        <time>2012-08-12T15:57:52Z</time>
      </trkpt>
      <trkpt lat="45.51827" lon="6.65276">
        <ele>1950.171875</ele>
        <time>2012-08-12T15:57:55Z</time>
      </trkpt>
      <trkpt lat="45.51841" lon="6.65283">
        <ele>1946.8068847656</ele>
        <time>2012-08-12T15:58:02Z</time>
      </trkpt>
      <trkpt lat="45.51842" lon="6.65283">
        <ele>1946.8068847656</ele>
        <time>2012-08-12T15:58:03Z</time>
      </trkpt>
      <trkpt lat="45.51842" lon="6.65278">
        <ele>1946.3264160156</ele>
        <time>2012-08-12T15:58:08Z</time>
      </trkpt>
      <trkpt lat="45.51843" lon="6.65268">
        <ele>1944.8842773438</ele>
        <time>2012-08-12T15:58:13Z</time>
      </trkpt>
      <trkpt lat="45.51843" lon="6.65247">
        <ele>1943.9230957031</ele>
        <time>2012-08-12T15:58:19Z</time>
      </trkpt>
      <trkpt lat="45.51847" lon="6.65218">
        <ele>1942.4812011719</ele>
        <time>2012-08-12T15:58:29Z</time>
      </trkpt>
      <trkpt lat="45.51851" lon="6.65211">
        <ele>1940.0778808594</ele>
        <time>2012-08-12T15:58:33Z</time>
      </trkpt>
      <trkpt lat="45.51854" lon="6.65211">
        <ele>1939.1164550781</ele>
        <time>2012-08-12T15:58:34Z</time>
      </trkpt>
      <trkpt lat="45.51866" lon="6.65216">
        <ele>1934.7907714844</ele>
        <time>2012-08-12T15:58:39Z</time>
      </trkpt>
      <trkpt lat="45.51869" lon="6.65218">
        <ele>1934.7907714844</ele>
        <time>2012-08-12T15:58:40Z</time>
      </trkpt>
      <trkpt lat="45.51871" lon="6.65218">
        <ele>1933.8293457031</ele>
        <time>2012-08-12T15:58:41Z</time>
      </trkpt>
      <trkpt lat="45.51884" lon="6.65224">
        <ele>1931.9064941406</ele>
        <time>2012-08-12T15:58:47Z</time>
      </trkpt>
      <trkpt lat="45.51892" lon="6.65228">
        <ele>1930.9453125</ele>
        <time>2012-08-12T15:58:59Z</time>
      </trkpt>
      <trkpt lat="45.51891" lon="6.65229">
        <ele>1930.4645996094</ele>
        <time>2012-08-12T15:59:03Z</time>
      </trkpt>
      <trkpt lat="45.51893" lon="6.65244">
        <ele>1929.9838867188</ele>
        <time>2012-08-12T15:59:09Z</time>
      </trkpt>
      <trkpt lat="45.51907" lon="6.65303">
        <ele>1928.0612792969</ele>
        <time>2012-08-12T15:59:23Z</time>
      </trkpt>
      <trkpt lat="45.5192" lon="6.6537">
        <ele>1925.1772460938</ele>
        <time>2012-08-12T15:59:37Z</time>
      </trkpt>
      <trkpt lat="45.51921" lon="6.6543">
        <ele>1923.7353515625</ele>
        <time>2012-08-12T15:59:51Z</time>
      </trkpt>
      <trkpt lat="45.51914" lon="6.65473">
        <ele>1921.33203125</ele>
        <time>2012-08-12T16:00:01Z</time>
      </trkpt>
      <trkpt lat="45.51914" lon="6.65487">
        <ele>1919.8901367188</ele>
        <time>2012-08-12T16:00:04Z</time>
      </trkpt>
      <trkpt lat="45.51909" lon="6.65514">
        <ele>1918.9289550781</ele>
        <time>2012-08-12T16:00:10Z</time>
      </trkpt>
      <trkpt lat="45.51907" lon="6.65569">
        <ele>1914.6027832031</ele>
        <time>2012-08-12T16:00:22Z</time>
      </trkpt>
      <trkpt lat="45.51906" lon="6.65578">
        <ele>1914.1220703125</ele>
        <time>2012-08-12T16:00:24Z</time>
      </trkpt>
      <trkpt lat="45.51912" lon="6.65607">
        <ele>1911.7189941406</ele>
        <time>2012-08-12T16:00:31Z</time>
      </trkpt>
      <trkpt lat="45.51918" lon="6.65633">
        <ele>1908.3542480469</ele>
        <time>2012-08-12T16:00:37Z</time>
      </trkpt>
      <trkpt lat="45.51919" lon="6.65637">
        <ele>1908.3542480469</ele>
        <time>2012-08-12T16:00:38Z</time>
      </trkpt>
      <trkpt lat="45.51927" lon="6.65665">
        <ele>1904.5090332031</ele>
        <time>2012-08-12T16:00:44Z</time>
      </trkpt>
      <trkpt lat="45.51928" lon="6.65669">
        <ele>1904.5090332031</ele>
        <time>2012-08-12T16:00:45Z</time>
      </trkpt>
      <trkpt lat="45.51929" lon="6.65697">
        <ele>1902.1057128906</ele>
        <time>2012-08-12T16:00:55Z</time>
      </trkpt>
      <trkpt lat="45.51928" lon="6.65711">
        <ele>1899.7023925781</ele>
        <time>2012-08-12T16:00:59Z</time>
      </trkpt>
      <trkpt lat="45.51925" lon="6.6572">
        <ele>1898.7409667969</ele>
        <time>2012-08-12T16:01:03Z</time>
      </trkpt>
      <trkpt lat="45.51922" lon="6.65727">
        <ele>1897.2990722656</ele>
        <time>2012-08-12T16:01:06Z</time>
      </trkpt>
      <trkpt lat="45.51919" lon="6.65731">
        <ele>1895.8571777344</ele>
        <time>2012-08-12T16:01:08Z</time>
      </trkpt>
      <trkpt lat="45.51914" lon="6.65741">
        <ele>1893.4538574219</ele>
        <time>2012-08-12T16:01:12Z</time>
      </trkpt>
      <trkpt lat="45.51909" lon="6.65746">
        <ele>1891.0505371094</ele>
        <time>2012-08-12T16:01:15Z</time>
      </trkpt>
      <trkpt lat="45.51904" lon="6.6575">
        <ele>1889.6086425781</ele>
        <time>2012-08-12T16:01:17Z</time>
      </trkpt>
      <trkpt lat="45.51897" lon="6.65757">
        <ele>1886.724609375</ele>
        <time>2012-08-12T16:01:21Z</time>
      </trkpt>
      <trkpt lat="45.51895" lon="6.6576">
        <ele>1886.724609375</ele>
        <time>2012-08-12T16:01:22Z</time>
      </trkpt>
      <trkpt lat="45.51893" lon="6.65765">
        <ele>1885.7634277344</ele>
        <time>2012-08-12T16:01:24Z</time>
      </trkpt>
      <trkpt lat="45.5189" lon="6.6577">
        <ele>1883.8405761719</ele>
        <time>2012-08-12T16:01:26Z</time>
      </trkpt>
      <trkpt lat="45.51884" lon="6.65779">
        <ele>1881.91796875</ele>
        <time>2012-08-12T16:01:29Z</time>
      </trkpt>
      <trkpt lat="45.51877" lon="6.65787">
        <ele>1880.4760742188</ele>
        <time>2012-08-12T16:01:33Z</time>
      </trkpt>
      <trkpt lat="45.51881" lon="6.65809">
        <ele>1876.630859375</ele>
        <time>2012-08-12T16:01:41Z</time>
      </trkpt>
      <trkpt lat="45.51884" lon="6.65815">
        <ele>1876.1501464844</ele>
        <time>2012-08-12T16:01:43Z</time>
      </trkpt>
      <trkpt lat="45.51902" lon="6.65832">
        <ele>1874.2275390625</ele>
        <time>2012-08-12T16:01:51Z</time>
      </trkpt>
      <trkpt lat="45.51904" lon="6.65835">
        <ele>1874.2275390625</ele>
        <time>2012-08-12T16:01:52Z</time>
      </trkpt>
      <trkpt lat="45.51907" lon="6.65841">
        <ele>1873.2663574219</ele>
        <time>2012-08-12T16:01:54Z</time>
      </trkpt>
      <trkpt lat="45.51909" lon="6.65847">
        <ele>1872.7856445312</ele>
        <time>2012-08-12T16:01:56Z</time>
      </trkpt>
      <trkpt lat="45.51928" lon="6.65867">
        <ele>1868.9404296875</ele>
        <time>2012-08-12T16:02:06Z</time>
      </trkpt>
      <trkpt lat="45.51941" lon="6.65878">
        <ele>1865.5756835938</ele>
        <time>2012-08-12T16:02:11Z</time>
      </trkpt>
      <trkpt lat="45.51946" lon="6.65883">
        <ele>1864.6142578125</ele>
        <time>2012-08-12T16:02:13Z</time>
      </trkpt>
      <trkpt lat="45.5196" lon="6.65902">
        <ele>1861.73046875</ele>
        <time>2012-08-12T16:02:21Z</time>
      </trkpt>
      <trkpt lat="45.51962" lon="6.65905">
        <ele>1861.73046875</ele>
        <time>2012-08-12T16:02:22Z</time>
      </trkpt>
      <trkpt lat="45.51982" lon="6.6592">
        <ele>1858.3657226562</ele>
        <time>2012-08-12T16:02:31Z</time>
      </trkpt>
      <trkpt lat="45.52" lon="6.65935">
        <ele>1855.4819335938</ele>
        <time>2012-08-12T16:02:39Z</time>
      </trkpt>
      <trkpt lat="45.52014" lon="6.65948">
        <ele>1853.0786132812</ele>
        <time>2012-08-12T16:02:45Z</time>
      </trkpt>
      <trkpt lat="45.52016" lon="6.65954">
        <ele>1851.6364746094</ele>
        <time>2012-08-12T16:02:47Z</time>
      </trkpt>
      <trkpt lat="45.52024" lon="6.65961">
        <ele>1849.2331542969</ele>
        <time>2012-08-12T16:02:50Z</time>
      </trkpt>
      <trkpt lat="45.52026" lon="6.65963">
        <ele>1847.7912597656</ele>
        <time>2012-08-12T16:02:51Z</time>
      </trkpt>
      <trkpt lat="45.52031" lon="6.65972">
        <ele>1846.8298339844</ele>
        <time>2012-08-12T16:02:55Z</time>
      </trkpt>
      <trkpt lat="45.52034" lon="6.65976">
        <ele>1845.8686523438</ele>
        <time>2012-08-12T16:02:57Z</time>
      </trkpt>
      <trkpt lat="45.52039" lon="6.6598">
        <ele>1844.4265136719</ele>
        <time>2012-08-12T16:03:00Z</time>
      </trkpt>
      <trkpt lat="45.52044" lon="6.65986">
        <ele>1842.5041503906</ele>
        <time>2012-08-12T16:03:03Z</time>
      </trkpt>
      <trkpt lat="45.52055" lon="6.66">
        <ele>1839.6201171875</ele>
        <time>2012-08-12T16:03:08Z</time>
      </trkpt>
      <trkpt lat="45.5206" lon="6.66005">
        <ele>1837.6975097656</ele>
        <time>2012-08-12T16:03:11Z</time>
      </trkpt>
      <trkpt lat="45.52066" lon="6.66018">
        <ele>1834.3327636719</ele>
        <time>2012-08-12T16:03:16Z</time>
      </trkpt>
      <trkpt lat="45.52069" lon="6.66023">
        <ele>1831.4487304688</ele>
        <time>2012-08-12T16:03:19Z</time>
      </trkpt>
      <trkpt lat="45.52068" lon="6.66033">
        <ele>1828.5649414062</ele>
        <time>2012-08-12T16:03:23Z</time>
      </trkpt>
      <trkpt lat="45.5207" lon="6.66045">
        <ele>1825.2001953125</ele>
        <time>2012-08-12T16:03:26Z</time>
      </trkpt>
      <trkpt lat="45.52072" lon="6.66048">
        <ele>1825.2001953125</ele>
        <time>2012-08-12T16:03:27Z</time>
      </trkpt>
      <trkpt lat="45.52082" lon="6.6607">
        <ele>1821.8356933594</ele>
        <time>2012-08-12T16:03:34Z</time>
      </trkpt>
      <trkpt lat="45.52091" lon="6.66081">
        <ele>1817.990234375</ele>
        <time>2012-08-12T16:03:40Z</time>
      </trkpt>
      <trkpt lat="45.52093" lon="6.66082">
        <ele>1817.990234375</ele>
        <time>2012-08-12T16:03:41Z</time>
      </trkpt>
      <trkpt lat="45.52098" lon="6.66091">
        <ele>1816.5483398438</ele>
        <time>2012-08-12T16:03:50Z</time>
      </trkpt>
      <trkpt lat="45.52101" lon="6.66099">
        <ele>1813.6643066406</ele>
        <time>2012-08-12T16:03:53Z</time>
      </trkpt>
      <trkpt lat="45.52101" lon="6.6612">
        <ele>1812.2224121094</ele>
        <time>2012-08-12T16:04:03Z</time>
      </trkpt>
      <trkpt lat="45.52094" lon="6.66134">
        <ele>1810.7805175781</ele>
        <time>2012-08-12T16:04:12Z</time>
      </trkpt>
      <trkpt lat="45.52092" lon="6.66137">
        <ele>1809.8190917969</ele>
        <time>2012-08-12T16:04:17Z</time>
      </trkpt>
      <trkpt lat="45.52081" lon="6.66133">
        <ele>1810.7805175781</ele>
        <time>2012-08-12T16:04:28Z</time>
      </trkpt>
      <trkpt lat="45.52078" lon="6.66129">
        <ele>1811.7419433594</ele>
        <time>2012-08-12T16:04:32Z</time>
      </trkpt>
      <trkpt lat="45.52072" lon="6.66125">
        <ele>1813.1838378906</ele>
        <time>2012-08-12T16:04:36Z</time>
      </trkpt>
      <trkpt lat="45.52048" lon="6.66115">
        <ele>1813.1838378906</ele>
        <time>2012-08-12T16:04:47Z</time>
      </trkpt>
      <trkpt lat="45.52026" lon="6.66113">
        <ele>1811.7419433594</ele>
        <time>2012-08-12T16:04:55Z</time>
      </trkpt>
      <trkpt lat="45.52015" lon="6.66115">
        <ele>1810.7805175781</ele>
        <time>2012-08-12T16:05:00Z</time>
      </trkpt>
      <trkpt lat="45.51986" lon="6.66114">
        <ele>1806.9353027344</ele>
        <time>2012-08-12T16:05:10Z</time>
      </trkpt>
      <trkpt lat="45.51977" lon="6.66114">
        <ele>1806.4545898438</ele>
        <time>2012-08-12T16:05:13Z</time>
      </trkpt>
      <trkpt lat="45.5197" lon="6.66112">
        <ele>1806.4545898438</ele>
        <time>2012-08-12T16:05:17Z</time>
      </trkpt>
      <trkpt lat="45.51965" lon="6.66108">
        <ele>1806.4545898438</ele>
        <time>2012-08-12T16:05:21Z</time>
      </trkpt>
      <trkpt lat="45.51967" lon="6.66115">
        <ele>1805.0126953125</ele>
        <time>2012-08-12T16:05:25Z</time>
      </trkpt>
      <trkpt lat="45.51969" lon="6.6612">
        <ele>1804.5319824219</ele>
        <time>2012-08-12T16:05:27Z</time>
      </trkpt>
      <trkpt lat="45.51973" lon="6.66129">
        <ele>1801.1672363281</ele>
        <time>2012-08-12T16:05:32Z</time>
      </trkpt>
      <trkpt lat="45.51974" lon="6.66136">
        <ele>1799.2446289062</ele>
        <time>2012-08-12T16:05:38Z</time>
      </trkpt>
      <trkpt lat="45.51972" lon="6.6614">
        <ele>1798.283203125</ele>
        <time>2012-08-12T16:05:41Z</time>
      </trkpt>
      <trkpt lat="45.51971" lon="6.66143">
        <ele>1797.3220214844</ele>
        <time>2012-08-12T16:05:42Z</time>
      </trkpt>
      <trkpt lat="45.51975" lon="6.66152">
        <ele>1795.8801269531</ele>
        <time>2012-08-12T16:05:54Z</time>
      </trkpt>
      <trkpt lat="45.51991" lon="6.66159">
        <ele>1793.9575195312</ele>
        <time>2012-08-12T16:06:02Z</time>
      </trkpt>
      <trkpt lat="45.51998" lon="6.66167">
        <ele>1792.515625</ele>
        <time>2012-08-12T16:06:06Z</time>
      </trkpt>
      <trkpt lat="45.52002" lon="6.66169">
        <ele>1791.0734863281</ele>
        <time>2012-08-12T16:06:09Z</time>
      </trkpt>
      <trkpt lat="45.52004" lon="6.66171">
        <ele>1790.1123046875</ele>
        <time>2012-08-12T16:06:11Z</time>
      </trkpt>
      <trkpt lat="45.52018" lon="6.6618">
        <ele>1785.3054199219</ele>
        <time>2012-08-12T16:06:22Z</time>
      </trkpt>
      <trkpt lat="45.52018" lon="6.66181">
        <ele>1785.3054199219</ele>
        <time>2012-08-12T16:06:23Z</time>
      </trkpt>
      <trkpt lat="45.52028" lon="6.66186">
        <ele>1781.9409179688</ele>
        <time>2012-08-12T16:06:33Z</time>
      </trkpt>
      <trkpt lat="45.52035" lon="6.66192">
        <ele>1780.0183105469</ele>
        <time>2012-08-12T16:06:36Z</time>
      </trkpt>
      <trkpt lat="45.52044" lon="6.66195">
        <ele>1779.0568847656</ele>
        <time>2012-08-12T16:06:40Z</time>
      </trkpt>
      <trkpt lat="45.52051" lon="6.66201">
        <ele>1777.1345214844</ele>
        <time>2012-08-12T16:06:44Z</time>
      </trkpt>
      <trkpt lat="45.52076" lon="6.66209">
        <ele>1775.2116699219</ele>
        <time>2012-08-12T16:06:53Z</time>
      </trkpt>
      <trkpt lat="45.5209" lon="6.66209">
        <ele>1774.7312011719</ele>
        <time>2012-08-12T16:07:00Z</time>
      </trkpt>
      <trkpt lat="45.52098" lon="6.66214">
        <ele>1773.7697753906</ele>
        <time>2012-08-12T16:07:04Z</time>
      </trkpt>
      <trkpt lat="45.52115" lon="6.66214">
        <ele>1773.2893066406</ele>
        <time>2012-08-12T16:07:11Z</time>
      </trkpt>
      <trkpt lat="45.52128" lon="6.66214">
        <ele>1774.2504882812</ele>
        <time>2012-08-12T16:07:18Z</time>
      </trkpt>
      <trkpt lat="45.52132" lon="6.66213">
        <ele>1773.7697753906</ele>
        <time>2012-08-12T16:07:20Z</time>
      </trkpt>
      <trkpt lat="45.52159" lon="6.66205">
        <ele>1771.3662109375</ele>
        <time>2012-08-12T16:07:32Z</time>
      </trkpt>
      <trkpt lat="45.52168" lon="6.66216">
        <ele>1770.4050292969</ele>
        <time>2012-08-12T16:07:39Z</time>
      </trkpt>
      <trkpt lat="45.52165" lon="6.66219">
        <ele>1767.0405273438</ele>
        <time>2012-08-12T16:07:44Z</time>
      </trkpt>
      <trkpt lat="45.52169" lon="6.66222">
        <ele>1764.6372070312</ele>
        <time>2012-08-12T16:07:49Z</time>
      </trkpt>
      <trkpt lat="45.52173" lon="6.66222">
        <ele>1763.1953125</ele>
        <time>2012-08-12T16:07:51Z</time>
      </trkpt>
      <trkpt lat="45.52177" lon="6.66221">
        <ele>1761.2727050781</ele>
        <time>2012-08-12T16:07:53Z</time>
      </trkpt>
      <trkpt lat="45.52189" lon="6.66218">
        <ele>1759.8305664062</ele>
        <time>2012-08-12T16:07:57Z</time>
      </trkpt>
      <trkpt lat="45.52204" lon="6.66216">
        <ele>1759.3500976562</ele>
        <time>2012-08-12T16:08:01Z</time>
      </trkpt>
      <trkpt lat="45.52214" lon="6.66218">
        <ele>1760.3112792969</ele>
        <time>2012-08-12T16:08:03Z</time>
      </trkpt>
      <trkpt lat="45.52229" lon="6.66178">
        <ele>1760.7919921875</ele>
        <time>2012-08-12T16:08:13Z</time>
      </trkpt>
      <trkpt lat="45.52237" lon="6.66167">
        <ele>1760.3112792969</ele>
        <time>2012-08-12T16:08:18Z</time>
      </trkpt>
      <trkpt lat="45.5225" lon="6.66166">
        <ele>1760.3112792969</ele>
        <time>2012-08-12T16:08:23Z</time>
      </trkpt>
      <trkpt lat="45.52261" lon="6.66168">
        <ele>1756.9467773438</ele>
        <time>2012-08-12T16:08:27Z</time>
      </trkpt>
      <trkpt lat="45.52268" lon="6.66164">
        <ele>1755.9851074219</ele>
        <time>2012-08-12T16:08:30Z</time>
      </trkpt>
      <trkpt lat="45.52273" lon="6.66161">
        <ele>1755.0239257812</ele>
        <time>2012-08-12T16:08:32Z</time>
      </trkpt>
      <trkpt lat="45.52278" lon="6.66161">
        <ele>1753.58203125</ele>
        <time>2012-08-12T16:08:34Z</time>
      </trkpt>
      <trkpt lat="45.52286" lon="6.66152">
        <ele>1750.6979980469</ele>
        <time>2012-08-12T16:08:39Z</time>
      </trkpt>
      <trkpt lat="45.52289" lon="6.66144">
        <ele>1748.2946777344</ele>
        <time>2012-08-12T16:08:42Z</time>
      </trkpt>
      <trkpt lat="45.52293" lon="6.66142">
        <ele>1747.3334960938</ele>
        <time>2012-08-12T16:08:44Z</time>
      </trkpt>
      <trkpt lat="45.52295" lon="6.66141">
        <ele>1745.8916015625</ele>
        <time>2012-08-12T16:08:46Z</time>
      </trkpt>
      <trkpt lat="45.52299" lon="6.66145">
        <ele>1743.9689941406</ele>
        <time>2012-08-12T16:08:49Z</time>
      </trkpt>
      <trkpt lat="45.52304" lon="6.66143">
        <ele>1740.6042480469</ele>
        <time>2012-08-12T16:08:55Z</time>
      </trkpt>
      <trkpt lat="45.52311" lon="6.66136">
        <ele>1738.681640625</ele>
        <time>2012-08-12T16:09:00Z</time>
      </trkpt>
      <trkpt lat="45.52317" lon="6.66137">
        <ele>1736.2783203125</ele>
        <time>2012-08-12T16:09:03Z</time>
      </trkpt>
      <trkpt lat="45.52321" lon="6.66136">
        <ele>1734.8364257812</ele>
        <time>2012-08-12T16:09:05Z</time>
      </trkpt>
      <trkpt lat="45.52327" lon="6.66137">
        <ele>1732.4331054688</ele>
        <time>2012-08-12T16:09:08Z</time>
      </trkpt>
      <trkpt lat="45.52335" lon="6.66141">
        <ele>1730.0297851562</ele>
        <time>2012-08-12T16:09:11Z</time>
      </trkpt>
      <trkpt lat="45.52335" lon="6.66132">
        <ele>1728.1071777344</ele>
        <time>2012-08-12T16:09:15Z</time>
      </trkpt>
      <trkpt lat="45.52331" lon="6.66114">
        <ele>1727.6264648438</ele>
        <time>2012-08-12T16:09:21Z</time>
      </trkpt>
      <trkpt lat="45.52329" lon="6.66105">
        <ele>1729.068359375</ele>
        <time>2012-08-12T16:09:23Z</time>
      </trkpt>
      <trkpt lat="45.52337" lon="6.66101">
        <ele>1727.6264648438</ele>
        <time>2012-08-12T16:09:27Z</time>
      </trkpt>
      <trkpt lat="45.52345" lon="6.661">
        <ele>1726.6652832031</ele>
        <time>2012-08-12T16:09:30Z</time>
      </trkpt>
      <trkpt lat="45.52351" lon="6.66099">
        <ele>1725.2231445312</ele>
        <time>2012-08-12T16:09:32Z</time>
      </trkpt>
      <trkpt lat="45.52356" lon="6.66098">
        <ele>1725.2231445312</ele>
        <time>2012-08-12T16:09:34Z</time>
      </trkpt>
      <trkpt lat="45.52368" lon="6.66091">
        <ele>1725.2231445312</ele>
        <time>2012-08-12T16:09:43Z</time>
      </trkpt>
      <trkpt lat="45.52374" lon="6.66084">
        <ele>1723.7810058594</ele>
        <time>2012-08-12T16:09:48Z</time>
      </trkpt>
      <trkpt lat="45.5239" lon="6.6608">
        <ele>1723.7810058594</ele>
        <time>2012-08-12T16:09:53Z</time>
      </trkpt>
      <trkpt lat="45.52407" lon="6.6605">
        <ele>1721.8583984375</ele>
        <time>2012-08-12T16:10:02Z</time>
      </trkpt>
      <trkpt lat="45.5242" lon="6.6604">
        <ele>1720.8972167969</ele>
        <time>2012-08-12T16:10:06Z</time>
      </trkpt>
      <trkpt lat="45.52432" lon="6.66032">
        <ele>1718.4938964844</ele>
        <time>2012-08-12T16:10:12Z</time>
      </trkpt>
      <trkpt lat="45.52437" lon="6.6603">
        <ele>1716.0905761719</ele>
        <time>2012-08-12T16:10:15Z</time>
      </trkpt>
      <trkpt lat="45.52443" lon="6.66015">
        <ele>1714.16796875</ele>
        <time>2012-08-12T16:10:22Z</time>
      </trkpt>
      <trkpt lat="45.5244" lon="6.65975">
        <ele>1712.2453613281</ele>
        <time>2012-08-12T16:10:33Z</time>
      </trkpt>
      <trkpt lat="45.52437" lon="6.65963">
        <ele>1711.7648925781</ele>
        <time>2012-08-12T16:10:37Z</time>
      </trkpt>
      <trkpt lat="45.52439" lon="6.65957">
        <ele>1710.8034667969</ele>
        <time>2012-08-12T16:10:41Z</time>
      </trkpt>
      <trkpt lat="45.52449" lon="6.65954">
        <ele>1707.9194335938</ele>
        <time>2012-08-12T16:10:53Z</time>
      </trkpt>
      <trkpt lat="45.52451" lon="6.65942">
        <ele>1706.4772949219</ele>
        <time>2012-08-12T16:10:57Z</time>
      </trkpt>
      <trkpt lat="45.52454" lon="6.65926">
        <ele>1704.07421875</ele>
        <time>2012-08-12T16:11:01Z</time>
      </trkpt>
      <trkpt lat="45.52455" lon="6.65906">
        <ele>1703.5935058594</ele>
        <time>2012-08-12T16:11:07Z</time>
      </trkpt>
      <trkpt lat="45.52464" lon="6.65899">
        <ele>1703.5935058594</ele>
        <time>2012-08-12T16:11:10Z</time>
      </trkpt>
      <trkpt lat="45.52466" lon="6.65897">
        <ele>1702.1513671875</ele>
        <time>2012-08-12T16:11:12Z</time>
      </trkpt>
      <trkpt lat="45.5247" lon="6.6589">
        <ele>1699.7482910156</ele>
        <time>2012-08-12T16:11:15Z</time>
      </trkpt>
      <trkpt lat="45.52467" lon="6.65865">
        <ele>1698.7868652344</ele>
        <time>2012-08-12T16:11:22Z</time>
      </trkpt>
      <trkpt lat="45.52455" lon="6.65844">
        <ele>1698.7868652344</ele>
        <time>2012-08-12T16:11:28Z</time>
      </trkpt>
      <trkpt lat="45.52454" lon="6.65813">
        <ele>1698.3061523438</ele>
        <time>2012-08-12T16:11:35Z</time>
      </trkpt>
      <trkpt lat="45.52464" lon="6.65775">
        <ele>1698.3061523438</ele>
        <time>2012-08-12T16:11:45Z</time>
      </trkpt>
      <trkpt lat="45.52465" lon="6.6576">
        <ele>1697.8256835938</ele>
        <time>2012-08-12T16:11:49Z</time>
      </trkpt>
      <trkpt lat="45.52473" lon="6.65716">
        <ele>1698.3061523438</ele>
        <time>2012-08-12T16:11:59Z</time>
      </trkpt>
      <trkpt lat="45.52474" lon="6.65713">
        <ele>1698.3061523438</ele>
        <time>2012-08-12T16:12:00Z</time>
      </trkpt>
      <trkpt lat="45.52472" lon="6.65666">
        <ele>1696.3837890625</ele>
        <time>2012-08-12T16:12:11Z</time>
      </trkpt>
      <trkpt lat="45.52474" lon="6.65652">
        <ele>1696.8642578125</ele>
        <time>2012-08-12T16:12:15Z</time>
      </trkpt>
      <trkpt lat="45.52461" lon="6.65604">
        <ele>1695.9030761719</ele>
        <time>2012-08-12T16:12:25Z</time>
      </trkpt>
      <trkpt lat="45.5245" lon="6.65556">
        <ele>1695.9030761719</ele>
        <time>2012-08-12T16:12:38Z</time>
      </trkpt>
      <trkpt lat="45.52438" lon="6.655">
        <ele>1694.9416503906</ele>
        <time>2012-08-12T16:12:52Z</time>
      </trkpt>
      <trkpt lat="45.52439" lon="6.6549">
        <ele>1695.4223632812</ele>
        <time>2012-08-12T16:12:55Z</time>
      </trkpt>
      <trkpt lat="45.52439" lon="6.65464">
        <ele>1695.4223632812</ele>
        <time>2012-08-12T16:13:02Z</time>
      </trkpt>
      <trkpt lat="45.52432" lon="6.6543">
        <ele>1694.9416503906</ele>
        <time>2012-08-12T16:13:10Z</time>
      </trkpt>
      <trkpt lat="45.52433" lon="6.65402">
        <ele>1694.9416503906</ele>
        <time>2012-08-12T16:13:17Z</time>
      </trkpt>
      <trkpt lat="45.52428" lon="6.6538">
        <ele>1694.4609375</ele>
        <time>2012-08-12T16:13:24Z</time>
      </trkpt>
      <trkpt lat="45.52402" lon="6.65342">
        <ele>1695.4223632812</ele>
        <time>2012-08-12T16:13:36Z</time>
      </trkpt>
      <trkpt lat="45.52398" lon="6.65334">
        <ele>1695.4223632812</ele>
        <time>2012-08-12T16:13:38Z</time>
      </trkpt>
      <trkpt lat="45.52378" lon="6.65312">
        <ele>1695.4223632812</ele>
        <time>2012-08-12T16:13:45Z</time>
      </trkpt>
      <trkpt lat="45.52358" lon="6.65281">
        <ele>1694.9416503906</ele>
        <time>2012-08-12T16:13:55Z</time>
      </trkpt>
      <trkpt lat="45.52362" lon="6.65264">
        <ele>1693.98046875</ele>
        <time>2012-08-12T16:14:00Z</time>
      </trkpt>
      <trkpt lat="45.5236" lon="6.65238">
        <ele>1693.98046875</ele>
        <time>2012-08-12T16:14:08Z</time>
      </trkpt>
      <trkpt lat="45.52355" lon="6.65201">
        <ele>1693.4997558594</ele>
        <time>2012-08-12T16:14:16Z</time>
      </trkpt>
      <trkpt lat="45.52363" lon="6.6519">
        <ele>1694.4609375</ele>
        <time>2012-08-12T16:14:19Z</time>
      </trkpt>
      <trkpt lat="45.52366" lon="6.65159">
        <ele>1693.98046875</ele>
        <time>2012-08-12T16:14:28Z</time>
      </trkpt>
      <trkpt lat="45.52366" lon="6.65157">
        <ele>1693.98046875</ele>
        <time>2012-08-12T16:14:29Z</time>
      </trkpt>
      <trkpt lat="45.52372" lon="6.65123">
        <ele>1693.4997558594</ele>
        <time>2012-08-12T16:14:40Z</time>
      </trkpt>
      <trkpt lat="45.52372" lon="6.65114">
        <ele>1693.4997558594</ele>
        <time>2012-08-12T16:14:42Z</time>
      </trkpt>
      <trkpt lat="45.52385" lon="6.65074">
        <ele>1693.0190429688</ele>
        <time>2012-08-12T16:14:52Z</time>
      </trkpt>
      <trkpt lat="45.524" lon="6.65054">
        <ele>1693.4997558594</ele>
        <time>2012-08-12T16:14:59Z</time>
      </trkpt>
      <trkpt lat="45.5242" lon="6.65019">
        <ele>1693.98046875</ele>
        <time>2012-08-12T16:15:10Z</time>
      </trkpt>
      <trkpt lat="45.52422" lon="6.64983">
        <ele>1693.4997558594</ele>
        <time>2012-08-12T16:15:19Z</time>
      </trkpt>
      <trkpt lat="45.52382" lon="6.64937">
        <ele>1693.4997558594</ele>
        <time>2012-08-12T16:15:29Z</time>
      </trkpt>
      <trkpt lat="45.52382" lon="6.64896">
        <ele>1693.4997558594</ele>
        <time>2012-08-12T16:15:38Z</time>
      </trkpt>
      <trkpt lat="45.52382" lon="6.64889">
        <ele>1693.4997558594</ele>
        <time>2012-08-12T16:15:49Z</time>
      </trkpt>
      <trkpt lat="45.52382" lon="6.64889">
        <ele>1693.0190429688</ele>
        <time>2012-08-12T16:16:01Z</time>
      </trkpt>
      <trkpt lat="45.52382" lon="6.64889">
        <ele>1693.0190429688</ele>
        <time>2012-08-12T16:16:05Z</time>
      </trkpt>
      <trkpt lat="45.52481" lon="6.64871">
        <ele>1693.0190429688</ele>
        <time>2012-08-12T16:16:22Z</time>
      </trkpt>
      <trkpt lat="45.52478" lon="6.6485">
        <ele>1693.0190429688</ele>
        <time>2012-08-12T16:16:35Z</time>
      </trkpt>
      <trkpt lat="45.52466" lon="6.64827">
        <ele>1693.4997558594</ele>
        <time>2012-08-12T16:16:48Z</time>
      </trkpt>
      <trkpt lat="45.52463" lon="6.64825">
        <ele>1693.4997558594</ele>
        <time>2012-08-12T16:16:50Z</time>
      </trkpt>
      <trkpt lat="45.5246" lon="6.64819">
        <ele>1691.5769042969</ele>
        <time>2012-08-12T16:16:53Z</time>
      </trkpt>
      <trkpt lat="45.52459" lon="6.64813">
        <ele>1693.4997558594</ele>
        <time>2012-08-12T16:16:56Z</time>
      </trkpt>
      <trkpt lat="45.52458" lon="6.64801">
        <ele>1692.5385742188</ele>
        <time>2012-08-12T16:16:59Z</time>
      </trkpt>
      <trkpt lat="45.52451" lon="6.64776">
        <ele>1692.5385742188</ele>
        <time>2012-08-12T16:17:07Z</time>
      </trkpt>
      <trkpt lat="45.52444" lon="6.64767">
        <ele>1693.0190429688</ele>
        <time>2012-08-12T16:17:11Z</time>
      </trkpt>
      <trkpt lat="45.52424" lon="6.6475">
        <ele>1691.5769042969</ele>
        <time>2012-08-12T16:17:22Z</time>
      </trkpt>
      <trkpt lat="45.52417" lon="6.64733">
        <ele>1691.5769042969</ele>
        <time>2012-08-12T16:17:31Z</time>
      </trkpt>
      <trkpt lat="45.52419" lon="6.6473">
        <ele>1691.5769042969</ele>
        <time>2012-08-12T16:17:33Z</time>
      </trkpt>
      <trkpt lat="45.52437" lon="6.64721">
        <ele>1691.5769042969</ele>
        <time>2012-08-12T16:17:41Z</time>
      </trkpt>
      <trkpt lat="45.52442" lon="6.64711">
        <ele>1691.5769042969</ele>
        <time>2012-08-12T16:17:45Z</time>
      </trkpt>
      <trkpt lat="45.52446" lon="6.64698">
        <ele>1691.5769042969</ele>
        <time>2012-08-12T16:17:50Z</time>
      </trkpt>
      <trkpt lat="45.52452" lon="6.64666">
        <ele>1691.5769042969</ele>
        <time>2012-08-12T16:17:58Z</time>
      </trkpt>
      <trkpt lat="45.52454" lon="6.6466">
        <ele>1691.5769042969</ele>
        <time>2012-08-12T16:18:00Z</time>
      </trkpt>
      <trkpt lat="45.52454" lon="6.64638">
        <ele>1691.0961914062</ele>
        <time>2012-08-12T16:18:05Z</time>
      </trkpt>
      <trkpt lat="45.52456" lon="6.64628">
        <ele>1691.0961914062</ele>
        <time>2012-08-12T16:18:08Z</time>
      </trkpt>
      <trkpt lat="45.52477" lon="6.64613">
        <ele>1691.5769042969</ele>
        <time>2012-08-12T16:18:17Z</time>
      </trkpt>
      <trkpt lat="45.52495" lon="6.64621">
        <ele>1689.654296875</ele>
        <time>2012-08-12T16:18:23Z</time>
      </trkpt>
      <trkpt lat="45.52517" lon="6.64633">
        <ele>1690.6154785156</ele>
        <time>2012-08-12T16:18:32Z</time>
      </trkpt>
      <trkpt lat="45.52533" lon="6.64637">
        <ele>1690.6154785156</ele>
        <time>2012-08-12T16:18:38Z</time>
      </trkpt>
      <trkpt lat="45.52564" lon="6.64614">
        <ele>1691.0961914062</ele>
        <time>2012-08-12T16:18:51Z</time>
      </trkpt>
      <trkpt lat="45.52578" lon="6.64586">
        <ele>1690.6154785156</ele>
        <time>2012-08-12T16:18:59Z</time>
      </trkpt>
      <trkpt lat="45.52596" lon="6.6456">
        <ele>1689.654296875</ele>
        <time>2012-08-12T16:19:09Z</time>
      </trkpt>
      <trkpt lat="45.5259" lon="6.64528">
        <ele>1691.5769042969</ele>
        <time>2012-08-12T16:19:21Z</time>
      </trkpt>
      <trkpt lat="45.5259" lon="6.64524">
        <ele>1691.0961914062</ele>
        <time>2012-08-12T16:19:39Z</time>
      </trkpt>
      <trkpt lat="45.52591" lon="6.64524">
        <ele>1691.0961914062</ele>
        <time>2012-08-12T16:19:56Z</time>
      </trkpt>
      <trkpt lat="45.52597" lon="6.64519">
        <ele>1689.654296875</ele>
        <time>2012-08-12T16:20:00Z</time>
      </trkpt>
      <trkpt lat="45.526" lon="6.64512">
        <ele>1688.2124023438</ele>
        <time>2012-08-12T16:20:02Z</time>
      </trkpt>
      <trkpt lat="45.52605" lon="6.64504">
        <ele>1685.8090820312</ele>
        <time>2012-08-12T16:20:05Z</time>
      </trkpt>
      <trkpt lat="45.52611" lon="6.64487">
        <ele>1681.9638671875</ele>
        <time>2012-08-12T16:20:11Z</time>
      </trkpt>
      <trkpt lat="45.52611" lon="6.64483">
        <ele>1681.9638671875</ele>
        <time>2012-08-12T16:20:12Z</time>
      </trkpt>
      <trkpt lat="45.52612" lon="6.64479">
        <ele>1681.0026855469</ele>
        <time>2012-08-12T16:20:13Z</time>
      </trkpt>
      <trkpt lat="45.52621" lon="6.64467">
        <ele>1677.6379394531</ele>
        <time>2012-08-12T16:20:18Z</time>
      </trkpt>
      <trkpt lat="45.52622" lon="6.64464">
        <ele>1677.6379394531</ele>
        <time>2012-08-12T16:20:19Z</time>
      </trkpt>
      <trkpt lat="45.52623" lon="6.64452">
        <ele>1675.7150878906</ele>
        <time>2012-08-12T16:20:22Z</time>
      </trkpt>
      <trkpt lat="45.52626" lon="6.64438">
        <ele>1674.2731933594</ele>
        <time>2012-08-12T16:20:26Z</time>
      </trkpt>
      <trkpt lat="45.52635" lon="6.64412">
        <ele>1672.3505859375</ele>
        <time>2012-08-12T16:20:32Z</time>
      </trkpt>
      <trkpt lat="45.52644" lon="6.6439">
        <ele>1669.947265625</ele>
        <time>2012-08-12T16:20:39Z</time>
      </trkpt>
      <trkpt lat="45.5265" lon="6.64386">
        <ele>1669.947265625</ele>
        <time>2012-08-12T16:20:41Z</time>
      </trkpt>
      <trkpt lat="45.52659" lon="6.64368">
        <ele>1668.9860839844</ele>
        <time>2012-08-12T16:20:46Z</time>
      </trkpt>
      <trkpt lat="45.52669" lon="6.64342">
        <ele>1666.1020507812</ele>
        <time>2012-08-12T16:20:53Z</time>
      </trkpt>
      <trkpt lat="45.52673" lon="6.64332">
        <ele>1664.1794433594</ele>
        <time>2012-08-12T16:20:56Z</time>
      </trkpt>
      <trkpt lat="45.5268" lon="6.64316">
        <ele>1660.8149414062</ele>
        <time>2012-08-12T16:21:01Z</time>
      </trkpt>
      <trkpt lat="45.52681" lon="6.64309">
        <ele>1659.8532714844</ele>
        <time>2012-08-12T16:21:03Z</time>
      </trkpt>
      <trkpt lat="45.5269" lon="6.64296">
        <ele>1657.4501953125</ele>
        <time>2012-08-12T16:21:07Z</time>
      </trkpt>
      <trkpt lat="45.52698" lon="6.64288">
        <ele>1655.5275878906</ele>
        <time>2012-08-12T16:21:10Z</time>
      </trkpt>
      <trkpt lat="45.52712" lon="6.64277">
        <ele>1653.1242675781</ele>
        <time>2012-08-12T16:21:14Z</time>
      </trkpt>
      <trkpt lat="45.52725" lon="6.64266">
        <ele>1650.2404785156</ele>
        <time>2012-08-12T16:21:18Z</time>
      </trkpt>
      <trkpt lat="45.52728" lon="6.64264">
        <ele>1650.2404785156</ele>
        <time>2012-08-12T16:21:19Z</time>
      </trkpt>
      <trkpt lat="45.52729" lon="6.6426">
        <ele>1648.7983398438</ele>
        <time>2012-08-12T16:21:20Z</time>
      </trkpt>
      <trkpt lat="45.52742" lon="6.64249">
        <ele>1645.9145507812</ele>
        <time>2012-08-12T16:21:26Z</time>
      </trkpt>
      <trkpt lat="45.52746" lon="6.64244">
        <ele>1644.953125</ele>
        <time>2012-08-12T16:21:28Z</time>
      </trkpt>
      <trkpt lat="45.52752" lon="6.64238">
        <ele>1643.0302734375</ele>
        <time>2012-08-12T16:21:31Z</time>
      </trkpt>
      <trkpt lat="45.52755" lon="6.64236">
        <ele>1642.0690917969</ele>
        <time>2012-08-12T16:21:33Z</time>
      </trkpt>
      <trkpt lat="45.5276" lon="6.64234">
        <ele>1640.626953125</ele>
        <time>2012-08-12T16:21:35Z</time>
      </trkpt>
      <trkpt lat="45.52766" lon="6.64228">
        <ele>1637.7431640625</ele>
        <time>2012-08-12T16:21:39Z</time>
      </trkpt>
      <trkpt lat="45.52772" lon="6.64217">
        <ele>1636.7817382812</ele>
        <time>2012-08-12T16:21:43Z</time>
      </trkpt>
      <trkpt lat="45.52779" lon="6.64218">
        <ele>1635.33984375</ele>
        <time>2012-08-12T16:21:47Z</time>
      </trkpt>
      <trkpt lat="45.5278" lon="6.64221">
        <ele>1633.8979492188</ele>
        <time>2012-08-12T16:21:48Z</time>
      </trkpt>
      <trkpt lat="45.52788" lon="6.64228">
        <ele>1632.4560546875</ele>
        <time>2012-08-12T16:21:51Z</time>
      </trkpt>
      <trkpt lat="45.52794" lon="6.64237">
        <ele>1629.5720214844</ele>
        <time>2012-08-12T16:21:54Z</time>
      </trkpt>
      <trkpt lat="45.52795" lon="6.64239">
        <ele>1628.6108398438</ele>
        <time>2012-08-12T16:21:55Z</time>
      </trkpt>
      <trkpt lat="45.52807" lon="6.64235">
        <ele>1626.2072753906</ele>
        <time>2012-08-12T16:22:00Z</time>
      </trkpt>
      <trkpt lat="45.52813" lon="6.64234">
        <ele>1624.2846679688</ele>
        <time>2012-08-12T16:22:02Z</time>
      </trkpt>
      <trkpt lat="45.52827" lon="6.64223">
        <ele>1620.9201660156</ele>
        <time>2012-08-12T16:22:09Z</time>
      </trkpt>
      <trkpt lat="45.52836" lon="6.64214">
        <ele>1619.4782714844</ele>
        <time>2012-08-12T16:22:14Z</time>
      </trkpt>
      <trkpt lat="45.52842" lon="6.64209">
        <ele>1618.0361328125</ele>
        <time>2012-08-12T16:22:17Z</time>
      </trkpt>
      <trkpt lat="45.52847" lon="6.64199">
        <ele>1616.5942382812</ele>
        <time>2012-08-12T16:22:21Z</time>
      </trkpt>
      <trkpt lat="45.52849" lon="6.64196">
        <ele>1615.6330566406</ele>
        <time>2012-08-12T16:22:34Z</time>
      </trkpt>
      <trkpt lat="45.52853" lon="6.64198">
        <ele>1614.1909179688</ele>
        <time>2012-08-12T16:22:38Z</time>
      </trkpt>
      <trkpt lat="45.52857" lon="6.64198">
        <ele>1613.2297363281</ele>
        <time>2012-08-12T16:22:40Z</time>
      </trkpt>
      <trkpt lat="45.52863" lon="6.64201">
        <ele>1610.826171875</ele>
        <time>2012-08-12T16:22:44Z</time>
      </trkpt>
      <trkpt lat="45.52869" lon="6.642">
        <ele>1609.3842773438</ele>
        <time>2012-08-12T16:22:47Z</time>
      </trkpt>
      <trkpt lat="45.52873" lon="6.64198">
        <ele>1608.4228515625</ele>
        <time>2012-08-12T16:22:49Z</time>
      </trkpt>
      <trkpt lat="45.52881" lon="6.64191">
        <ele>1605.5390625</ele>
        <time>2012-08-12T16:22:53Z</time>
      </trkpt>
      <trkpt lat="45.52884" lon="6.64178">
        <ele>1604.0971679688</ele>
        <time>2012-08-12T16:22:57Z</time>
      </trkpt>
      <trkpt lat="45.52886" lon="6.64162">
        <ele>1601.6938476562</ele>
        <time>2012-08-12T16:23:01Z</time>
      </trkpt>
      <trkpt lat="45.52891" lon="6.64148">
        <ele>1599.7712402344</ele>
        <time>2012-08-12T16:23:05Z</time>
      </trkpt>
      <trkpt lat="45.52897" lon="6.64143">
        <ele>1598.3291015625</ele>
        <time>2012-08-12T16:23:08Z</time>
      </trkpt>
      <trkpt lat="45.529" lon="6.64138">
        <ele>1596.8872070312</ele>
        <time>2012-08-12T16:23:10Z</time>
      </trkpt>
      <trkpt lat="45.52909" lon="6.64133">
        <ele>1594.0031738281</ele>
        <time>2012-08-12T16:23:15Z</time>
      </trkpt>
      <trkpt lat="45.52911" lon="6.64128">
        <ele>1592.0805664062</ele>
        <time>2012-08-12T16:23:17Z</time>
      </trkpt>
      <trkpt lat="45.52914" lon="6.64116">
        <ele>1588.7160644531</ele>
        <time>2012-08-12T16:23:21Z</time>
      </trkpt>
      <trkpt lat="45.52916" lon="6.64114">
        <ele>1588.7160644531</ele>
        <time>2012-08-12T16:23:22Z</time>
      </trkpt>
      <trkpt lat="45.5292" lon="6.64098">
        <ele>1586.3127441406</ele>
        <time>2012-08-12T16:23:28Z</time>
      </trkpt>
      <trkpt lat="45.52924" lon="6.64088">
        <ele>1583.9094238281</ele>
        <time>2012-08-12T16:23:31Z</time>
      </trkpt>
      <trkpt lat="45.52927" lon="6.6406">
        <ele>1580.0642089844</ele>
        <time>2012-08-12T16:23:37Z</time>
      </trkpt>
      <trkpt lat="45.52926" lon="6.64029">
        <ele>1575.7380371094</ele>
        <time>2012-08-12T16:23:44Z</time>
      </trkpt>
      <trkpt lat="45.52927" lon="6.64026">
        <ele>1575.7380371094</ele>
        <time>2012-08-12T16:23:45Z</time>
      </trkpt>
      <trkpt lat="45.52929" lon="6.64023">
        <ele>1574.7768554688</ele>
        <time>2012-08-12T16:23:46Z</time>
      </trkpt>
      <trkpt lat="45.52927" lon="6.6401">
        <ele>1573.8154296875</ele>
        <time>2012-08-12T16:23:49Z</time>
      </trkpt>
      <trkpt lat="45.52925" lon="6.63995">
        <ele>1571.412109375</ele>
        <time>2012-08-12T16:23:52Z</time>
      </trkpt>
      <trkpt lat="45.52923" lon="6.63984">
        <ele>1569.9702148438</ele>
        <time>2012-08-12T16:23:54Z</time>
      </trkpt>
      <trkpt lat="45.52924" lon="6.63966">
        <ele>1567.0864257812</ele>
        <time>2012-08-12T16:23:58Z</time>
      </trkpt>
      <trkpt lat="45.52923" lon="6.63962">
        <ele>1567.0864257812</ele>
        <time>2012-08-12T16:23:59Z</time>
      </trkpt>
      <trkpt lat="45.52928" lon="6.63953">
        <ele>1565.64453125</ele>
        <time>2012-08-12T16:24:09Z</time>
      </trkpt>
      <trkpt lat="45.52928" lon="6.63954">
        <ele>1565.1638183594</ele>
        <time>2012-08-12T16:24:12Z</time>
      </trkpt>
      <trkpt lat="45.5293" lon="6.63965">
        <ele>1564.2023925781</ele>
        <time>2012-08-12T16:24:16Z</time>
      </trkpt>
      <trkpt lat="45.52942" lon="6.63984">
        <ele>1560.8376464844</ele>
        <time>2012-08-12T16:24:25Z</time>
      </trkpt>
      <trkpt lat="45.52964" lon="6.64009">
        <ele>1557.9538574219</ele>
        <time>2012-08-12T16:24:34Z</time>
      </trkpt>
      <trkpt lat="45.52969" lon="6.6402">
        <ele>1556.51171875</ele>
        <time>2012-08-12T16:24:38Z</time>
      </trkpt>
      <trkpt lat="45.52975" lon="6.6404">
        <ele>1554.1086425781</ele>
        <time>2012-08-12T16:24:43Z</time>
      </trkpt>
      <trkpt lat="45.5299" lon="6.64074">
        <ele>1551.224609375</ele>
        <time>2012-08-12T16:24:53Z</time>
      </trkpt>
      <trkpt lat="45.52992" lon="6.64082">
        <ele>1550.7438964844</ele>
        <time>2012-08-12T16:24:56Z</time>
      </trkpt>
      <trkpt lat="45.52993" lon="6.64091">
        <ele>1549.3020019531</ele>
        <time>2012-08-12T16:24:59Z</time>
      </trkpt>
      <trkpt lat="45.52995" lon="6.64102">
        <ele>1547.3791503906</ele>
        <time>2012-08-12T16:25:02Z</time>
      </trkpt>
      <trkpt lat="45.53015" lon="6.64132">
        <ele>1544.0146484375</ele>
        <time>2012-08-12T16:25:11Z</time>
      </trkpt>
      <trkpt lat="45.53019" lon="6.64137">
        <ele>1543.0532226562</ele>
        <time>2012-08-12T16:25:13Z</time>
      </trkpt>
      <trkpt lat="45.53031" lon="6.64154">
        <ele>1541.1306152344</ele>
        <time>2012-08-12T16:25:18Z</time>
      </trkpt>
      <trkpt lat="45.5303" lon="6.64179">
        <ele>1538.2468261719</ele>
        <time>2012-08-12T16:25:26Z</time>
      </trkpt>
      <trkpt lat="45.53032" lon="6.64218">
        <ele>1534.4016113281</ele>
        <time>2012-08-12T16:25:37Z</time>
      </trkpt>
      <trkpt lat="45.53034" lon="6.64222">
        <ele>1534.4016113281</ele>
        <time>2012-08-12T16:25:38Z</time>
      </trkpt>
      <trkpt lat="45.5304" lon="6.64258">
        <ele>1531.0368652344</ele>
        <time>2012-08-12T16:25:48Z</time>
      </trkpt>
      <trkpt lat="45.53041" lon="6.64292">
        <ele>1528.6335449219</ele>
        <time>2012-08-12T16:25:57Z</time>
      </trkpt>
      <trkpt lat="45.53043" lon="6.64319">
        <ele>1525.7495117188</ele>
        <time>2012-08-12T16:26:04Z</time>
      </trkpt>
      <trkpt lat="45.53043" lon="6.64345">
        <ele>1522.8657226562</ele>
        <time>2012-08-12T16:26:11Z</time>
      </trkpt>
      <trkpt lat="45.53042" lon="6.6436">
        <ele>1520.9431152344</ele>
        <time>2012-08-12T16:26:15Z</time>
      </trkpt>
      <trkpt lat="45.53041" lon="6.6437">
        <ele>1519.5012207031</ele>
        <time>2012-08-12T16:26:18Z</time>
      </trkpt>
      <trkpt lat="45.53028" lon="6.644">
        <ele>1518.0590820312</ele>
        <time>2012-08-12T16:26:27Z</time>
      </trkpt>
      <trkpt lat="45.53021" lon="6.64414">
        <ele>1519.9816894531</ele>
        <time>2012-08-12T16:26:49Z</time>
      </trkpt>
      <trkpt lat="45.53019" lon="6.6442">
        <ele>1519.0205078125</ele>
        <time>2012-08-12T16:26:59Z</time>
      </trkpt>
      <trkpt lat="45.53016" lon="6.64436">
        <ele>1518.0590820312</ele>
        <time>2012-08-12T16:27:04Z</time>
      </trkpt>
      <trkpt lat="45.53012" lon="6.64449">
        <ele>1514.2136230469</ele>
        <time>2012-08-12T16:27:10Z</time>
      </trkpt>
      <trkpt lat="45.5301" lon="6.64451">
        <ele>1514.2136230469</ele>
        <time>2012-08-12T16:27:11Z</time>
      </trkpt>
      <trkpt lat="45.53009" lon="6.64455">
        <ele>1512.7717285156</ele>
        <time>2012-08-12T16:27:13Z</time>
      </trkpt>
      <trkpt lat="45.53008" lon="6.64468">
        <ele>1510.8491210938</ele>
        <time>2012-08-12T16:27:16Z</time>
      </trkpt>
      <trkpt lat="45.5301" lon="6.64473">
        <ele>1510.3684082031</ele>
        <time>2012-08-12T16:27:18Z</time>
      </trkpt>
      <trkpt lat="45.53016" lon="6.64501">
        <ele>1507.4846191406</ele>
        <time>2012-08-12T16:27:25Z</time>
      </trkpt>
      <trkpt lat="45.53019" lon="6.64523">
        <ele>1504.6005859375</ele>
        <time>2012-08-12T16:27:31Z</time>
      </trkpt>
      <trkpt lat="45.53017" lon="6.64532">
        <ele>1504.1201171875</ele>
        <time>2012-08-12T16:27:34Z</time>
      </trkpt>
      <trkpt lat="45.53014" lon="6.64551">
        <ele>1500.7553710938</ele>
        <time>2012-08-12T16:27:39Z</time>
      </trkpt>
      <trkpt lat="45.53015" lon="6.64563">
        <ele>1499.7939453125</ele>
        <time>2012-08-12T16:27:42Z</time>
      </trkpt>
      <trkpt lat="45.53013" lon="6.64569">
        <ele>1499.3132324219</ele>
        <time>2012-08-12T16:27:44Z</time>
      </trkpt>
      <trkpt lat="45.53008" lon="6.646">
        <ele>1495.9487304688</ele>
        <time>2012-08-12T16:27:53Z</time>
      </trkpt>
      <trkpt lat="45.53008" lon="6.6461">
        <ele>1494.9873046875</ele>
        <time>2012-08-12T16:27:55Z</time>
      </trkpt>
      <trkpt lat="45.53007" lon="6.64659">
        <ele>1491.6228027344</ele>
        <time>2012-08-12T16:28:05Z</time>
      </trkpt>
      <trkpt lat="45.5301" lon="6.64675">
        <ele>1489.7001953125</ele>
        <time>2012-08-12T16:28:09Z</time>
      </trkpt>
      <trkpt lat="45.53012" lon="6.64692">
        <ele>1488.2583007812</ele>
        <time>2012-08-12T16:28:13Z</time>
      </trkpt>
      <trkpt lat="45.53016" lon="6.64692">
        <ele>1487.296875</ele>
        <time>2012-08-12T16:28:16Z</time>
      </trkpt>
      <trkpt lat="45.53025" lon="6.64679">
        <ele>1484.8937988281</ele>
        <time>2012-08-12T16:28:22Z</time>
      </trkpt>
      <trkpt lat="45.53027" lon="6.64676">
        <ele>1484.8937988281</ele>
        <time>2012-08-12T16:28:23Z</time>
      </trkpt>
      <trkpt lat="45.53028" lon="6.64652">
        <ele>1481.0483398438</ele>
        <time>2012-08-12T16:28:30Z</time>
      </trkpt>
      <trkpt lat="45.53032" lon="6.64646">
        <ele>1479.6062011719</ele>
        <time>2012-08-12T16:28:32Z</time>
      </trkpt>
      <trkpt lat="45.5304" lon="6.64629">
        <ele>1476.2416992188</ele>
        <time>2012-08-12T16:28:38Z</time>
      </trkpt>
      <trkpt lat="45.53041" lon="6.64626">
        <ele>1476.2416992188</ele>
        <time>2012-08-12T16:28:39Z</time>
      </trkpt>
      <trkpt lat="45.53053" lon="6.6462">
        <ele>1473.8383789062</ele>
        <time>2012-08-12T16:28:51Z</time>
      </trkpt>
      <trkpt lat="45.5306" lon="6.64607">
        <ele>1471.9157714844</ele>
        <time>2012-08-12T16:28:56Z</time>
      </trkpt>
      <trkpt lat="45.53068" lon="6.64572">
        <ele>1468.5512695312</ele>
        <time>2012-08-12T16:29:05Z</time>
      </trkpt>
      <trkpt lat="45.53083" lon="6.64535">
        <ele>1465.1865234375</ele>
        <time>2012-08-12T16:29:15Z</time>
      </trkpt>
      <trkpt lat="45.53092" lon="6.64523">
        <ele>1463.7443847656</ele>
        <time>2012-08-12T16:29:19Z</time>
      </trkpt>
      <trkpt lat="45.53123" lon="6.645">
        <ele>1460.8605957031</ele>
        <time>2012-08-12T16:29:29Z</time>
      </trkpt>
      <trkpt lat="45.53126" lon="6.64497">
        <ele>1460.8605957031</ele>
        <time>2012-08-12T16:29:30Z</time>
      </trkpt>
      <trkpt lat="45.53146" lon="6.64482">
        <ele>1457.9768066406</ele>
        <time>2012-08-12T16:29:38Z</time>
      </trkpt>
      <trkpt lat="45.53166" lon="6.64456">
        <ele>1454.6120605469</ele>
        <time>2012-08-12T16:29:47Z</time>
      </trkpt>
      <trkpt lat="45.53171" lon="6.6444">
        <ele>1453.1701660156</ele>
        <time>2012-08-12T16:29:51Z</time>
      </trkpt>
      <trkpt lat="45.53182" lon="6.64406">
        <ele>1449.8054199219</ele>
        <time>2012-08-12T16:29:59Z</time>
      </trkpt>
      <trkpt lat="45.53185" lon="6.64381">
        <ele>1448.8439941406</ele>
        <time>2012-08-12T16:30:05Z</time>
      </trkpt>
      <trkpt lat="45.53191" lon="6.64367">
        <ele>1448.36328125</ele>
        <time>2012-08-12T16:30:09Z</time>
      </trkpt>
      <trkpt lat="45.53208" lon="6.64352">
        <ele>1446.4409179688</ele>
        <time>2012-08-12T16:30:15Z</time>
      </trkpt>
      <trkpt lat="45.53215" lon="6.64344">
        <ele>1444.5180664062</ele>
        <time>2012-08-12T16:30:18Z</time>
      </trkpt>
      <trkpt lat="45.53224" lon="6.64338">
        <ele>1442.595703125</ele>
        <time>2012-08-12T16:30:21Z</time>
      </trkpt>
      <trkpt lat="45.53226" lon="6.64334">
        <ele>1442.1149902344</ele>
        <time>2012-08-12T16:30:22Z</time>
      </trkpt>
      <trkpt lat="45.5325" lon="6.64312">
        <ele>1439.2309570312</ele>
        <time>2012-08-12T16:30:31Z</time>
      </trkpt>
      <trkpt lat="45.53262" lon="6.64278">
        <ele>1436.8276367188</ele>
        <time>2012-08-12T16:30:41Z</time>
      </trkpt>
      <trkpt lat="45.53269" lon="6.64271">
        <ele>1434.4243164062</ele>
        <time>2012-08-12T16:30:44Z</time>
      </trkpt>
      <trkpt lat="45.53271" lon="6.64268">
        <ele>1432.9821777344</ele>
        <time>2012-08-12T16:30:46Z</time>
      </trkpt>
      <trkpt lat="45.53271" lon="6.64262">
        <ele>1433.9436035156</ele>
        <time>2012-08-12T16:30:54Z</time>
      </trkpt>
      <trkpt lat="45.53279" lon="6.64253">
        <ele>1431.5402832031</ele>
        <time>2012-08-12T16:31:00Z</time>
      </trkpt>
      <trkpt lat="45.53281" lon="6.64245">
        <ele>1430.0983886719</ele>
        <time>2012-08-12T16:31:02Z</time>
      </trkpt>
      <trkpt lat="45.53287" lon="6.64235">
        <ele>1429.1369628906</ele>
        <time>2012-08-12T16:31:05Z</time>
      </trkpt>
      <trkpt lat="45.53298" lon="6.64209">
        <ele>1426.7338867188</ele>
        <time>2012-08-12T16:31:12Z</time>
      </trkpt>
      <trkpt lat="45.53311" lon="6.6417">
        <ele>1423.3693847656</ele>
        <time>2012-08-12T16:31:22Z</time>
      </trkpt>
      <trkpt lat="45.5333" lon="6.64129">
        <ele>1420.9660644531</ele>
        <time>2012-08-12T16:31:33Z</time>
      </trkpt>
      <trkpt lat="45.53333" lon="6.6412">
        <ele>1419.5239257812</ele>
        <time>2012-08-12T16:31:35Z</time>
      </trkpt>
      <trkpt lat="45.53343" lon="6.64088">
        <ele>1418.5625</ele>
        <time>2012-08-12T16:31:43Z</time>
      </trkpt>
      <trkpt lat="45.53353" lon="6.64048">
        <ele>1417.1206054688</ele>
        <time>2012-08-12T16:31:53Z</time>
      </trkpt>
      <trkpt lat="45.5336" lon="6.6402">
        <ele>1415.1979980469</ele>
        <time>2012-08-12T16:32:00Z</time>
      </trkpt>
      <trkpt lat="45.53365" lon="6.64009">
        <ele>1414.7172851562</ele>
        <time>2012-08-12T16:32:03Z</time>
      </trkpt>
      <trkpt lat="45.53382" lon="6.63967">
        <ele>1411.8334960938</ele>
        <time>2012-08-12T16:32:14Z</time>
      </trkpt>
      <trkpt lat="45.53393" lon="6.63946">
        <ele>1411.8334960938</ele>
        <time>2012-08-12T16:32:27Z</time>
      </trkpt>
      <trkpt lat="45.53395" lon="6.63942">
        <ele>1411.3527832031</ele>
        <time>2012-08-12T16:32:32Z</time>
      </trkpt>
    </trkseg>
  </trk>
</gpx>